<?xml version="1.0" encoding="UTF-8" standalone="no" ?>
<gpx xmlns="http://www.topografix.com/GPX/1/1" xmlns:xsi="http://www.w3.org/2001/XMLSchema-instance" xsi:schemaLocation="http://www.topografix.com/GPX/1/1 http://www.topografix.com/GPX/1/1/gpx.xsd" version="1.1" creator="VisuGPX - https://www.visugpx.com">
  <metadata>
    <name>marche cernay</name>
    <desc><![CDATA[marche populaire]]></desc>
  </metadata>
  <trk>
    <name><![CDATA[marche cernay_1]]></name>
    <trkseg>
      <trkpt lat="47.80444" lon="7.16973">
        <ele>299</ele>
        <time>2015-04-26T11:25:13Z</time>
      </trkpt>
      <trkpt lat="47.80444" lon="7.16973">
        <ele>301</ele>
        <time>2015-04-26T11:25:18Z</time>
      </trkpt>
      <trkpt lat="47.80445" lon="7.16969">
        <ele>301.7</ele>
        <time>2015-04-26T11:25:20Z</time>
      </trkpt>
      <trkpt lat="47.80449" lon="7.16966">
        <ele>301.9</ele>
        <time>2015-04-26T11:25:22Z</time>
      </trkpt>
      <trkpt lat="47.80451" lon="7.16945">
        <ele>302</ele>
        <time>2015-04-26T11:25:36Z</time>
      </trkpt>
      <trkpt lat="47.80451" lon="7.16937">
        <ele>302</ele>
        <time>2015-04-26T11:25:41Z</time>
      </trkpt>
      <trkpt lat="47.80446" lon="7.16927">
        <ele>301.2</ele>
        <time>2015-04-26T11:25:46Z</time>
      </trkpt>
      <trkpt lat="47.80445" lon="7.16919">
        <ele>301.2</ele>
        <time>2015-04-26T11:25:50Z</time>
      </trkpt>
      <trkpt lat="47.80446" lon="7.16912">
        <ele>301</ele>
        <time>2015-04-26T11:25:54Z</time>
      </trkpt>
      <trkpt lat="47.80448" lon="7.16905">
        <ele>301</ele>
        <time>2015-04-26T11:25:58Z</time>
      </trkpt>
      <trkpt lat="47.8045" lon="7.16885">
        <ele>301</ele>
        <time>2015-04-26T11:26:09Z</time>
      </trkpt>
      <trkpt lat="47.80448" lon="7.16875">
        <ele>301</ele>
        <time>2015-04-26T11:26:13Z</time>
      </trkpt>
      <trkpt lat="47.80447" lon="7.16868">
        <ele>301</ele>
        <time>2015-04-26T11:26:16Z</time>
      </trkpt>
      <trkpt lat="47.80448" lon="7.16862">
        <ele>301</ele>
        <time>2015-04-26T11:26:20Z</time>
      </trkpt>
      <trkpt lat="47.80455" lon="7.1685">
        <ele>301</ele>
        <time>2015-04-26T11:26:25Z</time>
      </trkpt>
      <trkpt lat="47.80458" lon="7.16843">
        <ele>301</ele>
        <time>2015-04-26T11:26:30Z</time>
      </trkpt>
      <trkpt lat="47.80459" lon="7.16835">
        <ele>301</ele>
        <time>2015-04-26T11:26:34Z</time>
      </trkpt>
      <trkpt lat="47.8046" lon="7.16827">
        <ele>301</ele>
        <time>2015-04-26T11:26:38Z</time>
      </trkpt>
      <trkpt lat="47.80461" lon="7.1682">
        <ele>301</ele>
        <time>2015-04-26T11:26:41Z</time>
      </trkpt>
      <trkpt lat="47.8046" lon="7.16811">
        <ele>301</ele>
        <time>2015-04-26T11:26:45Z</time>
      </trkpt>
      <trkpt lat="47.80468" lon="7.16792">
        <ele>301</ele>
        <time>2015-04-26T11:26:56Z</time>
      </trkpt>
      <trkpt lat="47.80471" lon="7.16779">
        <ele>301</ele>
        <time>2015-04-26T11:27:04Z</time>
      </trkpt>
      <trkpt lat="47.80472" lon="7.16771">
        <ele>301</ele>
        <time>2015-04-26T11:27:09Z</time>
      </trkpt>
      <trkpt lat="47.80471" lon="7.16763">
        <ele>301</ele>
        <time>2015-04-26T11:27:14Z</time>
      </trkpt>
      <trkpt lat="47.8047" lon="7.16754">
        <ele>301</ele>
        <time>2015-04-26T11:27:17Z</time>
      </trkpt>
      <trkpt lat="47.8047" lon="7.16747">
        <ele>301</ele>
        <time>2015-04-26T11:27:21Z</time>
      </trkpt>
      <trkpt lat="47.80472" lon="7.1674">
        <ele>301</ele>
        <time>2015-04-26T11:27:24Z</time>
      </trkpt>
      <trkpt lat="47.80473" lon="7.16725">
        <ele>301</ele>
        <time>2015-04-26T11:27:32Z</time>
      </trkpt>
      <trkpt lat="47.80475" lon="7.16718">
        <ele>301.5</ele>
        <time>2015-04-26T11:27:36Z</time>
      </trkpt>
      <trkpt lat="47.80472" lon="7.16713">
        <ele>301.5</ele>
        <time>2015-04-26T11:27:40Z</time>
      </trkpt>
      <trkpt lat="47.80466" lon="7.16699">
        <ele>302</ele>
        <time>2015-04-26T11:27:48Z</time>
      </trkpt>
      <trkpt lat="47.8046" lon="7.16688">
        <ele>302.8</ele>
        <time>2015-04-26T11:27:55Z</time>
      </trkpt>
      <trkpt lat="47.80457" lon="7.16683">
        <ele>303</ele>
        <time>2015-04-26T11:27:58Z</time>
      </trkpt>
      <trkpt lat="47.80455" lon="7.16669">
        <ele>305.7</ele>
        <time>2015-04-26T11:28:06Z</time>
      </trkpt>
      <trkpt lat="47.80452" lon="7.16662">
        <ele>308</ele>
        <time>2015-04-26T11:28:10Z</time>
      </trkpt>
      <trkpt lat="47.80451" lon="7.16655">
        <ele>308</ele>
        <time>2015-04-26T11:28:15Z</time>
      </trkpt>
      <trkpt lat="47.80454" lon="7.16641">
        <ele>308</ele>
        <time>2015-04-26T11:28:24Z</time>
      </trkpt>
      <trkpt lat="47.80448" lon="7.16626">
        <ele>308</ele>
        <time>2015-04-26T11:28:30Z</time>
      </trkpt>
      <trkpt lat="47.80443" lon="7.16612">
        <ele>308</ele>
        <time>2015-04-26T11:28:35Z</time>
      </trkpt>
      <trkpt lat="47.80441" lon="7.16605">
        <ele>308</ele>
        <time>2015-04-26T11:28:38Z</time>
      </trkpt>
      <trkpt lat="47.80442" lon="7.16599">
        <ele>306.6</ele>
        <time>2015-04-26T11:28:47Z</time>
      </trkpt>
      <trkpt lat="47.80437" lon="7.16599">
        <ele>306.6</ele>
        <time>2015-04-26T11:28:51Z</time>
      </trkpt>
      <trkpt lat="47.80428" lon="7.16609">
        <ele>306</ele>
        <time>2015-04-26T11:28:55Z</time>
      </trkpt>
      <trkpt lat="47.8042" lon="7.16616">
        <ele>306</ele>
        <time>2015-04-26T11:29:03Z</time>
      </trkpt>
      <trkpt lat="47.80416" lon="7.1662">
        <ele>306</ele>
        <time>2015-04-26T11:29:09Z</time>
      </trkpt>
      <trkpt lat="47.80412" lon="7.16629">
        <ele>306</ele>
        <time>2015-04-26T11:29:13Z</time>
      </trkpt>
      <trkpt lat="47.80408" lon="7.16633">
        <ele>306</ele>
        <time>2015-04-26T11:29:17Z</time>
      </trkpt>
      <trkpt lat="47.80404" lon="7.16638">
        <ele>306</ele>
        <time>2015-04-26T11:29:20Z</time>
      </trkpt>
      <trkpt lat="47.80399" lon="7.16637">
        <ele>306</ele>
        <time>2015-04-26T11:29:27Z</time>
      </trkpt>
      <trkpt lat="47.80395" lon="7.1664">
        <ele>306</ele>
        <time>2015-04-26T11:29:30Z</time>
      </trkpt>
      <trkpt lat="47.8039" lon="7.16641">
        <ele>306.9</ele>
        <time>2015-04-26T11:29:35Z</time>
      </trkpt>
      <trkpt lat="47.80385" lon="7.16641">
        <ele>307.9</ele>
        <time>2015-04-26T11:29:37Z</time>
      </trkpt>
      <trkpt lat="47.80376" lon="7.16641">
        <ele>308</ele>
        <time>2015-04-26T11:29:46Z</time>
      </trkpt>
      <trkpt lat="47.80372" lon="7.16645">
        <ele>308</ele>
        <time>2015-04-26T11:29:51Z</time>
      </trkpt>
      <trkpt lat="47.8036" lon="7.16644">
        <ele>309</ele>
        <time>2015-04-26T11:30:11Z</time>
      </trkpt>
      <trkpt lat="47.80361" lon="7.16639">
        <ele>310</ele>
        <time>2015-04-26T11:32:21Z</time>
      </trkpt>
      <trkpt lat="47.80372" lon="7.16646">
        <ele>311</ele>
        <time>2015-04-26T11:32:30Z</time>
      </trkpt>
      <trkpt lat="47.80381" lon="7.16644">
        <ele>311</ele>
        <time>2015-04-26T11:32:38Z</time>
      </trkpt>
      <trkpt lat="47.80391" lon="7.16642">
        <ele>312</ele>
        <time>2015-04-26T11:32:45Z</time>
      </trkpt>
      <trkpt lat="47.80396" lon="7.1664">
        <ele>312</ele>
        <time>2015-04-26T11:32:51Z</time>
      </trkpt>
      <trkpt lat="47.80405" lon="7.16636">
        <ele>312.9</ele>
        <time>2015-04-26T11:32:57Z</time>
      </trkpt>
      <trkpt lat="47.80412" lon="7.16626">
        <ele>312.2</ele>
        <time>2015-04-26T11:33:05Z</time>
      </trkpt>
      <trkpt lat="47.80423" lon="7.16618">
        <ele>312</ele>
        <time>2015-04-26T11:33:12Z</time>
      </trkpt>
      <trkpt lat="47.80426" lon="7.16615">
        <ele>312</ele>
        <time>2015-04-26T11:33:17Z</time>
      </trkpt>
      <trkpt lat="47.80429" lon="7.16608">
        <ele>312</ele>
        <time>2015-04-26T11:33:20Z</time>
      </trkpt>
      <trkpt lat="47.80432" lon="7.16603">
        <ele>312</ele>
        <time>2015-04-26T11:33:25Z</time>
      </trkpt>
      <trkpt lat="47.80436" lon="7.166">
        <ele>312</ele>
        <time>2015-04-26T11:33:29Z</time>
      </trkpt>
      <trkpt lat="47.80441" lon="7.16598">
        <ele>312</ele>
        <time>2015-04-26T11:33:33Z</time>
      </trkpt>
      <trkpt lat="47.80449" lon="7.166">
        <ele>308.3</ele>
        <time>2015-04-26T11:33:41Z</time>
      </trkpt>
      <trkpt lat="47.8045" lon="7.16607">
        <ele>308.3</ele>
        <time>2015-04-26T11:33:45Z</time>
      </trkpt>
      <trkpt lat="47.8045" lon="7.16614">
        <ele>304.6</ele>
        <time>2015-04-26T11:33:49Z</time>
      </trkpt>
      <trkpt lat="47.80451" lon="7.16621">
        <ele>304.1</ele>
        <time>2015-04-26T11:33:55Z</time>
      </trkpt>
      <trkpt lat="47.80452" lon="7.16629">
        <ele>303.1</ele>
        <time>2015-04-26T11:33:59Z</time>
      </trkpt>
      <trkpt lat="47.80457" lon="7.16632">
        <ele>303</ele>
        <time>2015-04-26T11:34:05Z</time>
      </trkpt>
      <trkpt lat="47.80463" lon="7.16631">
        <ele>302.1</ele>
        <time>2015-04-26T11:34:10Z</time>
      </trkpt>
      <trkpt lat="47.80469" lon="7.16631">
        <ele>302</ele>
        <time>2015-04-26T11:34:14Z</time>
      </trkpt>
      <trkpt lat="47.80474" lon="7.16628">
        <ele>301.5</ele>
        <time>2015-04-26T11:34:18Z</time>
      </trkpt>
      <trkpt lat="47.8048" lon="7.16627">
        <ele>301.5</ele>
        <time>2015-04-26T11:34:21Z</time>
      </trkpt>
      <trkpt lat="47.80494" lon="7.16627">
        <ele>300.3</ele>
        <time>2015-04-26T11:34:29Z</time>
      </trkpt>
      <trkpt lat="47.805" lon="7.1663">
        <ele>300</ele>
        <time>2015-04-26T11:34:34Z</time>
      </trkpt>
      <trkpt lat="47.80505" lon="7.16632">
        <ele>300</ele>
        <time>2015-04-26T11:34:38Z</time>
      </trkpt>
      <trkpt lat="47.80515" lon="7.16633">
        <ele>300</ele>
        <time>2015-04-26T11:34:47Z</time>
      </trkpt>
      <trkpt lat="47.8052" lon="7.16636">
        <ele>300</ele>
        <time>2015-04-26T11:34:52Z</time>
      </trkpt>
      <trkpt lat="47.80525" lon="7.16638">
        <ele>300</ele>
        <time>2015-04-26T11:34:56Z</time>
      </trkpt>
      <trkpt lat="47.8053" lon="7.1664">
        <ele>300</ele>
        <time>2015-04-26T11:35:00Z</time>
      </trkpt>
      <trkpt lat="47.80533" lon="7.16646">
        <ele>300</ele>
        <time>2015-04-26T11:35:04Z</time>
      </trkpt>
      <trkpt lat="47.80534" lon="7.16653">
        <ele>300</ele>
        <time>2015-04-26T11:35:07Z</time>
      </trkpt>
      <trkpt lat="47.80535" lon="7.16661">
        <ele>300</ele>
        <time>2015-04-26T11:35:11Z</time>
      </trkpt>
      <trkpt lat="47.80538" lon="7.16667">
        <ele>300</ele>
        <time>2015-04-26T11:35:14Z</time>
      </trkpt>
      <trkpt lat="47.80544" lon="7.16679">
        <ele>300</ele>
        <time>2015-04-26T11:35:17Z</time>
      </trkpt>
      <trkpt lat="47.80545" lon="7.16686">
        <ele>300</ele>
        <time>2015-04-26T11:35:23Z</time>
      </trkpt>
      <trkpt lat="47.80547" lon="7.16693">
        <ele>300</ele>
        <time>2015-04-26T11:35:27Z</time>
      </trkpt>
      <trkpt lat="47.80545" lon="7.16699">
        <ele>300</ele>
        <time>2015-04-26T11:35:33Z</time>
      </trkpt>
      <trkpt lat="47.80546" lon="7.16707">
        <ele>300</ele>
        <time>2015-04-26T11:35:37Z</time>
      </trkpt>
      <trkpt lat="47.80547" lon="7.16714">
        <ele>300</ele>
        <time>2015-04-26T11:35:40Z</time>
      </trkpt>
      <trkpt lat="47.80549" lon="7.16722">
        <ele>300</ele>
        <time>2015-04-26T11:35:44Z</time>
      </trkpt>
      <trkpt lat="47.80551" lon="7.16729">
        <ele>300</ele>
        <time>2015-04-26T11:35:50Z</time>
      </trkpt>
      <trkpt lat="47.80554" lon="7.16742">
        <ele>300</ele>
        <time>2015-04-26T11:35:57Z</time>
      </trkpt>
      <trkpt lat="47.80556" lon="7.1675">
        <ele>299.1</ele>
        <time>2015-04-26T11:36:01Z</time>
      </trkpt>
      <trkpt lat="47.80555" lon="7.16758">
        <ele>299</ele>
        <time>2015-04-26T11:36:06Z</time>
      </trkpt>
      <trkpt lat="47.80557" lon="7.16772">
        <ele>298.1</ele>
        <time>2015-04-26T11:36:15Z</time>
      </trkpt>
      <trkpt lat="47.80559" lon="7.1678">
        <ele>298</ele>
        <time>2015-04-26T11:36:17Z</time>
      </trkpt>
      <trkpt lat="47.80558" lon="7.16794">
        <ele>298</ele>
        <time>2015-04-26T11:36:24Z</time>
      </trkpt>
      <trkpt lat="47.8056" lon="7.16801">
        <ele>297</ele>
        <time>2015-04-26T11:36:30Z</time>
      </trkpt>
      <trkpt lat="47.80559" lon="7.16808">
        <ele>297</ele>
        <time>2015-04-26T11:36:33Z</time>
      </trkpt>
      <trkpt lat="47.80556" lon="7.16822">
        <ele>297</ele>
        <time>2015-04-26T11:36:41Z</time>
      </trkpt>
      <trkpt lat="47.80557" lon="7.16837">
        <ele>297.8</ele>
        <time>2015-04-26T11:36:49Z</time>
      </trkpt>
      <trkpt lat="47.8056" lon="7.16853">
        <ele>297.7</ele>
        <time>2015-04-26T11:36:56Z</time>
      </trkpt>
      <trkpt lat="47.8056" lon="7.16869">
        <ele>298</ele>
        <time>2015-04-26T11:37:05Z</time>
      </trkpt>
      <trkpt lat="47.80557" lon="7.16878">
        <ele>299.7</ele>
        <time>2015-04-26T11:37:10Z</time>
      </trkpt>
      <trkpt lat="47.80558" lon="7.16893">
        <ele>300</ele>
        <time>2015-04-26T11:37:17Z</time>
      </trkpt>
      <trkpt lat="47.80558" lon="7.16908">
        <ele>300</ele>
        <time>2015-04-26T11:37:25Z</time>
      </trkpt>
      <trkpt lat="47.8056" lon="7.16928">
        <ele>300</ele>
        <time>2015-04-26T11:37:35Z</time>
      </trkpt>
      <trkpt lat="47.80558" lon="7.16934">
        <ele>300</ele>
        <time>2015-04-26T11:37:40Z</time>
      </trkpt>
      <trkpt lat="47.80553" lon="7.16954">
        <ele>300</ele>
        <time>2015-04-26T11:37:50Z</time>
      </trkpt>
      <trkpt lat="47.8055" lon="7.16962">
        <ele>300</ele>
        <time>2015-04-26T11:37:54Z</time>
      </trkpt>
      <trkpt lat="47.80549" lon="7.16969">
        <ele>300</ele>
        <time>2015-04-26T11:37:57Z</time>
      </trkpt>
      <trkpt lat="47.8055" lon="7.16982">
        <ele>300</ele>
        <time>2015-04-26T11:38:05Z</time>
      </trkpt>
      <trkpt lat="47.8055" lon="7.16991">
        <ele>300</ele>
        <time>2015-04-26T11:38:10Z</time>
      </trkpt>
      <trkpt lat="47.8055" lon="7.17">
        <ele>300</ele>
        <time>2015-04-26T11:38:14Z</time>
      </trkpt>
      <trkpt lat="47.8055" lon="7.17008">
        <ele>300</ele>
        <time>2015-04-26T11:38:18Z</time>
      </trkpt>
      <trkpt lat="47.80549" lon="7.17022">
        <ele>300</ele>
        <time>2015-04-26T11:38:24Z</time>
      </trkpt>
      <trkpt lat="47.8055" lon="7.1703">
        <ele>300.8</ele>
        <time>2015-04-26T11:38:28Z</time>
      </trkpt>
      <trkpt lat="47.80551" lon="7.17037">
        <ele>301</ele>
        <time>2015-04-26T11:38:32Z</time>
      </trkpt>
      <trkpt lat="47.80549" lon="7.17044">
        <ele>301</ele>
        <time>2015-04-26T11:38:35Z</time>
      </trkpt>
      <trkpt lat="47.80541" lon="7.1706">
        <ele>301</ele>
        <time>2015-04-26T11:38:45Z</time>
      </trkpt>
      <trkpt lat="47.80542" lon="7.17068">
        <ele>301</ele>
        <time>2015-04-26T11:38:48Z</time>
      </trkpt>
      <trkpt lat="47.80544" lon="7.17077">
        <ele>301</ele>
        <time>2015-04-26T11:38:52Z</time>
      </trkpt>
      <trkpt lat="47.80545" lon="7.17091">
        <ele>301</ele>
        <time>2015-04-26T11:38:59Z</time>
      </trkpt>
      <trkpt lat="47.80543" lon="7.17099">
        <ele>301</ele>
        <time>2015-04-26T11:39:04Z</time>
      </trkpt>
      <trkpt lat="47.80538" lon="7.17112">
        <ele>301</ele>
        <time>2015-04-26T11:39:13Z</time>
      </trkpt>
      <trkpt lat="47.80538" lon="7.17125">
        <ele>301</ele>
        <time>2015-04-26T11:39:17Z</time>
      </trkpt>
      <trkpt lat="47.80539" lon="7.17133">
        <ele>300.1</ele>
        <time>2015-04-26T11:39:21Z</time>
      </trkpt>
      <trkpt lat="47.80539" lon="7.17142">
        <ele>300</ele>
        <time>2015-04-26T11:39:27Z</time>
      </trkpt>
      <trkpt lat="47.80537" lon="7.17149">
        <ele>300</ele>
        <time>2015-04-26T11:39:30Z</time>
      </trkpt>
      <trkpt lat="47.80529" lon="7.17167">
        <ele>299</ele>
        <time>2015-04-26T11:39:40Z</time>
      </trkpt>
      <trkpt lat="47.80526" lon="7.17175">
        <ele>299</ele>
        <time>2015-04-26T11:39:45Z</time>
      </trkpt>
      <trkpt lat="47.80526" lon="7.17182">
        <ele>298.1</ele>
        <time>2015-04-26T11:39:50Z</time>
      </trkpt>
      <trkpt lat="47.80528" lon="7.17195">
        <ele>296.6</ele>
        <time>2015-04-26T11:39:58Z</time>
      </trkpt>
      <trkpt lat="47.80526" lon="7.1721">
        <ele>294.2</ele>
        <time>2015-04-26T11:40:04Z</time>
      </trkpt>
      <trkpt lat="47.80519" lon="7.17228">
        <ele>294</ele>
        <time>2015-04-26T11:40:13Z</time>
      </trkpt>
      <trkpt lat="47.80519" lon="7.17235">
        <ele>293</ele>
        <time>2015-04-26T11:40:16Z</time>
      </trkpt>
      <trkpt lat="47.8052" lon="7.17243">
        <ele>293</ele>
        <time>2015-04-26T11:40:20Z</time>
      </trkpt>
      <trkpt lat="47.80525" lon="7.17247">
        <ele>292</ele>
        <time>2015-04-26T11:40:22Z</time>
      </trkpt>
      <trkpt lat="47.8053" lon="7.17248">
        <ele>292</ele>
        <time>2015-04-26T11:40:26Z</time>
      </trkpt>
      <trkpt lat="47.80535" lon="7.1725">
        <ele>292</ele>
        <time>2015-04-26T11:40:29Z</time>
      </trkpt>
      <trkpt lat="47.80541" lon="7.17251">
        <ele>292</ele>
        <time>2015-04-26T11:40:31Z</time>
      </trkpt>
      <trkpt lat="47.80546" lon="7.1725">
        <ele>291.5</ele>
        <time>2015-04-26T11:40:35Z</time>
      </trkpt>
      <trkpt lat="47.8056" lon="7.17251">
        <ele>291</ele>
        <time>2015-04-26T11:40:44Z</time>
      </trkpt>
      <trkpt lat="47.80569" lon="7.17255">
        <ele>291</ele>
        <time>2015-04-26T11:40:49Z</time>
      </trkpt>
      <trkpt lat="47.80578" lon="7.1726">
        <ele>292</ele>
        <time>2015-04-26T11:40:57Z</time>
      </trkpt>
      <trkpt lat="47.8058" lon="7.17266">
        <ele>292</ele>
        <time>2015-04-26T11:41:02Z</time>
      </trkpt>
      <trkpt lat="47.80575" lon="7.17273">
        <ele>292</ele>
        <time>2015-04-26T11:41:07Z</time>
      </trkpt>
      <trkpt lat="47.80572" lon="7.17278">
        <ele>292</ele>
        <time>2015-04-26T11:41:11Z</time>
      </trkpt>
      <trkpt lat="47.80565" lon="7.17297">
        <ele>293.7</ele>
        <time>2015-04-26T11:41:20Z</time>
      </trkpt>
      <trkpt lat="47.80561" lon="7.17309">
        <ele>295.5</ele>
        <time>2015-04-26T11:41:27Z</time>
      </trkpt>
      <trkpt lat="47.80559" lon="7.17318">
        <ele>297.8</ele>
        <time>2015-04-26T11:41:32Z</time>
      </trkpt>
      <trkpt lat="47.8056" lon="7.17326">
        <ele>298</ele>
        <time>2015-04-26T11:41:37Z</time>
      </trkpt>
      <trkpt lat="47.80558" lon="7.17333">
        <ele>298</ele>
        <time>2015-04-26T11:41:41Z</time>
      </trkpt>
      <trkpt lat="47.80557" lon="7.1734">
        <ele>298</ele>
        <time>2015-04-26T11:41:44Z</time>
      </trkpt>
      <trkpt lat="47.80553" lon="7.1736">
        <ele>298</ele>
        <time>2015-04-26T11:41:58Z</time>
      </trkpt>
      <trkpt lat="47.80554" lon="7.17367">
        <ele>298</ele>
        <time>2015-04-26T11:42:01Z</time>
      </trkpt>
      <trkpt lat="47.80555" lon="7.17376">
        <ele>298</ele>
        <time>2015-04-26T11:42:04Z</time>
      </trkpt>
      <trkpt lat="47.80555" lon="7.17384">
        <ele>298</ele>
        <time>2015-04-26T11:42:07Z</time>
      </trkpt>
      <trkpt lat="47.80553" lon="7.17392">
        <ele>298</ele>
        <time>2015-04-26T11:42:11Z</time>
      </trkpt>
      <trkpt lat="47.80552" lon="7.174">
        <ele>298</ele>
        <time>2015-04-26T11:42:15Z</time>
      </trkpt>
      <trkpt lat="47.80547" lon="7.17415">
        <ele>298</ele>
        <time>2015-04-26T11:42:26Z</time>
      </trkpt>
      <trkpt lat="47.80542" lon="7.17421">
        <ele>298</ele>
        <time>2015-04-26T11:42:31Z</time>
      </trkpt>
      <trkpt lat="47.80539" lon="7.17426">
        <ele>297.5</ele>
        <time>2015-04-26T11:42:34Z</time>
      </trkpt>
      <trkpt lat="47.80535" lon="7.17434">
        <ele>297.5</ele>
        <time>2015-04-26T11:42:36Z</time>
      </trkpt>
      <trkpt lat="47.80533" lon="7.17442">
        <ele>297.6</ele>
        <time>2015-04-26T11:42:39Z</time>
      </trkpt>
      <trkpt lat="47.80532" lon="7.1745">
        <ele>297.6</ele>
        <time>2015-04-26T11:42:43Z</time>
      </trkpt>
      <trkpt lat="47.80529" lon="7.1747">
        <ele>298</ele>
        <time>2015-04-26T11:42:56Z</time>
      </trkpt>
      <trkpt lat="47.80526" lon="7.17486">
        <ele>298</ele>
        <time>2015-04-26T11:43:01Z</time>
      </trkpt>
      <trkpt lat="47.80525" lon="7.175">
        <ele>297</ele>
        <time>2015-04-26T11:43:06Z</time>
      </trkpt>
      <trkpt lat="47.80524" lon="7.17514">
        <ele>297</ele>
        <time>2015-04-26T11:43:13Z</time>
      </trkpt>
      <trkpt lat="47.80528" lon="7.17519">
        <ele>297.9</ele>
        <time>2015-04-26T11:43:16Z</time>
      </trkpt>
      <trkpt lat="47.80532" lon="7.1752">
        <ele>297.9</ele>
        <time>2015-04-26T11:43:18Z</time>
      </trkpt>
      <trkpt lat="47.80537" lon="7.17517">
        <ele>298</ele>
        <time>2015-04-26T11:43:25Z</time>
      </trkpt>
      <trkpt lat="47.80544" lon="7.17516">
        <ele>298</ele>
        <time>2015-04-26T11:43:28Z</time>
      </trkpt>
      <trkpt lat="47.80548" lon="7.17518">
        <ele>298</ele>
        <time>2015-04-26T11:43:29Z</time>
      </trkpt>
      <trkpt lat="47.80553" lon="7.17523">
        <ele>298</ele>
        <time>2015-04-26T11:43:34Z</time>
      </trkpt>
      <trkpt lat="47.80557" lon="7.17525">
        <ele>298</ele>
        <time>2015-04-26T11:43:40Z</time>
      </trkpt>
      <trkpt lat="47.80563" lon="7.1752">
        <ele>296.1</ele>
        <time>2015-04-26T11:43:47Z</time>
      </trkpt>
      <trkpt lat="47.80567" lon="7.17518">
        <ele>296.1</ele>
        <time>2015-04-26T11:43:51Z</time>
      </trkpt>
      <trkpt lat="47.80572" lon="7.17517">
        <ele>297.4</ele>
        <time>2015-04-26T11:43:55Z</time>
      </trkpt>
      <trkpt lat="47.80581" lon="7.17521">
        <ele>298</ele>
        <time>2015-04-26T11:44:03Z</time>
      </trkpt>
      <trkpt lat="47.80593" lon="7.17519">
        <ele>298</ele>
        <time>2015-04-26T11:44:10Z</time>
      </trkpt>
      <trkpt lat="47.80598" lon="7.17521">
        <ele>297</ele>
        <time>2015-04-26T11:44:18Z</time>
      </trkpt>
      <trkpt lat="47.80607" lon="7.17522">
        <ele>297</ele>
        <time>2015-04-26T11:44:26Z</time>
      </trkpt>
      <trkpt lat="47.80614" lon="7.17521">
        <ele>297</ele>
        <time>2015-04-26T11:44:29Z</time>
      </trkpt>
      <trkpt lat="47.80619" lon="7.1752">
        <ele>297.5</ele>
        <time>2015-04-26T11:44:35Z</time>
      </trkpt>
      <trkpt lat="47.80629" lon="7.1752">
        <ele>298</ele>
        <time>2015-04-26T11:44:41Z</time>
      </trkpt>
      <trkpt lat="47.80639" lon="7.17522">
        <ele>298</ele>
        <time>2015-04-26T11:44:45Z</time>
      </trkpt>
      <trkpt lat="47.80645" lon="7.17524">
        <ele>298</ele>
        <time>2015-04-26T11:44:48Z</time>
      </trkpt>
      <trkpt lat="47.8065" lon="7.17524">
        <ele>298</ele>
        <time>2015-04-26T11:44:51Z</time>
      </trkpt>
      <trkpt lat="47.80655" lon="7.17523">
        <ele>298</ele>
        <time>2015-04-26T11:44:55Z</time>
      </trkpt>
      <trkpt lat="47.8066" lon="7.17521">
        <ele>298.8</ele>
        <time>2015-04-26T11:44:58Z</time>
      </trkpt>
      <trkpt lat="47.80664" lon="7.1752">
        <ele>298.8</ele>
        <time>2015-04-26T11:45:01Z</time>
      </trkpt>
      <trkpt lat="47.80669" lon="7.17519">
        <ele>299</ele>
        <time>2015-04-26T11:45:06Z</time>
      </trkpt>
      <trkpt lat="47.80677" lon="7.17512">
        <ele>300</ele>
        <time>2015-04-26T11:45:15Z</time>
      </trkpt>
      <trkpt lat="47.80691" lon="7.17512">
        <ele>301</ele>
        <time>2015-04-26T11:45:25Z</time>
      </trkpt>
      <trkpt lat="47.80698" lon="7.17508">
        <ele>302</ele>
        <time>2015-04-26T11:45:31Z</time>
      </trkpt>
      <trkpt lat="47.80708" lon="7.17507">
        <ele>302.8</ele>
        <time>2015-04-26T11:45:43Z</time>
      </trkpt>
      <trkpt lat="47.80713" lon="7.17508">
        <ele>304.7</ele>
        <time>2015-04-26T11:45:47Z</time>
      </trkpt>
      <trkpt lat="47.80719" lon="7.17509">
        <ele>305</ele>
        <time>2015-04-26T11:45:50Z</time>
      </trkpt>
      <trkpt lat="47.80725" lon="7.17511">
        <ele>305</ele>
        <time>2015-04-26T11:45:53Z</time>
      </trkpt>
      <trkpt lat="47.80733" lon="7.17517">
        <ele>306</ele>
        <time>2015-04-26T11:46:00Z</time>
      </trkpt>
      <trkpt lat="47.80739" lon="7.17518">
        <ele>307</ele>
        <time>2015-04-26T11:46:04Z</time>
      </trkpt>
      <trkpt lat="47.80743" lon="7.17523">
        <ele>307</ele>
        <time>2015-04-26T11:46:08Z</time>
      </trkpt>
      <trkpt lat="47.80747" lon="7.17528">
        <ele>308.9</ele>
        <time>2015-04-26T11:46:13Z</time>
      </trkpt>
      <trkpt lat="47.80748" lon="7.17537">
        <ele>309</ele>
        <time>2015-04-26T11:46:16Z</time>
      </trkpt>
      <trkpt lat="47.80745" lon="7.1755">
        <ele>309</ele>
        <time>2015-04-26T11:46:22Z</time>
      </trkpt>
      <trkpt lat="47.80746" lon="7.17558">
        <ele>309</ele>
        <time>2015-04-26T11:46:27Z</time>
      </trkpt>
      <trkpt lat="47.80748" lon="7.17566">
        <ele>309</ele>
        <time>2015-04-26T11:46:32Z</time>
      </trkpt>
      <trkpt lat="47.80756" lon="7.17557">
        <ele>309</ele>
        <time>2015-04-26T11:46:40Z</time>
      </trkpt>
      <trkpt lat="47.80765" lon="7.17553">
        <ele>305.5</ele>
        <time>2015-04-26T11:46:49Z</time>
      </trkpt>
      <trkpt lat="47.8077" lon="7.17554">
        <ele>305</ele>
        <time>2015-04-26T11:46:54Z</time>
      </trkpt>
      <trkpt lat="47.80774" lon="7.17556">
        <ele>305</ele>
        <time>2015-04-26T11:46:57Z</time>
      </trkpt>
      <trkpt lat="47.80779" lon="7.17558">
        <ele>305</ele>
        <time>2015-04-26T11:46:59Z</time>
      </trkpt>
      <trkpt lat="47.80784" lon="7.1756">
        <ele>305</ele>
        <time>2015-04-26T11:47:03Z</time>
      </trkpt>
      <trkpt lat="47.80794" lon="7.1756">
        <ele>305</ele>
        <time>2015-04-26T11:47:10Z</time>
      </trkpt>
      <trkpt lat="47.808" lon="7.17567">
        <ele>305</ele>
        <time>2015-04-26T11:47:14Z</time>
      </trkpt>
      <trkpt lat="47.80818" lon="7.17563">
        <ele>305.5</ele>
        <time>2015-04-26T11:47:30Z</time>
      </trkpt>
      <trkpt lat="47.80827" lon="7.17566">
        <ele>307</ele>
        <time>2015-04-26T11:47:36Z</time>
      </trkpt>
      <trkpt lat="47.80836" lon="7.17563">
        <ele>307.9</ele>
        <time>2015-04-26T11:47:43Z</time>
      </trkpt>
      <trkpt lat="47.80846" lon="7.17557">
        <ele>308</ele>
        <time>2015-04-26T11:47:47Z</time>
      </trkpt>
      <trkpt lat="47.80853" lon="7.17551">
        <ele>308</ele>
        <time>2015-04-26T11:47:49Z</time>
      </trkpt>
      <trkpt lat="47.80859" lon="7.17548">
        <ele>308</ele>
        <time>2015-04-26T11:47:53Z</time>
      </trkpt>
      <trkpt lat="47.80868" lon="7.17546">
        <ele>310.7</ele>
        <time>2015-04-26T11:47:58Z</time>
      </trkpt>
      <trkpt lat="47.80876" lon="7.17547">
        <ele>311.9</ele>
        <time>2015-04-26T11:48:05Z</time>
      </trkpt>
      <trkpt lat="47.80881" lon="7.1755">
        <ele>311.9</ele>
        <time>2015-04-26T11:48:08Z</time>
      </trkpt>
      <trkpt lat="47.80892" lon="7.17553">
        <ele>312</ele>
        <time>2015-04-26T11:48:16Z</time>
      </trkpt>
      <trkpt lat="47.80899" lon="7.1755">
        <ele>312</ele>
        <time>2015-04-26T11:48:23Z</time>
      </trkpt>
      <trkpt lat="47.80906" lon="7.17539">
        <ele>311.5</ele>
        <time>2015-04-26T11:48:30Z</time>
      </trkpt>
      <trkpt lat="47.8091" lon="7.17535">
        <ele>311</ele>
        <time>2015-04-26T11:48:35Z</time>
      </trkpt>
      <trkpt lat="47.80915" lon="7.1753">
        <ele>310</ele>
        <time>2015-04-26T11:48:45Z</time>
      </trkpt>
      <trkpt lat="47.80918" lon="7.17524">
        <ele>310</ele>
        <time>2015-04-26T11:48:49Z</time>
      </trkpt>
      <trkpt lat="47.80921" lon="7.17518">
        <ele>309</ele>
        <time>2015-04-26T11:48:54Z</time>
      </trkpt>
      <trkpt lat="47.80927" lon="7.17504">
        <ele>308.5</ele>
        <time>2015-04-26T11:49:03Z</time>
      </trkpt>
      <trkpt lat="47.80932" lon="7.17501">
        <ele>308</ele>
        <time>2015-04-26T11:49:08Z</time>
      </trkpt>
      <trkpt lat="47.80936" lon="7.17497">
        <ele>307.1</ele>
        <time>2015-04-26T11:49:11Z</time>
      </trkpt>
      <trkpt lat="47.80938" lon="7.17489">
        <ele>306.3</ele>
        <time>2015-04-26T11:49:15Z</time>
      </trkpt>
      <trkpt lat="47.8094" lon="7.17482">
        <ele>304.3</ele>
        <time>2015-04-26T11:49:19Z</time>
      </trkpt>
      <trkpt lat="47.80942" lon="7.17469">
        <ele>303.1</ele>
        <time>2015-04-26T11:49:25Z</time>
      </trkpt>
      <trkpt lat="47.80942" lon="7.17461">
        <ele>302.3</ele>
        <time>2015-04-26T11:49:29Z</time>
      </trkpt>
      <trkpt lat="47.80949" lon="7.1745">
        <ele>302</ele>
        <time>2015-04-26T11:49:36Z</time>
      </trkpt>
      <trkpt lat="47.80953" lon="7.17446">
        <ele>302</ele>
        <time>2015-04-26T11:49:41Z</time>
      </trkpt>
      <trkpt lat="47.8096" lon="7.17426">
        <ele>302</ele>
        <time>2015-04-26T11:49:52Z</time>
      </trkpt>
      <trkpt lat="47.80962" lon="7.1742">
        <ele>302</ele>
        <time>2015-04-26T11:49:55Z</time>
      </trkpt>
      <trkpt lat="47.80966" lon="7.17415">
        <ele>302</ele>
        <time>2015-04-26T11:50:00Z</time>
      </trkpt>
      <trkpt lat="47.80969" lon="7.1741">
        <ele>302</ele>
        <time>2015-04-26T11:50:02Z</time>
      </trkpt>
      <trkpt lat="47.80974" lon="7.17405">
        <ele>302</ele>
        <time>2015-04-26T11:50:07Z</time>
      </trkpt>
      <trkpt lat="47.80971" lon="7.17398">
        <ele>302</ele>
        <time>2015-04-26T11:50:10Z</time>
      </trkpt>
      <trkpt lat="47.80969" lon="7.17391">
        <ele>302</ele>
        <time>2015-04-26T11:50:13Z</time>
      </trkpt>
      <trkpt lat="47.8097" lon="7.17382">
        <ele>302</ele>
        <time>2015-04-26T11:50:17Z</time>
      </trkpt>
      <trkpt lat="47.80973" lon="7.17374">
        <ele>302</ele>
        <time>2015-04-26T11:50:21Z</time>
      </trkpt>
      <trkpt lat="47.80979" lon="7.17363">
        <ele>302.8</ele>
        <time>2015-04-26T11:50:29Z</time>
      </trkpt>
      <trkpt lat="47.80984" lon="7.1736">
        <ele>302.8</ele>
        <time>2015-04-26T11:50:33Z</time>
      </trkpt>
      <trkpt lat="47.80988" lon="7.17348">
        <ele>303</ele>
        <time>2015-04-26T11:50:39Z</time>
      </trkpt>
      <trkpt lat="47.80994" lon="7.17345">
        <ele>303</ele>
        <time>2015-04-26T11:50:43Z</time>
      </trkpt>
      <trkpt lat="47.80996" lon="7.17339">
        <ele>303</ele>
        <time>2015-04-26T11:50:48Z</time>
      </trkpt>
      <trkpt lat="47.80994" lon="7.17331">
        <ele>303</ele>
        <time>2015-04-26T11:50:52Z</time>
      </trkpt>
      <trkpt lat="47.80994" lon="7.17325">
        <ele>303</ele>
        <time>2015-04-26T11:50:56Z</time>
      </trkpt>
      <trkpt lat="47.80999" lon="7.17311">
        <ele>303</ele>
        <time>2015-04-26T11:51:04Z</time>
      </trkpt>
      <trkpt lat="47.81002" lon="7.17305">
        <ele>304.8</ele>
        <time>2015-04-26T11:51:08Z</time>
      </trkpt>
      <trkpt lat="47.81002" lon="7.17297">
        <ele>305</ele>
        <time>2015-04-26T11:51:13Z</time>
      </trkpt>
      <trkpt lat="47.81003" lon="7.17288">
        <ele>305</ele>
        <time>2015-04-26T11:51:16Z</time>
      </trkpt>
      <trkpt lat="47.81007" lon="7.17285">
        <ele>305.9</ele>
        <time>2015-04-26T11:51:20Z</time>
      </trkpt>
      <trkpt lat="47.8102" lon="7.17287">
        <ele>306</ele>
        <time>2015-04-26T11:51:32Z</time>
      </trkpt>
      <trkpt lat="47.81025" lon="7.1729">
        <ele>305.2</ele>
        <time>2015-04-26T11:51:38Z</time>
      </trkpt>
      <trkpt lat="47.81028" lon="7.17295">
        <ele>305.2</ele>
        <time>2015-04-26T11:51:42Z</time>
      </trkpt>
      <trkpt lat="47.81035" lon="7.17309">
        <ele>305</ele>
        <time>2015-04-26T11:51:51Z</time>
      </trkpt>
      <trkpt lat="47.81043" lon="7.17316">
        <ele>305</ele>
        <time>2015-04-26T11:51:59Z</time>
      </trkpt>
      <trkpt lat="47.81048" lon="7.17319">
        <ele>305</ele>
        <time>2015-04-26T11:52:03Z</time>
      </trkpt>
      <trkpt lat="47.81052" lon="7.17323">
        <ele>305</ele>
        <time>2015-04-26T11:52:08Z</time>
      </trkpt>
      <trkpt lat="47.81057" lon="7.17325">
        <ele>304.1</ele>
        <time>2015-04-26T11:52:13Z</time>
      </trkpt>
      <trkpt lat="47.81063" lon="7.17325">
        <ele>303.3</ele>
        <time>2015-04-26T11:52:16Z</time>
      </trkpt>
      <trkpt lat="47.8107" lon="7.17323">
        <ele>303.3</ele>
        <time>2015-04-26T11:52:20Z</time>
      </trkpt>
      <trkpt lat="47.81074" lon="7.17319">
        <ele>303</ele>
        <time>2015-04-26T11:52:26Z</time>
      </trkpt>
      <trkpt lat="47.81078" lon="7.17316">
        <ele>303</ele>
        <time>2015-04-26T11:52:29Z</time>
      </trkpt>
      <trkpt lat="47.81084" lon="7.17313">
        <ele>303</ele>
        <time>2015-04-26T11:52:33Z</time>
      </trkpt>
      <trkpt lat="47.81097" lon="7.17315">
        <ele>302.5</ele>
        <time>2015-04-26T11:52:42Z</time>
      </trkpt>
      <trkpt lat="47.81103" lon="7.17324">
        <ele>301.3</ele>
        <time>2015-04-26T11:52:53Z</time>
      </trkpt>
      <trkpt lat="47.81106" lon="7.17331">
        <ele>301.3</ele>
        <time>2015-04-26T11:52:58Z</time>
      </trkpt>
      <trkpt lat="47.81111" lon="7.17344">
        <ele>300</ele>
        <time>2015-04-26T11:53:08Z</time>
      </trkpt>
      <trkpt lat="47.81116" lon="7.17345">
        <ele>300</ele>
        <time>2015-04-26T11:53:14Z</time>
      </trkpt>
      <trkpt lat="47.81122" lon="7.17355">
        <ele>299</ele>
        <time>2015-04-26T11:53:19Z</time>
      </trkpt>
      <trkpt lat="47.81126" lon="7.1736">
        <ele>299</ele>
        <time>2015-04-26T11:53:22Z</time>
      </trkpt>
      <trkpt lat="47.81131" lon="7.17365">
        <ele>299</ele>
        <time>2015-04-26T11:53:26Z</time>
      </trkpt>
      <trkpt lat="47.81136" lon="7.1737">
        <ele>299.9</ele>
        <time>2015-04-26T11:53:30Z</time>
      </trkpt>
      <trkpt lat="47.8114" lon="7.17376">
        <ele>299.9</ele>
        <time>2015-04-26T11:53:33Z</time>
      </trkpt>
      <trkpt lat="47.81141" lon="7.17383">
        <ele>299.7</ele>
        <time>2015-04-26T11:53:38Z</time>
      </trkpt>
      <trkpt lat="47.81142" lon="7.17389">
        <ele>300</ele>
        <time>2015-04-26T11:53:42Z</time>
      </trkpt>
      <trkpt lat="47.81154" lon="7.17399">
        <ele>300</ele>
        <time>2015-04-26T11:53:51Z</time>
      </trkpt>
      <trkpt lat="47.81161" lon="7.17405">
        <ele>301.9</ele>
        <time>2015-04-26T11:53:57Z</time>
      </trkpt>
      <trkpt lat="47.81169" lon="7.17416">
        <ele>302</ele>
        <time>2015-04-26T11:54:08Z</time>
      </trkpt>
      <trkpt lat="47.81176" lon="7.17429">
        <ele>302.9</ele>
        <time>2015-04-26T11:54:14Z</time>
      </trkpt>
      <trkpt lat="47.8118" lon="7.17437">
        <ele>303</ele>
        <time>2015-04-26T11:54:18Z</time>
      </trkpt>
      <trkpt lat="47.81194" lon="7.17433">
        <ele>303</ele>
        <time>2015-04-26T11:54:30Z</time>
      </trkpt>
      <trkpt lat="47.81198" lon="7.17429">
        <ele>302.1</ele>
        <time>2015-04-26T11:54:32Z</time>
      </trkpt>
      <trkpt lat="47.81203" lon="7.17427">
        <ele>302</ele>
        <time>2015-04-26T11:54:37Z</time>
      </trkpt>
      <trkpt lat="47.81209" lon="7.17427">
        <ele>301.2</ele>
        <time>2015-04-26T11:54:44Z</time>
      </trkpt>
      <trkpt lat="47.81213" lon="7.17422">
        <ele>301.1</ele>
        <time>2015-04-26T11:54:49Z</time>
      </trkpt>
      <trkpt lat="47.81217" lon="7.17407">
        <ele>299</ele>
        <time>2015-04-26T11:54:57Z</time>
      </trkpt>
      <trkpt lat="47.81216" lon="7.17393">
        <ele>299</ele>
        <time>2015-04-26T11:55:02Z</time>
      </trkpt>
      <trkpt lat="47.8122" lon="7.17381">
        <ele>299</ele>
        <time>2015-04-26T11:55:11Z</time>
      </trkpt>
      <trkpt lat="47.81222" lon="7.17373">
        <ele>299</ele>
        <time>2015-04-26T11:55:16Z</time>
      </trkpt>
      <trkpt lat="47.81227" lon="7.17358">
        <ele>300</ele>
        <time>2015-04-26T11:55:26Z</time>
      </trkpt>
      <trkpt lat="47.81226" lon="7.17346">
        <ele>301</ele>
        <time>2015-04-26T11:55:31Z</time>
      </trkpt>
      <trkpt lat="47.81227" lon="7.17339">
        <ele>301</ele>
        <time>2015-04-26T11:55:33Z</time>
      </trkpt>
      <trkpt lat="47.81229" lon="7.17332">
        <ele>301</ele>
        <time>2015-04-26T11:55:38Z</time>
      </trkpt>
      <trkpt lat="47.81233" lon="7.1732">
        <ele>301</ele>
        <time>2015-04-26T11:55:45Z</time>
      </trkpt>
      <trkpt lat="47.81236" lon="7.17314">
        <ele>301</ele>
        <time>2015-04-26T11:55:51Z</time>
      </trkpt>
      <trkpt lat="47.81239" lon="7.17301">
        <ele>301</ele>
        <time>2015-04-26T11:55:59Z</time>
      </trkpt>
      <trkpt lat="47.8124" lon="7.17294">
        <ele>301</ele>
        <time>2015-04-26T11:56:03Z</time>
      </trkpt>
      <trkpt lat="47.81242" lon="7.17287">
        <ele>301</ele>
        <time>2015-04-26T11:56:09Z</time>
      </trkpt>
      <trkpt lat="47.81244" lon="7.17267">
        <ele>301</ele>
        <time>2015-04-26T11:56:20Z</time>
      </trkpt>
      <trkpt lat="47.81246" lon="7.17257">
        <ele>301</ele>
        <time>2015-04-26T11:56:24Z</time>
      </trkpt>
      <trkpt lat="47.81249" lon="7.17247">
        <ele>303.7</ele>
        <time>2015-04-26T11:56:30Z</time>
      </trkpt>
      <trkpt lat="47.81253" lon="7.17251">
        <ele>304.7</ele>
        <time>2015-04-26T11:56:37Z</time>
      </trkpt>
      <trkpt lat="47.81259" lon="7.17251">
        <ele>305</ele>
        <time>2015-04-26T11:56:40Z</time>
      </trkpt>
      <trkpt lat="47.81264" lon="7.17252">
        <ele>305</ele>
        <time>2015-04-26T11:56:45Z</time>
      </trkpt>
      <trkpt lat="47.81269" lon="7.17254">
        <ele>305</ele>
        <time>2015-04-26T11:56:50Z</time>
      </trkpt>
      <trkpt lat="47.81274" lon="7.17253">
        <ele>305</ele>
        <time>2015-04-26T11:56:54Z</time>
      </trkpt>
      <trkpt lat="47.8128" lon="7.17252">
        <ele>305</ele>
        <time>2015-04-26T11:56:58Z</time>
      </trkpt>
      <trkpt lat="47.81293" lon="7.17251">
        <ele>305</ele>
        <time>2015-04-26T11:57:11Z</time>
      </trkpt>
      <trkpt lat="47.81305" lon="7.17252">
        <ele>305</ele>
        <time>2015-04-26T11:57:16Z</time>
      </trkpt>
      <trkpt lat="47.81319" lon="7.17254">
        <ele>304</ele>
        <time>2015-04-26T11:57:30Z</time>
      </trkpt>
      <trkpt lat="47.81328" lon="7.17259">
        <ele>303</ele>
        <time>2015-04-26T11:57:39Z</time>
      </trkpt>
      <trkpt lat="47.81333" lon="7.17261">
        <ele>303</ele>
        <time>2015-04-26T11:57:46Z</time>
      </trkpt>
      <trkpt lat="47.8134" lon="7.1726">
        <ele>301.1</ele>
        <time>2015-04-26T11:57:51Z</time>
      </trkpt>
      <trkpt lat="47.81345" lon="7.1726">
        <ele>301.1</ele>
        <time>2015-04-26T11:57:54Z</time>
      </trkpt>
      <trkpt lat="47.81359" lon="7.1726">
        <ele>301</ele>
        <time>2015-04-26T11:58:06Z</time>
      </trkpt>
      <trkpt lat="47.81364" lon="7.17258">
        <ele>301</ele>
        <time>2015-04-26T11:58:10Z</time>
      </trkpt>
      <trkpt lat="47.81373" lon="7.17259">
        <ele>301</ele>
        <time>2015-04-26T11:58:16Z</time>
      </trkpt>
      <trkpt lat="47.81378" lon="7.17258">
        <ele>301</ele>
        <time>2015-04-26T11:58:21Z</time>
      </trkpt>
      <trkpt lat="47.81388" lon="7.17262">
        <ele>301</ele>
        <time>2015-04-26T11:58:29Z</time>
      </trkpt>
      <trkpt lat="47.81392" lon="7.17265">
        <ele>301</ele>
        <time>2015-04-26T11:58:34Z</time>
      </trkpt>
      <trkpt lat="47.81401" lon="7.17264">
        <ele>301.5</ele>
        <time>2015-04-26T11:58:40Z</time>
      </trkpt>
      <trkpt lat="47.81406" lon="7.17262">
        <ele>302.5</ele>
        <time>2015-04-26T11:58:46Z</time>
      </trkpt>
      <trkpt lat="47.81411" lon="7.17259">
        <ele>303</ele>
        <time>2015-04-26T11:58:51Z</time>
      </trkpt>
      <trkpt lat="47.81415" lon="7.17254">
        <ele>303</ele>
        <time>2015-04-26T11:58:55Z</time>
      </trkpt>
      <trkpt lat="47.81418" lon="7.17248">
        <ele>303</ele>
        <time>2015-04-26T11:59:01Z</time>
      </trkpt>
      <trkpt lat="47.81422" lon="7.17243">
        <ele>303</ele>
        <time>2015-04-26T11:59:04Z</time>
      </trkpt>
      <trkpt lat="47.81431" lon="7.17238">
        <ele>303</ele>
        <time>2015-04-26T11:59:13Z</time>
      </trkpt>
      <trkpt lat="47.81441" lon="7.17235">
        <ele>303</ele>
        <time>2015-04-26T11:59:18Z</time>
      </trkpt>
      <trkpt lat="47.81448" lon="7.17228">
        <ele>303</ele>
        <time>2015-04-26T11:59:27Z</time>
      </trkpt>
      <trkpt lat="47.81453" lon="7.17224">
        <ele>303</ele>
        <time>2015-04-26T11:59:32Z</time>
      </trkpt>
      <trkpt lat="47.81458" lon="7.1722">
        <ele>303</ele>
        <time>2015-04-26T11:59:46Z</time>
      </trkpt>
      <trkpt lat="47.81467" lon="7.17216">
        <ele>302.9</ele>
        <time>2015-04-26T11:59:54Z</time>
      </trkpt>
      <trkpt lat="47.81472" lon="7.17213">
        <ele>303</ele>
        <time>2015-04-26T11:59:59Z</time>
      </trkpt>
      <trkpt lat="47.81476" lon="7.17208">
        <ele>303</ele>
        <time>2015-04-26T12:00:05Z</time>
      </trkpt>
      <trkpt lat="47.8148" lon="7.17205">
        <ele>303</ele>
        <time>2015-04-26T12:00:08Z</time>
      </trkpt>
      <trkpt lat="47.81485" lon="7.17203">
        <ele>303</ele>
        <time>2015-04-26T12:00:13Z</time>
      </trkpt>
      <trkpt lat="47.81489" lon="7.172">
        <ele>302.1</ele>
        <time>2015-04-26T12:00:21Z</time>
      </trkpt>
      <trkpt lat="47.81498" lon="7.17194">
        <ele>302</ele>
        <time>2015-04-26T12:00:35Z</time>
      </trkpt>
      <trkpt lat="47.81506" lon="7.17187">
        <ele>301.1</ele>
        <time>2015-04-26T12:00:44Z</time>
      </trkpt>
      <trkpt lat="47.81511" lon="7.17186">
        <ele>301</ele>
        <time>2015-04-26T12:00:50Z</time>
      </trkpt>
      <trkpt lat="47.81515" lon="7.17184">
        <ele>301</ele>
        <time>2015-04-26T12:00:54Z</time>
      </trkpt>
      <trkpt lat="47.81524" lon="7.17179">
        <ele>301</ele>
        <time>2015-04-26T12:01:00Z</time>
      </trkpt>
      <trkpt lat="47.81529" lon="7.17174">
        <ele>301</ele>
        <time>2015-04-26T12:01:04Z</time>
      </trkpt>
      <trkpt lat="47.81534" lon="7.17171">
        <ele>301</ele>
        <time>2015-04-26T12:01:08Z</time>
      </trkpt>
      <trkpt lat="47.8155" lon="7.1717">
        <ele>304</ele>
        <time>2015-04-26T12:01:27Z</time>
      </trkpt>
      <trkpt lat="47.81555" lon="7.17166">
        <ele>304</ele>
        <time>2015-04-26T12:01:31Z</time>
      </trkpt>
      <trkpt lat="47.81559" lon="7.17164">
        <ele>304</ele>
        <time>2015-04-26T12:01:35Z</time>
      </trkpt>
      <trkpt lat="47.81564" lon="7.17163">
        <ele>304</ele>
        <time>2015-04-26T12:01:38Z</time>
      </trkpt>
      <trkpt lat="47.81574" lon="7.17158">
        <ele>304</ele>
        <time>2015-04-26T12:01:45Z</time>
      </trkpt>
      <trkpt lat="47.81574" lon="7.1715">
        <ele>304</ele>
        <time>2015-04-26T12:01:50Z</time>
      </trkpt>
      <trkpt lat="47.81571" lon="7.17141">
        <ele>304</ele>
        <time>2015-04-26T12:01:55Z</time>
      </trkpt>
      <trkpt lat="47.81572" lon="7.17134">
        <ele>304</ele>
        <time>2015-04-26T12:02:01Z</time>
      </trkpt>
      <trkpt lat="47.81568" lon="7.17127">
        <ele>304</ele>
        <time>2015-04-26T12:02:08Z</time>
      </trkpt>
      <trkpt lat="47.81569" lon="7.17117">
        <ele>304</ele>
        <time>2015-04-26T12:02:14Z</time>
      </trkpt>
      <trkpt lat="47.81569" lon="7.1711">
        <ele>304</ele>
        <time>2015-04-26T12:02:16Z</time>
      </trkpt>
      <trkpt lat="47.81565" lon="7.17104">
        <ele>304</ele>
        <time>2015-04-26T12:02:19Z</time>
      </trkpt>
      <trkpt lat="47.81558" lon="7.17098">
        <ele>304.5</ele>
        <time>2015-04-26T12:02:24Z</time>
      </trkpt>
      <trkpt lat="47.81555" lon="7.17093">
        <ele>304.5</ele>
        <time>2015-04-26T12:02:27Z</time>
      </trkpt>
      <trkpt lat="47.81554" lon="7.17079">
        <ele>307.8</ele>
        <time>2015-04-26T12:02:33Z</time>
      </trkpt>
      <trkpt lat="47.81568" lon="7.17075">
        <ele>308.7</ele>
        <time>2015-04-26T12:02:43Z</time>
      </trkpt>
      <trkpt lat="47.81574" lon="7.17073">
        <ele>309</ele>
        <time>2015-04-26T12:02:47Z</time>
      </trkpt>
      <trkpt lat="47.81578" lon="7.1707">
        <ele>310</ele>
        <time>2015-04-26T12:02:51Z</time>
      </trkpt>
      <trkpt lat="47.81583" lon="7.1707">
        <ele>310</ele>
        <time>2015-04-26T12:02:56Z</time>
      </trkpt>
      <trkpt lat="47.81591" lon="7.17066">
        <ele>311.7</ele>
        <time>2015-04-26T12:03:02Z</time>
      </trkpt>
      <trkpt lat="47.81596" lon="7.17063">
        <ele>311.7</ele>
        <time>2015-04-26T12:03:07Z</time>
      </trkpt>
      <trkpt lat="47.816" lon="7.1706">
        <ele>312</ele>
        <time>2015-04-26T12:03:10Z</time>
      </trkpt>
      <trkpt lat="47.81608" lon="7.17059">
        <ele>313</ele>
        <time>2015-04-26T12:03:17Z</time>
      </trkpt>
      <trkpt lat="47.81622" lon="7.17058">
        <ele>313.9</ele>
        <time>2015-04-26T12:03:31Z</time>
      </trkpt>
      <trkpt lat="47.81632" lon="7.17055">
        <ele>314</ele>
        <time>2015-04-26T12:03:38Z</time>
      </trkpt>
      <trkpt lat="47.81639" lon="7.17054">
        <ele>315</ele>
        <time>2015-04-26T12:03:44Z</time>
      </trkpt>
      <trkpt lat="47.81652" lon="7.17048">
        <ele>315</ele>
        <time>2015-04-26T12:03:54Z</time>
      </trkpt>
      <trkpt lat="47.81662" lon="7.17044">
        <ele>315</ele>
        <time>2015-04-26T12:04:01Z</time>
      </trkpt>
      <trkpt lat="47.81667" lon="7.17048">
        <ele>315</ele>
        <time>2015-04-26T12:04:06Z</time>
      </trkpt>
      <trkpt lat="47.81671" lon="7.17052">
        <ele>315</ele>
        <time>2015-04-26T12:04:08Z</time>
      </trkpt>
      <trkpt lat="47.81676" lon="7.17052">
        <ele>315</ele>
        <time>2015-04-26T12:04:12Z</time>
      </trkpt>
      <trkpt lat="47.81684" lon="7.17055">
        <ele>314</ele>
        <time>2015-04-26T12:04:21Z</time>
      </trkpt>
      <trkpt lat="47.81681" lon="7.1706">
        <ele>314</ele>
        <time>2015-04-26T12:04:24Z</time>
      </trkpt>
      <trkpt lat="47.81682" lon="7.17074">
        <ele>314</ele>
        <time>2015-04-26T12:04:31Z</time>
      </trkpt>
      <trkpt lat="47.81679" lon="7.1708">
        <ele>314</ele>
        <time>2015-04-26T12:04:36Z</time>
      </trkpt>
      <trkpt lat="47.81679" lon="7.17088">
        <ele>314</ele>
        <time>2015-04-26T12:04:40Z</time>
      </trkpt>
      <trkpt lat="47.81678" lon="7.17103">
        <ele>313.1</ele>
        <time>2015-04-26T12:04:46Z</time>
      </trkpt>
      <trkpt lat="47.81679" lon="7.17111">
        <ele>313</ele>
        <time>2015-04-26T12:04:50Z</time>
      </trkpt>
      <trkpt lat="47.81674" lon="7.17115">
        <ele>312.3</ele>
        <time>2015-04-26T12:04:56Z</time>
      </trkpt>
      <trkpt lat="47.81666" lon="7.17123">
        <ele>309</ele>
        <time>2015-04-26T12:05:17Z</time>
      </trkpt>
      <trkpt lat="47.81665" lon="7.17133">
        <ele>309</ele>
        <time>2015-04-26T12:05:31Z</time>
      </trkpt>
      <trkpt lat="47.81668" lon="7.17122">
        <ele>309</ele>
        <time>2015-04-26T12:05:42Z</time>
      </trkpt>
      <trkpt lat="47.81669" lon="7.17116">
        <ele>309</ele>
        <time>2015-04-26T12:05:46Z</time>
      </trkpt>
      <trkpt lat="47.8167" lon="7.17109">
        <ele>309</ele>
        <time>2015-04-26T12:05:48Z</time>
      </trkpt>
      <trkpt lat="47.81674" lon="7.17105">
        <ele>309</ele>
        <time>2015-04-26T12:05:51Z</time>
      </trkpt>
      <trkpt lat="47.8168" lon="7.17094">
        <ele>309</ele>
        <time>2015-04-26T12:05:57Z</time>
      </trkpt>
      <trkpt lat="47.81682" lon="7.17078">
        <ele>309</ele>
        <time>2015-04-26T12:06:02Z</time>
      </trkpt>
      <trkpt lat="47.8168" lon="7.17068">
        <ele>309</ele>
        <time>2015-04-26T12:06:08Z</time>
      </trkpt>
      <trkpt lat="47.81681" lon="7.17061">
        <ele>309</ele>
        <time>2015-04-26T12:06:12Z</time>
      </trkpt>
      <trkpt lat="47.81677" lon="7.17047">
        <ele>309</ele>
        <time>2015-04-26T12:06:18Z</time>
      </trkpt>
      <trkpt lat="47.81685" lon="7.17042">
        <ele>309</ele>
        <time>2015-04-26T12:06:24Z</time>
      </trkpt>
      <trkpt lat="47.8169" lon="7.1704">
        <ele>309.8</ele>
        <time>2015-04-26T12:06:27Z</time>
      </trkpt>
      <trkpt lat="47.817" lon="7.17035">
        <ele>310.9</ele>
        <time>2015-04-26T12:06:32Z</time>
      </trkpt>
      <trkpt lat="47.81708" lon="7.17032">
        <ele>312</ele>
        <time>2015-04-26T12:06:38Z</time>
      </trkpt>
      <trkpt lat="47.81713" lon="7.17028">
        <ele>312</ele>
        <time>2015-04-26T12:06:42Z</time>
      </trkpt>
      <trkpt lat="47.81724" lon="7.17022">
        <ele>314.2</ele>
        <time>2015-04-26T12:06:52Z</time>
      </trkpt>
      <trkpt lat="47.81727" lon="7.17015">
        <ele>315</ele>
        <time>2015-04-26T12:06:56Z</time>
      </trkpt>
      <trkpt lat="47.81732" lon="7.17011">
        <ele>315</ele>
        <time>2015-04-26T12:07:00Z</time>
      </trkpt>
      <trkpt lat="47.81739" lon="7.17006">
        <ele>316</ele>
        <time>2015-04-26T12:07:06Z</time>
      </trkpt>
      <trkpt lat="47.81736" lon="7.16999">
        <ele>316</ele>
        <time>2015-04-26T12:07:13Z</time>
      </trkpt>
      <trkpt lat="47.81735" lon="7.16992">
        <ele>316</ele>
        <time>2015-04-26T12:07:19Z</time>
      </trkpt>
      <trkpt lat="47.8173" lon="7.16989">
        <ele>316</ele>
        <time>2015-04-26T12:07:22Z</time>
      </trkpt>
      <trkpt lat="47.81723" lon="7.1698">
        <ele>316</ele>
        <time>2015-04-26T12:07:30Z</time>
      </trkpt>
      <trkpt lat="47.81722" lon="7.16972">
        <ele>316</ele>
        <time>2015-04-26T12:07:35Z</time>
      </trkpt>
      <trkpt lat="47.8172" lon="7.16965">
        <ele>316</ele>
        <time>2015-04-26T12:07:39Z</time>
      </trkpt>
      <trkpt lat="47.81713" lon="7.16948">
        <ele>318</ele>
        <time>2015-04-26T12:07:50Z</time>
      </trkpt>
      <trkpt lat="47.8171" lon="7.1694">
        <ele>318.7</ele>
        <time>2015-04-26T12:07:54Z</time>
      </trkpt>
      <trkpt lat="47.81709" lon="7.16926">
        <ele>319</ele>
        <time>2015-04-26T12:08:01Z</time>
      </trkpt>
      <trkpt lat="47.81706" lon="7.1692">
        <ele>319</ele>
        <time>2015-04-26T12:08:04Z</time>
      </trkpt>
      <trkpt lat="47.81702" lon="7.16916">
        <ele>319</ele>
        <time>2015-04-26T12:08:05Z</time>
      </trkpt>
      <trkpt lat="47.81698" lon="7.1691">
        <ele>319</ele>
        <time>2015-04-26T12:08:09Z</time>
      </trkpt>
      <trkpt lat="47.81692" lon="7.16898">
        <ele>319</ele>
        <time>2015-04-26T12:08:16Z</time>
      </trkpt>
      <trkpt lat="47.81688" lon="7.16894">
        <ele>320</ele>
        <time>2015-04-26T12:08:20Z</time>
      </trkpt>
      <trkpt lat="47.81688" lon="7.16887">
        <ele>320.9</ele>
        <time>2015-04-26T12:08:25Z</time>
      </trkpt>
      <trkpt lat="47.81691" lon="7.16883">
        <ele>321.7</ele>
        <time>2015-04-26T12:08:31Z</time>
      </trkpt>
      <trkpt lat="47.81687" lon="7.16883">
        <ele>325</ele>
        <time>2015-04-26T12:08:45Z</time>
      </trkpt>
      <trkpt lat="47.81678" lon="7.16873">
        <ele>325</ele>
        <time>2015-04-26T12:08:50Z</time>
      </trkpt>
      <trkpt lat="47.81679" lon="7.16864">
        <ele>325</ele>
        <time>2015-04-26T12:08:53Z</time>
      </trkpt>
      <trkpt lat="47.81683" lon="7.16858">
        <ele>325</ele>
        <time>2015-04-26T12:08:56Z</time>
      </trkpt>
      <trkpt lat="47.81681" lon="7.16852">
        <ele>325</ele>
        <time>2015-04-26T12:09:03Z</time>
      </trkpt>
      <trkpt lat="47.81677" lon="7.16847">
        <ele>325.9</ele>
        <time>2015-04-26T12:09:07Z</time>
      </trkpt>
      <trkpt lat="47.81676" lon="7.16839">
        <ele>326</ele>
        <time>2015-04-26T12:09:12Z</time>
      </trkpt>
      <trkpt lat="47.81672" lon="7.16826">
        <ele>326</ele>
        <time>2015-04-26T12:09:20Z</time>
      </trkpt>
      <trkpt lat="47.81665" lon="7.16808">
        <ele>326</ele>
        <time>2015-04-26T12:09:32Z</time>
      </trkpt>
      <trkpt lat="47.81659" lon="7.16798">
        <ele>326</ele>
        <time>2015-04-26T12:09:41Z</time>
      </trkpt>
      <trkpt lat="47.81659" lon="7.1679">
        <ele>326</ele>
        <time>2015-04-26T12:09:45Z</time>
      </trkpt>
      <trkpt lat="47.81668" lon="7.16784">
        <ele>326</ele>
        <time>2015-04-26T12:09:50Z</time>
      </trkpt>
      <trkpt lat="47.81666" lon="7.1677">
        <ele>326.8</ele>
        <time>2015-04-26T12:09:57Z</time>
      </trkpt>
      <trkpt lat="47.81667" lon="7.16762">
        <ele>327</ele>
        <time>2015-04-26T12:10:01Z</time>
      </trkpt>
      <trkpt lat="47.81673" lon="7.16751">
        <ele>329</ele>
        <time>2015-04-26T12:10:11Z</time>
      </trkpt>
      <trkpt lat="47.81674" lon="7.16745">
        <ele>329.9</ele>
        <time>2015-04-26T12:10:14Z</time>
      </trkpt>
      <trkpt lat="47.81676" lon="7.16738">
        <ele>330.9</ele>
        <time>2015-04-26T12:10:21Z</time>
      </trkpt>
      <trkpt lat="47.8168" lon="7.16733">
        <ele>333</ele>
        <time>2015-04-26T12:10:26Z</time>
      </trkpt>
      <trkpt lat="47.81684" lon="7.16721">
        <ele>333.7</ele>
        <time>2015-04-26T12:10:35Z</time>
      </trkpt>
      <trkpt lat="47.81691" lon="7.16718">
        <ele>334</ele>
        <time>2015-04-26T12:10:40Z</time>
      </trkpt>
      <trkpt lat="47.81696" lon="7.16717">
        <ele>334.7</ele>
        <time>2015-04-26T12:10:43Z</time>
      </trkpt>
      <trkpt lat="47.81701" lon="7.16715">
        <ele>334.7</ele>
        <time>2015-04-26T12:10:47Z</time>
      </trkpt>
      <trkpt lat="47.81703" lon="7.16709">
        <ele>335</ele>
        <time>2015-04-26T12:10:57Z</time>
      </trkpt>
      <trkpt lat="47.81706" lon="7.16702">
        <ele>335</ele>
        <time>2015-04-26T12:11:07Z</time>
      </trkpt>
      <trkpt lat="47.8171" lon="7.16698">
        <ele>335</ele>
        <time>2015-04-26T12:11:13Z</time>
      </trkpt>
      <trkpt lat="47.81715" lon="7.16694">
        <ele>335</ele>
        <time>2015-04-26T12:11:21Z</time>
      </trkpt>
      <trkpt lat="47.81718" lon="7.16689">
        <ele>335.9</ele>
        <time>2015-04-26T12:11:27Z</time>
      </trkpt>
      <trkpt lat="47.81718" lon="7.16676">
        <ele>336</ele>
        <time>2015-04-26T12:11:37Z</time>
      </trkpt>
      <trkpt lat="47.81722" lon="7.16671">
        <ele>336</ele>
        <time>2015-04-26T12:11:46Z</time>
      </trkpt>
      <trkpt lat="47.8173" lon="7.16662">
        <ele>338.9</ele>
        <time>2015-04-26T12:12:05Z</time>
      </trkpt>
      <trkpt lat="47.81736" lon="7.16661">
        <ele>339</ele>
        <time>2015-04-26T12:12:12Z</time>
      </trkpt>
      <trkpt lat="47.81739" lon="7.16654">
        <ele>339</ele>
        <time>2015-04-26T12:12:16Z</time>
      </trkpt>
      <trkpt lat="47.81743" lon="7.16658">
        <ele>339</ele>
        <time>2015-04-26T12:12:33Z</time>
      </trkpt>
      <trkpt lat="47.81748" lon="7.16652">
        <ele>338.2</ele>
        <time>2015-04-26T12:12:52Z</time>
      </trkpt>
      <trkpt lat="47.81753" lon="7.16649">
        <ele>337.5</ele>
        <time>2015-04-26T12:12:59Z</time>
      </trkpt>
      <trkpt lat="47.81759" lon="7.16638">
        <ele>341</ele>
        <time>2015-04-26T12:14:46Z</time>
      </trkpt>
      <trkpt lat="47.81764" lon="7.16634">
        <ele>341</ele>
        <time>2015-04-26T12:14:52Z</time>
      </trkpt>
      <trkpt lat="47.81768" lon="7.16633">
        <ele>341</ele>
        <time>2015-04-26T12:14:57Z</time>
      </trkpt>
      <trkpt lat="47.81775" lon="7.1663">
        <ele>342</ele>
        <time>2015-04-26T12:15:03Z</time>
      </trkpt>
      <trkpt lat="47.81784" lon="7.16626">
        <ele>342</ele>
        <time>2015-04-26T12:15:10Z</time>
      </trkpt>
      <trkpt lat="47.81796" lon="7.16616">
        <ele>348.4</ele>
        <time>2015-04-26T12:15:29Z</time>
      </trkpt>
      <trkpt lat="47.81799" lon="7.1661">
        <ele>353.7</ele>
        <time>2015-04-26T12:15:34Z</time>
      </trkpt>
      <trkpt lat="47.81805" lon="7.166">
        <ele>356</ele>
        <time>2015-04-26T12:15:41Z</time>
      </trkpt>
      <trkpt lat="47.81813" lon="7.166">
        <ele>357</ele>
        <time>2015-04-26T12:15:51Z</time>
      </trkpt>
      <trkpt lat="47.8182" lon="7.16586">
        <ele>357.9</ele>
        <time>2015-04-26T12:16:03Z</time>
      </trkpt>
      <trkpt lat="47.81822" lon="7.16578">
        <ele>360.8</ele>
        <time>2015-04-26T12:16:10Z</time>
      </trkpt>
      <trkpt lat="47.81827" lon="7.16578">
        <ele>360.8</ele>
        <time>2015-04-26T12:16:14Z</time>
      </trkpt>
      <trkpt lat="47.81832" lon="7.16574">
        <ele>363.3</ele>
        <time>2015-04-26T12:16:34Z</time>
      </trkpt>
      <trkpt lat="47.8184" lon="7.16567">
        <ele>364</ele>
        <time>2015-04-26T12:16:47Z</time>
      </trkpt>
      <trkpt lat="47.81841" lon="7.1656">
        <ele>364</ele>
        <time>2015-04-26T12:16:56Z</time>
      </trkpt>
      <trkpt lat="47.81843" lon="7.16552">
        <ele>364</ele>
        <time>2015-04-26T12:17:00Z</time>
      </trkpt>
      <trkpt lat="47.81848" lon="7.16546">
        <ele>364</ele>
        <time>2015-04-26T12:17:08Z</time>
      </trkpt>
      <trkpt lat="47.81851" lon="7.16551">
        <ele>365.4</ele>
        <time>2015-04-26T12:17:14Z</time>
      </trkpt>
      <trkpt lat="47.81853" lon="7.16544">
        <ele>367</ele>
        <time>2015-04-26T12:17:31Z</time>
      </trkpt>
      <trkpt lat="47.81856" lon="7.16529">
        <ele>367</ele>
        <time>2015-04-26T12:17:39Z</time>
      </trkpt>
      <trkpt lat="47.81857" lon="7.1652">
        <ele>366</ele>
        <time>2015-04-26T12:17:47Z</time>
      </trkpt>
      <trkpt lat="47.81852" lon="7.1652">
        <ele>362</ele>
        <time>2015-04-26T12:18:07Z</time>
      </trkpt>
      <trkpt lat="47.81857" lon="7.16517">
        <ele>362</ele>
        <time>2015-04-26T12:18:13Z</time>
      </trkpt>
      <trkpt lat="47.8186" lon="7.1651">
        <ele>362</ele>
        <time>2015-04-26T12:18:16Z</time>
      </trkpt>
      <trkpt lat="47.81864" lon="7.16506">
        <ele>362</ele>
        <time>2015-04-26T12:18:18Z</time>
      </trkpt>
      <trkpt lat="47.81867" lon="7.165">
        <ele>362</ele>
        <time>2015-04-26T12:18:24Z</time>
      </trkpt>
      <trkpt lat="47.81864" lon="7.16479">
        <ele>362</ele>
        <time>2015-04-26T12:18:34Z</time>
      </trkpt>
      <trkpt lat="47.81867" lon="7.16465">
        <ele>365.7</ele>
        <time>2015-04-26T12:18:43Z</time>
      </trkpt>
      <trkpt lat="47.81871" lon="7.16462">
        <ele>366</ele>
        <time>2015-04-26T12:18:49Z</time>
      </trkpt>
      <trkpt lat="47.81876" lon="7.16459">
        <ele>369.2</ele>
        <time>2015-04-26T12:19:01Z</time>
      </trkpt>
      <trkpt lat="47.81881" lon="7.16448">
        <ele>370</ele>
        <time>2015-04-26T12:19:11Z</time>
      </trkpt>
      <trkpt lat="47.81876" lon="7.16427">
        <ele>370</ele>
        <time>2015-04-26T12:19:22Z</time>
      </trkpt>
      <trkpt lat="47.81881" lon="7.16405">
        <ele>369.2</ele>
        <time>2015-04-26T12:19:37Z</time>
      </trkpt>
      <trkpt lat="47.81886" lon="7.16398">
        <ele>367.5</ele>
        <time>2015-04-26T12:19:44Z</time>
      </trkpt>
      <trkpt lat="47.8189" lon="7.16381">
        <ele>366</ele>
        <time>2015-04-26T12:19:54Z</time>
      </trkpt>
      <trkpt lat="47.81894" lon="7.16377">
        <ele>366</ele>
        <time>2015-04-26T12:20:13Z</time>
      </trkpt>
      <trkpt lat="47.81896" lon="7.16371">
        <ele>366</ele>
        <time>2015-04-26T12:20:16Z</time>
      </trkpt>
      <trkpt lat="47.81896" lon="7.16364">
        <ele>366</ele>
        <time>2015-04-26T12:20:22Z</time>
      </trkpt>
      <trkpt lat="47.81892" lon="7.1636">
        <ele>366</ele>
        <time>2015-04-26T12:20:27Z</time>
      </trkpt>
      <trkpt lat="47.81891" lon="7.16353">
        <ele>366</ele>
        <time>2015-04-26T12:20:31Z</time>
      </trkpt>
      <trkpt lat="47.81894" lon="7.16346">
        <ele>366</ele>
        <time>2015-04-26T12:20:38Z</time>
      </trkpt>
      <trkpt lat="47.81898" lon="7.16341">
        <ele>366</ele>
        <time>2015-04-26T12:20:42Z</time>
      </trkpt>
      <trkpt lat="47.81903" lon="7.16338">
        <ele>365.5</ele>
        <time>2015-04-26T12:20:45Z</time>
      </trkpt>
      <trkpt lat="47.81911" lon="7.1633">
        <ele>364</ele>
        <time>2015-04-26T12:20:54Z</time>
      </trkpt>
      <trkpt lat="47.81918" lon="7.16322">
        <ele>364</ele>
        <time>2015-04-26T12:21:05Z</time>
      </trkpt>
      <trkpt lat="47.8192" lon="7.16316">
        <ele>364</ele>
        <time>2015-04-26T12:21:09Z</time>
      </trkpt>
      <trkpt lat="47.81923" lon="7.16301">
        <ele>364</ele>
        <time>2015-04-26T12:21:15Z</time>
      </trkpt>
      <trkpt lat="47.81931" lon="7.16292">
        <ele>364</ele>
        <time>2015-04-26T12:21:24Z</time>
      </trkpt>
      <trkpt lat="47.81934" lon="7.16286">
        <ele>364</ele>
        <time>2015-04-26T12:21:31Z</time>
      </trkpt>
      <trkpt lat="47.81928" lon="7.16275">
        <ele>364</ele>
        <time>2015-04-26T12:21:36Z</time>
      </trkpt>
      <trkpt lat="47.81919" lon="7.16272">
        <ele>364</ele>
        <time>2015-04-26T12:21:41Z</time>
      </trkpt>
      <trkpt lat="47.81907" lon="7.16272">
        <ele>364</ele>
        <time>2015-04-26T12:21:46Z</time>
      </trkpt>
      <trkpt lat="47.81903" lon="7.16266">
        <ele>364</ele>
        <time>2015-04-26T12:21:49Z</time>
      </trkpt>
      <trkpt lat="47.81903" lon="7.16252">
        <ele>364</ele>
        <time>2015-04-26T12:21:57Z</time>
      </trkpt>
      <trkpt lat="47.81905" lon="7.16245">
        <ele>364</ele>
        <time>2015-04-26T12:22:01Z</time>
      </trkpt>
      <trkpt lat="47.81905" lon="7.16236">
        <ele>364.9</ele>
        <time>2015-04-26T12:22:06Z</time>
      </trkpt>
      <trkpt lat="47.81905" lon="7.16228">
        <ele>365.9</ele>
        <time>2015-04-26T12:22:09Z</time>
      </trkpt>
      <trkpt lat="47.81903" lon="7.1622">
        <ele>366.5</ele>
        <time>2015-04-26T12:22:14Z</time>
      </trkpt>
      <trkpt lat="47.819" lon="7.16213">
        <ele>368.4</ele>
        <time>2015-04-26T12:22:19Z</time>
      </trkpt>
      <trkpt lat="47.81898" lon="7.16207">
        <ele>369</ele>
        <time>2015-04-26T12:22:23Z</time>
      </trkpt>
      <trkpt lat="47.81896" lon="7.162">
        <ele>369.9</ele>
        <time>2015-04-26T12:22:28Z</time>
      </trkpt>
      <trkpt lat="47.81892" lon="7.16192">
        <ele>370.9</ele>
        <time>2015-04-26T12:22:35Z</time>
      </trkpt>
      <trkpt lat="47.81893" lon="7.16199">
        <ele>371</ele>
        <time>2015-04-26T12:22:40Z</time>
      </trkpt>
      <trkpt lat="47.81903" lon="7.16202">
        <ele>371</ele>
        <time>2015-04-26T12:22:43Z</time>
      </trkpt>
      <trkpt lat="47.81917" lon="7.162">
        <ele>371</ele>
        <time>2015-04-26T12:22:48Z</time>
      </trkpt>
      <trkpt lat="47.81922" lon="7.16199">
        <ele>371.9</ele>
        <time>2015-04-26T12:22:50Z</time>
      </trkpt>
      <trkpt lat="47.81916" lon="7.16197">
        <ele>372</ele>
        <time>2015-04-26T12:22:58Z</time>
      </trkpt>
      <trkpt lat="47.81907" lon="7.16197">
        <ele>372</ele>
        <time>2015-04-26T12:23:03Z</time>
      </trkpt>
      <trkpt lat="47.819" lon="7.16195">
        <ele>372</ele>
        <time>2015-04-26T12:23:06Z</time>
      </trkpt>
      <trkpt lat="47.81896" lon="7.1619">
        <ele>372</ele>
        <time>2015-04-26T12:23:14Z</time>
      </trkpt>
      <trkpt lat="47.8189" lon="7.16189">
        <ele>372</ele>
        <time>2015-04-26T12:23:17Z</time>
      </trkpt>
      <trkpt lat="47.81886" lon="7.16194">
        <ele>372</ele>
        <time>2015-04-26T12:23:21Z</time>
      </trkpt>
      <trkpt lat="47.81887" lon="7.16187">
        <ele>372</ele>
        <time>2015-04-26T12:23:57Z</time>
      </trkpt>
      <trkpt lat="47.8189" lon="7.16182">
        <ele>372</ele>
        <time>2015-04-26T12:24:01Z</time>
      </trkpt>
      <trkpt lat="47.81899" lon="7.16175">
        <ele>372</ele>
        <time>2015-04-26T12:24:13Z</time>
      </trkpt>
      <trkpt lat="47.81903" lon="7.16168">
        <ele>372</ele>
        <time>2015-04-26T12:24:18Z</time>
      </trkpt>
      <trkpt lat="47.81907" lon="7.16159">
        <ele>372.5</ele>
        <time>2015-04-26T12:24:22Z</time>
      </trkpt>
      <trkpt lat="47.8191" lon="7.16152">
        <ele>372.5</ele>
        <time>2015-04-26T12:24:26Z</time>
      </trkpt>
      <trkpt lat="47.81913" lon="7.16147">
        <ele>373</ele>
        <time>2015-04-26T12:24:31Z</time>
      </trkpt>
      <trkpt lat="47.81917" lon="7.16143">
        <ele>373</ele>
        <time>2015-04-26T12:24:35Z</time>
      </trkpt>
      <trkpt lat="47.81926" lon="7.16138">
        <ele>373</ele>
        <time>2015-04-26T12:24:44Z</time>
      </trkpt>
      <trkpt lat="47.81936" lon="7.16135">
        <ele>372.5</ele>
        <time>2015-04-26T12:24:53Z</time>
      </trkpt>
      <trkpt lat="47.81937" lon="7.16127">
        <ele>372.5</ele>
        <time>2015-04-26T12:24:57Z</time>
      </trkpt>
      <trkpt lat="47.81944" lon="7.16109">
        <ele>372.5</ele>
        <time>2015-04-26T12:25:12Z</time>
      </trkpt>
      <trkpt lat="47.81944" lon="7.16102">
        <ele>372</ele>
        <time>2015-04-26T12:25:16Z</time>
      </trkpt>
      <trkpt lat="47.81943" lon="7.16091">
        <ele>372</ele>
        <time>2015-04-26T12:25:22Z</time>
      </trkpt>
      <trkpt lat="47.81942" lon="7.16085">
        <ele>372</ele>
        <time>2015-04-26T12:25:27Z</time>
      </trkpt>
      <trkpt lat="47.81939" lon="7.16079">
        <ele>371.5</ele>
        <time>2015-04-26T12:25:31Z</time>
      </trkpt>
      <trkpt lat="47.81939" lon="7.16072">
        <ele>371.2</ele>
        <time>2015-04-26T12:25:36Z</time>
      </trkpt>
      <trkpt lat="47.81937" lon="7.16065">
        <ele>371</ele>
        <time>2015-04-26T12:25:40Z</time>
      </trkpt>
      <trkpt lat="47.81935" lon="7.16057">
        <ele>371</ele>
        <time>2015-04-26T12:25:45Z</time>
      </trkpt>
      <trkpt lat="47.81931" lon="7.16048">
        <ele>371</ele>
        <time>2015-04-26T12:25:49Z</time>
      </trkpt>
      <trkpt lat="47.81927" lon="7.16043">
        <ele>369.8</ele>
        <time>2015-04-26T12:25:55Z</time>
      </trkpt>
      <trkpt lat="47.81921" lon="7.16031">
        <ele>367.1</ele>
        <time>2015-04-26T12:26:03Z</time>
      </trkpt>
      <trkpt lat="47.8192" lon="7.16024">
        <ele>366.5</ele>
        <time>2015-04-26T12:26:07Z</time>
      </trkpt>
      <trkpt lat="47.81921" lon="7.16017">
        <ele>366</ele>
        <time>2015-04-26T12:26:12Z</time>
      </trkpt>
      <trkpt lat="47.8192" lon="7.1601">
        <ele>366</ele>
        <time>2015-04-26T12:26:16Z</time>
      </trkpt>
      <trkpt lat="47.81913" lon="7.16">
        <ele>366</ele>
        <time>2015-04-26T12:26:26Z</time>
      </trkpt>
      <trkpt lat="47.81909" lon="7.15989">
        <ele>365</ele>
        <time>2015-04-26T12:26:34Z</time>
      </trkpt>
      <trkpt lat="47.81912" lon="7.15981">
        <ele>365</ele>
        <time>2015-04-26T12:26:38Z</time>
      </trkpt>
      <trkpt lat="47.8192" lon="7.15971">
        <ele>365</ele>
        <time>2015-04-26T12:26:46Z</time>
      </trkpt>
      <trkpt lat="47.81924" lon="7.15967">
        <ele>365</ele>
        <time>2015-04-26T12:26:50Z</time>
      </trkpt>
      <trkpt lat="47.81926" lon="7.1596">
        <ele>364</ele>
        <time>2015-04-26T12:26:54Z</time>
      </trkpt>
      <trkpt lat="47.81931" lon="7.15955">
        <ele>364</ele>
        <time>2015-04-26T12:27:00Z</time>
      </trkpt>
      <trkpt lat="47.81935" lon="7.15951">
        <ele>363.3</ele>
        <time>2015-04-26T12:27:05Z</time>
      </trkpt>
      <trkpt lat="47.81944" lon="7.15949">
        <ele>363</ele>
        <time>2015-04-26T12:27:16Z</time>
      </trkpt>
      <trkpt lat="47.81951" lon="7.15938">
        <ele>363</ele>
        <time>2015-04-26T12:27:23Z</time>
      </trkpt>
      <trkpt lat="47.8196" lon="7.15934">
        <ele>362</ele>
        <time>2015-04-26T12:27:34Z</time>
      </trkpt>
      <trkpt lat="47.81965" lon="7.15922">
        <ele>362</ele>
        <time>2015-04-26T12:27:40Z</time>
      </trkpt>
      <trkpt lat="47.81966" lon="7.15913">
        <ele>362</ele>
        <time>2015-04-26T12:27:43Z</time>
      </trkpt>
      <trkpt lat="47.81971" lon="7.15909">
        <ele>362</ele>
        <time>2015-04-26T12:27:49Z</time>
      </trkpt>
      <trkpt lat="47.81984" lon="7.15901">
        <ele>363.5</ele>
        <time>2015-04-26T12:28:02Z</time>
      </trkpt>
      <trkpt lat="47.81987" lon="7.15894">
        <ele>364</ele>
        <time>2015-04-26T12:28:06Z</time>
      </trkpt>
      <trkpt lat="47.81993" lon="7.15888">
        <ele>365</ele>
        <time>2015-04-26T12:28:16Z</time>
      </trkpt>
      <trkpt lat="47.82" lon="7.15887">
        <ele>365</ele>
        <time>2015-04-26T12:28:24Z</time>
      </trkpt>
      <trkpt lat="47.82004" lon="7.15882">
        <ele>365</ele>
        <time>2015-04-26T12:28:30Z</time>
      </trkpt>
      <trkpt lat="47.82012" lon="7.15875">
        <ele>365.9</ele>
        <time>2015-04-26T12:28:39Z</time>
      </trkpt>
      <trkpt lat="47.82017" lon="7.15874">
        <ele>366</ele>
        <time>2015-04-26T12:28:44Z</time>
      </trkpt>
      <trkpt lat="47.8202" lon="7.15869">
        <ele>366</ele>
        <time>2015-04-26T12:28:47Z</time>
      </trkpt>
      <trkpt lat="47.82023" lon="7.15862">
        <ele>366</ele>
        <time>2015-04-26T12:28:50Z</time>
      </trkpt>
      <trkpt lat="47.82027" lon="7.15857">
        <ele>366.8</ele>
        <time>2015-04-26T12:28:57Z</time>
      </trkpt>
      <trkpt lat="47.82031" lon="7.15853">
        <ele>367</ele>
        <time>2015-04-26T12:29:12Z</time>
      </trkpt>
      <trkpt lat="47.82039" lon="7.15846">
        <ele>368.8</ele>
        <time>2015-04-26T12:29:22Z</time>
      </trkpt>
      <trkpt lat="47.82043" lon="7.15842">
        <ele>370</ele>
        <time>2015-04-26T12:29:28Z</time>
      </trkpt>
      <trkpt lat="47.82048" lon="7.15827">
        <ele>371</ele>
        <time>2015-04-26T12:29:37Z</time>
      </trkpt>
      <trkpt lat="47.82052" lon="7.15822">
        <ele>371</ele>
        <time>2015-04-26T12:29:41Z</time>
      </trkpt>
      <trkpt lat="47.82056" lon="7.15815">
        <ele>371.8</ele>
        <time>2015-04-26T12:29:48Z</time>
      </trkpt>
      <trkpt lat="47.82058" lon="7.15807">
        <ele>372</ele>
        <time>2015-04-26T12:29:53Z</time>
      </trkpt>
      <trkpt lat="47.82061" lon="7.15801">
        <ele>372</ele>
        <time>2015-04-26T12:29:59Z</time>
      </trkpt>
      <trkpt lat="47.82066" lon="7.15799">
        <ele>372</ele>
        <time>2015-04-26T12:30:04Z</time>
      </trkpt>
      <trkpt lat="47.8207" lon="7.15794">
        <ele>372</ele>
        <time>2015-04-26T12:30:08Z</time>
      </trkpt>
      <trkpt lat="47.82078" lon="7.15777">
        <ele>372.9</ele>
        <time>2015-04-26T12:30:18Z</time>
      </trkpt>
      <trkpt lat="47.82082" lon="7.15769">
        <ele>373</ele>
        <time>2015-04-26T12:30:23Z</time>
      </trkpt>
      <trkpt lat="47.8209" lon="7.1576">
        <ele>373</ele>
        <time>2015-04-26T12:30:32Z</time>
      </trkpt>
      <trkpt lat="47.82102" lon="7.1575">
        <ele>373</ele>
        <time>2015-04-26T12:30:43Z</time>
      </trkpt>
      <trkpt lat="47.82103" lon="7.15743">
        <ele>373</ele>
        <time>2015-04-26T12:30:49Z</time>
      </trkpt>
      <trkpt lat="47.82109" lon="7.15724">
        <ele>373.5</ele>
        <time>2015-04-26T12:30:59Z</time>
      </trkpt>
      <trkpt lat="47.82112" lon="7.15717">
        <ele>374</ele>
        <time>2015-04-26T12:31:03Z</time>
      </trkpt>
      <trkpt lat="47.82117" lon="7.15706">
        <ele>374</ele>
        <time>2015-04-26T12:31:12Z</time>
      </trkpt>
      <trkpt lat="47.8212" lon="7.15687">
        <ele>374</ele>
        <time>2015-04-26T12:31:24Z</time>
      </trkpt>
      <trkpt lat="47.82121" lon="7.15673">
        <ele>373</ele>
        <time>2015-04-26T12:31:31Z</time>
      </trkpt>
      <trkpt lat="47.82122" lon="7.15658">
        <ele>373</ele>
        <time>2015-04-26T12:31:38Z</time>
      </trkpt>
      <trkpt lat="47.82126" lon="7.15652">
        <ele>373</ele>
        <time>2015-04-26T12:31:42Z</time>
      </trkpt>
      <trkpt lat="47.8213" lon="7.15648">
        <ele>373.9</ele>
        <time>2015-04-26T12:31:45Z</time>
      </trkpt>
      <trkpt lat="47.82138" lon="7.15641">
        <ele>374</ele>
        <time>2015-04-26T12:31:54Z</time>
      </trkpt>
      <trkpt lat="47.82151" lon="7.15636">
        <ele>373.5</ele>
        <time>2015-04-26T12:32:11Z</time>
      </trkpt>
      <trkpt lat="47.82155" lon="7.15632">
        <ele>373</ele>
        <time>2015-04-26T12:32:16Z</time>
      </trkpt>
      <trkpt lat="47.82165" lon="7.1563">
        <ele>373</ele>
        <time>2015-04-26T12:32:23Z</time>
      </trkpt>
      <trkpt lat="47.82169" lon="7.15617">
        <ele>373</ele>
        <time>2015-04-26T12:32:29Z</time>
      </trkpt>
      <trkpt lat="47.82173" lon="7.15612">
        <ele>371.2</ele>
        <time>2015-04-26T12:32:33Z</time>
      </trkpt>
      <trkpt lat="47.82183" lon="7.15599">
        <ele>370</ele>
        <time>2015-04-26T12:32:47Z</time>
      </trkpt>
      <trkpt lat="47.82191" lon="7.15588">
        <ele>370</ele>
        <time>2015-04-26T12:32:55Z</time>
      </trkpt>
      <trkpt lat="47.82195" lon="7.15576">
        <ele>370.8</ele>
        <time>2015-04-26T12:33:06Z</time>
      </trkpt>
      <trkpt lat="47.82202" lon="7.15569">
        <ele>372.5</ele>
        <time>2015-04-26T12:33:20Z</time>
      </trkpt>
      <trkpt lat="47.82205" lon="7.15562">
        <ele>372.5</ele>
        <time>2015-04-26T12:33:23Z</time>
      </trkpt>
      <trkpt lat="47.82205" lon="7.15555">
        <ele>373</ele>
        <time>2015-04-26T12:33:28Z</time>
      </trkpt>
      <trkpt lat="47.82204" lon="7.15546">
        <ele>372.9</ele>
        <time>2015-04-26T12:33:34Z</time>
      </trkpt>
      <trkpt lat="47.82206" lon="7.1554">
        <ele>372.9</ele>
        <time>2015-04-26T12:33:38Z</time>
      </trkpt>
      <trkpt lat="47.82209" lon="7.15534">
        <ele>373.9</ele>
        <time>2015-04-26T12:33:43Z</time>
      </trkpt>
      <trkpt lat="47.82209" lon="7.1552">
        <ele>374.7</ele>
        <time>2015-04-26T12:33:51Z</time>
      </trkpt>
      <trkpt lat="47.82208" lon="7.15507">
        <ele>375</ele>
        <time>2015-04-26T12:34:00Z</time>
      </trkpt>
      <trkpt lat="47.82209" lon="7.15499">
        <ele>375</ele>
        <time>2015-04-26T12:34:05Z</time>
      </trkpt>
      <trkpt lat="47.82208" lon="7.1549">
        <ele>374</ele>
        <time>2015-04-26T12:34:10Z</time>
      </trkpt>
      <trkpt lat="47.82212" lon="7.15486">
        <ele>373.1</ele>
        <time>2015-04-26T12:34:19Z</time>
      </trkpt>
      <trkpt lat="47.82214" lon="7.1548">
        <ele>373.1</ele>
        <time>2015-04-26T12:34:23Z</time>
      </trkpt>
      <trkpt lat="47.82216" lon="7.15466">
        <ele>373</ele>
        <time>2015-04-26T12:34:32Z</time>
      </trkpt>
      <trkpt lat="47.82215" lon="7.15459">
        <ele>373</ele>
        <time>2015-04-26T12:34:35Z</time>
      </trkpt>
      <trkpt lat="47.82214" lon="7.15445">
        <ele>373</ele>
        <time>2015-04-26T12:34:40Z</time>
      </trkpt>
      <trkpt lat="47.82213" lon="7.15437">
        <ele>372</ele>
        <time>2015-04-26T12:34:45Z</time>
      </trkpt>
      <trkpt lat="47.82214" lon="7.1543">
        <ele>371.3</ele>
        <time>2015-04-26T12:34:51Z</time>
      </trkpt>
      <trkpt lat="47.82216" lon="7.15424">
        <ele>371</ele>
        <time>2015-04-26T12:34:57Z</time>
      </trkpt>
      <trkpt lat="47.82214" lon="7.15411">
        <ele>371</ele>
        <time>2015-04-26T12:35:04Z</time>
      </trkpt>
      <trkpt lat="47.82212" lon="7.15399">
        <ele>370</ele>
        <time>2015-04-26T12:35:13Z</time>
      </trkpt>
      <trkpt lat="47.82214" lon="7.15392">
        <ele>370</ele>
        <time>2015-04-26T12:35:18Z</time>
      </trkpt>
      <trkpt lat="47.82216" lon="7.15372">
        <ele>369.5</ele>
        <time>2015-04-26T12:35:33Z</time>
      </trkpt>
      <trkpt lat="47.82217" lon="7.15351">
        <ele>367.1</ele>
        <time>2015-04-26T12:35:43Z</time>
      </trkpt>
      <trkpt lat="47.82215" lon="7.15336">
        <ele>366</ele>
        <time>2015-04-26T12:35:51Z</time>
      </trkpt>
      <trkpt lat="47.82216" lon="7.15329">
        <ele>363.1</ele>
        <time>2015-04-26T12:35:57Z</time>
      </trkpt>
      <trkpt lat="47.82215" lon="7.15321">
        <ele>362</ele>
        <time>2015-04-26T12:36:02Z</time>
      </trkpt>
      <trkpt lat="47.82209" lon="7.15311">
        <ele>361.5</ele>
        <time>2015-04-26T12:36:10Z</time>
      </trkpt>
      <trkpt lat="47.822" lon="7.15304">
        <ele>362</ele>
        <time>2015-04-26T12:36:17Z</time>
      </trkpt>
      <trkpt lat="47.82199" lon="7.15297">
        <ele>362</ele>
        <time>2015-04-26T12:36:22Z</time>
      </trkpt>
      <trkpt lat="47.82189" lon="7.15289">
        <ele>362</ele>
        <time>2015-04-26T12:36:29Z</time>
      </trkpt>
      <trkpt lat="47.82185" lon="7.15285">
        <ele>362</ele>
        <time>2015-04-26T12:36:34Z</time>
      </trkpt>
      <trkpt lat="47.8218" lon="7.15282">
        <ele>361.1</ele>
        <time>2015-04-26T12:36:39Z</time>
      </trkpt>
      <trkpt lat="47.82176" lon="7.15286">
        <ele>361</ele>
        <time>2015-04-26T12:36:44Z</time>
      </trkpt>
      <trkpt lat="47.82162" lon="7.15296">
        <ele>361</ele>
        <time>2015-04-26T12:36:52Z</time>
      </trkpt>
      <trkpt lat="47.82153" lon="7.15296">
        <ele>359.5</ele>
        <time>2015-04-26T12:36:59Z</time>
      </trkpt>
      <trkpt lat="47.82141" lon="7.15284">
        <ele>358.1</ele>
        <time>2015-04-26T12:37:09Z</time>
      </trkpt>
      <trkpt lat="47.82137" lon="7.15279">
        <ele>358</ele>
        <time>2015-04-26T12:37:13Z</time>
      </trkpt>
      <trkpt lat="47.82128" lon="7.15271">
        <ele>358</ele>
        <time>2015-04-26T12:37:19Z</time>
      </trkpt>
      <trkpt lat="47.82117" lon="7.15268">
        <ele>358</ele>
        <time>2015-04-26T12:37:25Z</time>
      </trkpt>
      <trkpt lat="47.82115" lon="7.15262">
        <ele>358</ele>
        <time>2015-04-26T12:37:31Z</time>
      </trkpt>
      <trkpt lat="47.82108" lon="7.15249">
        <ele>359</ele>
        <time>2015-04-26T12:37:40Z</time>
      </trkpt>
      <trkpt lat="47.82102" lon="7.15237">
        <ele>360.9</ele>
        <time>2015-04-26T12:37:51Z</time>
      </trkpt>
      <trkpt lat="47.82093" lon="7.15231">
        <ele>361.7</ele>
        <time>2015-04-26T12:37:57Z</time>
      </trkpt>
      <trkpt lat="47.82084" lon="7.15227">
        <ele>363</ele>
        <time>2015-04-26T12:38:05Z</time>
      </trkpt>
      <trkpt lat="47.8208" lon="7.15229">
        <ele>363.9</ele>
        <time>2015-04-26T12:38:13Z</time>
      </trkpt>
      <trkpt lat="47.82074" lon="7.1523">
        <ele>364</ele>
        <time>2015-04-26T12:38:17Z</time>
      </trkpt>
      <trkpt lat="47.82069" lon="7.15229">
        <ele>364</ele>
        <time>2015-04-26T12:38:21Z</time>
      </trkpt>
      <trkpt lat="47.82065" lon="7.15224">
        <ele>364.5</ele>
        <time>2015-04-26T12:38:25Z</time>
      </trkpt>
      <trkpt lat="47.82058" lon="7.15213">
        <ele>365</ele>
        <time>2015-04-26T12:38:33Z</time>
      </trkpt>
      <trkpt lat="47.82054" lon="7.15209">
        <ele>365</ele>
        <time>2015-04-26T12:38:42Z</time>
      </trkpt>
      <trkpt lat="47.8205" lon="7.15204">
        <ele>365</ele>
        <time>2015-04-26T12:38:46Z</time>
      </trkpt>
      <trkpt lat="47.82045" lon="7.15197">
        <ele>365</ele>
        <time>2015-04-26T12:38:53Z</time>
      </trkpt>
      <trkpt lat="47.8204" lon="7.15178">
        <ele>365</ele>
        <time>2015-04-26T12:39:05Z</time>
      </trkpt>
      <trkpt lat="47.82039" lon="7.1517">
        <ele>365</ele>
        <time>2015-04-26T12:39:11Z</time>
      </trkpt>
      <trkpt lat="47.82038" lon="7.15163">
        <ele>365</ele>
        <time>2015-04-26T12:39:15Z</time>
      </trkpt>
      <trkpt lat="47.82034" lon="7.15159">
        <ele>365.9</ele>
        <time>2015-04-26T12:39:26Z</time>
      </trkpt>
      <trkpt lat="47.82029" lon="7.15159">
        <ele>366</ele>
        <time>2015-04-26T12:39:31Z</time>
      </trkpt>
      <trkpt lat="47.82027" lon="7.15165">
        <ele>366</ele>
        <time>2015-04-26T12:39:36Z</time>
      </trkpt>
      <trkpt lat="47.82025" lon="7.15173">
        <ele>367</ele>
        <time>2015-04-26T12:39:49Z</time>
      </trkpt>
      <trkpt lat="47.82024" lon="7.15166">
        <ele>367.9</ele>
        <time>2015-04-26T12:39:56Z</time>
      </trkpt>
      <trkpt lat="47.8202" lon="7.15166">
        <ele>371</ele>
        <time>2015-04-26T12:40:32Z</time>
      </trkpt>
      <trkpt lat="47.8202" lon="7.15175">
        <ele>373</ele>
        <time>2015-04-26T12:40:48Z</time>
      </trkpt>
      <trkpt lat="47.82025" lon="7.15177">
        <ele>373</ele>
        <time>2015-04-26T12:41:07Z</time>
      </trkpt>
      <trkpt lat="47.82021" lon="7.15181">
        <ele>373</ele>
        <time>2015-04-26T12:41:24Z</time>
      </trkpt>
      <trkpt lat="47.82025" lon="7.15179">
        <ele>374</ele>
        <time>2015-04-26T12:41:37Z</time>
      </trkpt>
      <trkpt lat="47.82021" lon="7.15173">
        <ele>377</ele>
        <time>2015-04-26T12:42:33Z</time>
      </trkpt>
      <trkpt lat="47.82012" lon="7.15168">
        <ele>377</ele>
        <time>2015-04-26T12:42:38Z</time>
      </trkpt>
      <trkpt lat="47.82002" lon="7.15163">
        <ele>374.5</ele>
        <time>2015-04-26T12:42:52Z</time>
      </trkpt>
      <trkpt lat="47.81997" lon="7.15164">
        <ele>374</ele>
        <time>2015-04-26T12:42:56Z</time>
      </trkpt>
      <trkpt lat="47.8199" lon="7.15173">
        <ele>374</ele>
        <time>2015-04-26T12:43:01Z</time>
      </trkpt>
      <trkpt lat="47.81985" lon="7.15175">
        <ele>374</ele>
        <time>2015-04-26T12:43:05Z</time>
      </trkpt>
      <trkpt lat="47.81984" lon="7.15168">
        <ele>374</ele>
        <time>2015-04-26T12:43:11Z</time>
      </trkpt>
      <trkpt lat="47.81985" lon="7.15162">
        <ele>374</ele>
        <time>2015-04-26T12:43:15Z</time>
      </trkpt>
      <trkpt lat="47.81985" lon="7.15155">
        <ele>373.1</ele>
        <time>2015-04-26T12:43:21Z</time>
      </trkpt>
      <trkpt lat="47.81982" lon="7.15148">
        <ele>373</ele>
        <time>2015-04-26T12:43:26Z</time>
      </trkpt>
      <trkpt lat="47.81978" lon="7.15135">
        <ele>373</ele>
        <time>2015-04-26T12:43:32Z</time>
      </trkpt>
      <trkpt lat="47.8197" lon="7.15126">
        <ele>373</ele>
        <time>2015-04-26T12:43:38Z</time>
      </trkpt>
      <trkpt lat="47.81964" lon="7.15123">
        <ele>373</ele>
        <time>2015-04-26T12:43:43Z</time>
      </trkpt>
      <trkpt lat="47.81959" lon="7.15122">
        <ele>373</ele>
        <time>2015-04-26T12:43:50Z</time>
      </trkpt>
      <trkpt lat="47.81956" lon="7.15116">
        <ele>373</ele>
        <time>2015-04-26T12:43:56Z</time>
      </trkpt>
      <trkpt lat="47.81947" lon="7.1511">
        <ele>373.9</ele>
        <time>2015-04-26T12:44:02Z</time>
      </trkpt>
      <trkpt lat="47.81939" lon="7.15105">
        <ele>374</ele>
        <time>2015-04-26T12:44:07Z</time>
      </trkpt>
      <trkpt lat="47.8193" lon="7.151">
        <ele>374</ele>
        <time>2015-04-26T12:44:15Z</time>
      </trkpt>
      <trkpt lat="47.81925" lon="7.15097">
        <ele>374</ele>
        <time>2015-04-26T12:44:22Z</time>
      </trkpt>
      <trkpt lat="47.81921" lon="7.15091">
        <ele>374</ele>
        <time>2015-04-26T12:44:29Z</time>
      </trkpt>
      <trkpt lat="47.81917" lon="7.15087">
        <ele>374</ele>
        <time>2015-04-26T12:44:34Z</time>
      </trkpt>
      <trkpt lat="47.81915" lon="7.15081">
        <ele>374</ele>
        <time>2015-04-26T12:44:40Z</time>
      </trkpt>
      <trkpt lat="47.8191" lon="7.15076">
        <ele>373.2</ele>
        <time>2015-04-26T12:44:45Z</time>
      </trkpt>
      <trkpt lat="47.81905" lon="7.15064">
        <ele>372.2</ele>
        <time>2015-04-26T12:44:52Z</time>
      </trkpt>
      <trkpt lat="47.81903" lon="7.15056">
        <ele>372</ele>
        <time>2015-04-26T12:44:56Z</time>
      </trkpt>
      <trkpt lat="47.81901" lon="7.15036">
        <ele>369.5</ele>
        <time>2015-04-26T12:45:07Z</time>
      </trkpt>
      <trkpt lat="47.819" lon="7.15016">
        <ele>369</ele>
        <time>2015-04-26T12:45:18Z</time>
      </trkpt>
      <trkpt lat="47.81899" lon="7.15009">
        <ele>369</ele>
        <time>2015-04-26T12:45:21Z</time>
      </trkpt>
      <trkpt lat="47.819" lon="7.15">
        <ele>369</ele>
        <time>2015-04-26T12:45:27Z</time>
      </trkpt>
      <trkpt lat="47.81898" lon="7.14987">
        <ele>369</ele>
        <time>2015-04-26T12:45:35Z</time>
      </trkpt>
      <trkpt lat="47.81899" lon="7.1498">
        <ele>369</ele>
        <time>2015-04-26T12:45:40Z</time>
      </trkpt>
      <trkpt lat="47.819" lon="7.14972">
        <ele>369</ele>
        <time>2015-04-26T12:45:45Z</time>
      </trkpt>
      <trkpt lat="47.81899" lon="7.1496">
        <ele>369.5</ele>
        <time>2015-04-26T12:45:52Z</time>
      </trkpt>
      <trkpt lat="47.81897" lon="7.14953">
        <ele>369.5</ele>
        <time>2015-04-26T12:45:56Z</time>
      </trkpt>
      <trkpt lat="47.81893" lon="7.14946">
        <ele>370</ele>
        <time>2015-04-26T12:45:59Z</time>
      </trkpt>
      <trkpt lat="47.81893" lon="7.14939">
        <ele>370</ele>
        <time>2015-04-26T12:46:03Z</time>
      </trkpt>
      <trkpt lat="47.81897" lon="7.14926">
        <ele>371</ele>
        <time>2015-04-26T12:46:13Z</time>
      </trkpt>
      <trkpt lat="47.81896" lon="7.14905">
        <ele>371</ele>
        <time>2015-04-26T12:46:28Z</time>
      </trkpt>
      <trkpt lat="47.81896" lon="7.14891">
        <ele>372</ele>
        <time>2015-04-26T12:46:35Z</time>
      </trkpt>
      <trkpt lat="47.81895" lon="7.14882">
        <ele>372</ele>
        <time>2015-04-26T12:46:40Z</time>
      </trkpt>
      <trkpt lat="47.81897" lon="7.14866">
        <ele>373</ele>
        <time>2015-04-26T12:46:50Z</time>
      </trkpt>
      <trkpt lat="47.81896" lon="7.14857">
        <ele>373.5</ele>
        <time>2015-04-26T12:46:55Z</time>
      </trkpt>
      <trkpt lat="47.81894" lon="7.14851">
        <ele>373.5</ele>
        <time>2015-04-26T12:46:59Z</time>
      </trkpt>
      <trkpt lat="47.81893" lon="7.14844">
        <ele>374</ele>
        <time>2015-04-26T12:47:03Z</time>
      </trkpt>
      <trkpt lat="47.81894" lon="7.14831">
        <ele>377</ele>
        <time>2015-04-26T12:47:09Z</time>
      </trkpt>
      <trkpt lat="47.81893" lon="7.14822">
        <ele>378</ele>
        <time>2015-04-26T12:47:17Z</time>
      </trkpt>
      <trkpt lat="47.81895" lon="7.14815">
        <ele>379</ele>
        <time>2015-04-26T12:47:25Z</time>
      </trkpt>
      <trkpt lat="47.8189" lon="7.14796">
        <ele>379.9</ele>
        <time>2015-04-26T12:47:38Z</time>
      </trkpt>
      <trkpt lat="47.81888" lon="7.1479">
        <ele>380</ele>
        <time>2015-04-26T12:47:41Z</time>
      </trkpt>
      <trkpt lat="47.81888" lon="7.14782">
        <ele>380</ele>
        <time>2015-04-26T12:47:45Z</time>
      </trkpt>
      <trkpt lat="47.8189" lon="7.14767">
        <ele>381</ele>
        <time>2015-04-26T12:47:55Z</time>
      </trkpt>
      <trkpt lat="47.81889" lon="7.14759">
        <ele>381.8</ele>
        <time>2015-04-26T12:48:03Z</time>
      </trkpt>
      <trkpt lat="47.81889" lon="7.14751">
        <ele>382</ele>
        <time>2015-04-26T12:48:08Z</time>
      </trkpt>
      <trkpt lat="47.81891" lon="7.14745">
        <ele>382</ele>
        <time>2015-04-26T12:48:13Z</time>
      </trkpt>
      <trkpt lat="47.81892" lon="7.14738">
        <ele>382</ele>
        <time>2015-04-26T12:48:19Z</time>
      </trkpt>
      <trkpt lat="47.81892" lon="7.14724">
        <ele>383</ele>
        <time>2015-04-26T12:48:28Z</time>
      </trkpt>
      <trkpt lat="47.81893" lon="7.14717">
        <ele>383</ele>
        <time>2015-04-26T12:48:32Z</time>
      </trkpt>
      <trkpt lat="47.81892" lon="7.14697">
        <ele>383</ele>
        <time>2015-04-26T12:48:45Z</time>
      </trkpt>
      <trkpt lat="47.81891" lon="7.14675">
        <ele>386.9</ele>
        <time>2015-04-26T12:49:00Z</time>
      </trkpt>
      <trkpt lat="47.81889" lon="7.14664">
        <ele>388.9</ele>
        <time>2015-04-26T12:49:12Z</time>
      </trkpt>
      <trkpt lat="47.81887" lon="7.14658">
        <ele>389</ele>
        <time>2015-04-26T12:49:16Z</time>
      </trkpt>
      <trkpt lat="47.81885" lon="7.14651">
        <ele>389</ele>
        <time>2015-04-26T12:49:22Z</time>
      </trkpt>
      <trkpt lat="47.81883" lon="7.14643">
        <ele>390.9</ele>
        <time>2015-04-26T12:49:27Z</time>
      </trkpt>
      <trkpt lat="47.8188" lon="7.14631">
        <ele>391</ele>
        <time>2015-04-26T12:49:34Z</time>
      </trkpt>
      <trkpt lat="47.81877" lon="7.14619">
        <ele>391</ele>
        <time>2015-04-26T12:49:42Z</time>
      </trkpt>
      <trkpt lat="47.81876" lon="7.14611">
        <ele>392</ele>
        <time>2015-04-26T12:49:47Z</time>
      </trkpt>
      <trkpt lat="47.81872" lon="7.14606">
        <ele>392</ele>
        <time>2015-04-26T12:49:57Z</time>
      </trkpt>
      <trkpt lat="47.8187" lon="7.14599">
        <ele>392</ele>
        <time>2015-04-26T12:50:01Z</time>
      </trkpt>
      <trkpt lat="47.8187" lon="7.14591">
        <ele>392</ele>
        <time>2015-04-26T12:50:05Z</time>
      </trkpt>
      <trkpt lat="47.81869" lon="7.14584">
        <ele>392</ele>
        <time>2015-04-26T12:50:09Z</time>
      </trkpt>
      <trkpt lat="47.81866" lon="7.14577">
        <ele>391.4</ele>
        <time>2015-04-26T12:50:11Z</time>
      </trkpt>
      <trkpt lat="47.81863" lon="7.1457">
        <ele>391.4</ele>
        <time>2015-04-26T12:50:13Z</time>
      </trkpt>
      <trkpt lat="47.81859" lon="7.14562">
        <ele>391.4</ele>
        <time>2015-04-26T12:50:15Z</time>
      </trkpt>
      <trkpt lat="47.81857" lon="7.14556">
        <ele>392</ele>
        <time>2015-04-26T12:50:20Z</time>
      </trkpt>
      <trkpt lat="47.81853" lon="7.1455">
        <ele>391.3</ele>
        <time>2015-04-26T12:50:29Z</time>
      </trkpt>
      <trkpt lat="47.81851" lon="7.14544">
        <ele>391</ele>
        <time>2015-04-26T12:50:35Z</time>
      </trkpt>
      <trkpt lat="47.81845" lon="7.14541">
        <ele>391</ele>
        <time>2015-04-26T12:50:39Z</time>
      </trkpt>
      <trkpt lat="47.81841" lon="7.14534">
        <ele>391</ele>
        <time>2015-04-26T12:50:43Z</time>
      </trkpt>
      <trkpt lat="47.81837" lon="7.14522">
        <ele>391</ele>
        <time>2015-04-26T12:50:50Z</time>
      </trkpt>
      <trkpt lat="47.81836" lon="7.14515">
        <ele>391</ele>
        <time>2015-04-26T12:50:53Z</time>
      </trkpt>
      <trkpt lat="47.81832" lon="7.1451">
        <ele>391</ele>
        <time>2015-04-26T12:50:57Z</time>
      </trkpt>
      <trkpt lat="47.81828" lon="7.14505">
        <ele>391</ele>
        <time>2015-04-26T12:51:01Z</time>
      </trkpt>
      <trkpt lat="47.81828" lon="7.14497">
        <ele>391</ele>
        <time>2015-04-26T12:51:07Z</time>
      </trkpt>
      <trkpt lat="47.81829" lon="7.1449">
        <ele>391</ele>
        <time>2015-04-26T12:51:12Z</time>
      </trkpt>
      <trkpt lat="47.81824" lon="7.14478">
        <ele>390</ele>
        <time>2015-04-26T12:51:20Z</time>
      </trkpt>
      <trkpt lat="47.81822" lon="7.1447">
        <ele>390</ele>
        <time>2015-04-26T12:51:24Z</time>
      </trkpt>
      <trkpt lat="47.8182" lon="7.14464">
        <ele>390</ele>
        <time>2015-04-26T12:51:27Z</time>
      </trkpt>
      <trkpt lat="47.81816" lon="7.1446">
        <ele>390</ele>
        <time>2015-04-26T12:51:30Z</time>
      </trkpt>
      <trkpt lat="47.81812" lon="7.14453">
        <ele>390</ele>
        <time>2015-04-26T12:51:34Z</time>
      </trkpt>
      <trkpt lat="47.8181" lon="7.14445">
        <ele>390</ele>
        <time>2015-04-26T12:51:39Z</time>
      </trkpt>
      <trkpt lat="47.81808" lon="7.14438">
        <ele>390</ele>
        <time>2015-04-26T12:51:44Z</time>
      </trkpt>
      <trkpt lat="47.81805" lon="7.1443">
        <ele>390</ele>
        <time>2015-04-26T12:51:51Z</time>
      </trkpt>
      <trkpt lat="47.81805" lon="7.14422">
        <ele>390.8</ele>
        <time>2015-04-26T12:51:56Z</time>
      </trkpt>
      <trkpt lat="47.81804" lon="7.14414">
        <ele>391</ele>
        <time>2015-04-26T12:52:00Z</time>
      </trkpt>
      <trkpt lat="47.81795" lon="7.14405">
        <ele>392</ele>
        <time>2015-04-26T12:52:09Z</time>
      </trkpt>
      <trkpt lat="47.81795" lon="7.14397">
        <ele>392</ele>
        <time>2015-04-26T12:52:20Z</time>
      </trkpt>
      <trkpt lat="47.81785" lon="7.14383">
        <ele>392.5</ele>
        <time>2015-04-26T12:52:29Z</time>
      </trkpt>
      <trkpt lat="47.81781" lon="7.14377">
        <ele>393</ele>
        <time>2015-04-26T12:52:33Z</time>
      </trkpt>
      <trkpt lat="47.81779" lon="7.14371">
        <ele>393.9</ele>
        <time>2015-04-26T12:52:37Z</time>
      </trkpt>
      <trkpt lat="47.8178" lon="7.14361">
        <ele>396.9</ele>
        <time>2015-04-26T12:52:43Z</time>
      </trkpt>
      <trkpt lat="47.81776" lon="7.14358">
        <ele>396.9</ele>
        <time>2015-04-26T12:52:47Z</time>
      </trkpt>
      <trkpt lat="47.81769" lon="7.14348">
        <ele>398</ele>
        <time>2015-04-26T12:52:58Z</time>
      </trkpt>
      <trkpt lat="47.81766" lon="7.14341">
        <ele>398</ele>
        <time>2015-04-26T12:53:06Z</time>
      </trkpt>
      <trkpt lat="47.81761" lon="7.14329">
        <ele>398</ele>
        <time>2015-04-26T12:53:14Z</time>
      </trkpt>
      <trkpt lat="47.81755" lon="7.14319">
        <ele>397.1</ele>
        <time>2015-04-26T12:53:24Z</time>
      </trkpt>
      <trkpt lat="47.81753" lon="7.14312">
        <ele>396.5</ele>
        <time>2015-04-26T12:53:29Z</time>
      </trkpt>
      <trkpt lat="47.81751" lon="7.14306">
        <ele>394.1</ele>
        <time>2015-04-26T12:53:37Z</time>
      </trkpt>
      <trkpt lat="47.81751" lon="7.14298">
        <ele>394</ele>
        <time>2015-04-26T12:53:46Z</time>
      </trkpt>
      <trkpt lat="47.81742" lon="7.14281">
        <ele>394</ele>
        <time>2015-04-26T12:53:58Z</time>
      </trkpt>
      <trkpt lat="47.81735" lon="7.14272">
        <ele>394</ele>
        <time>2015-04-26T12:54:03Z</time>
      </trkpt>
      <trkpt lat="47.8173" lon="7.14259">
        <ele>396.9</ele>
        <time>2015-04-26T12:54:12Z</time>
      </trkpt>
      <trkpt lat="47.81725" lon="7.14247">
        <ele>402</ele>
        <time>2015-04-26T12:54:23Z</time>
      </trkpt>
      <trkpt lat="47.81722" lon="7.14234">
        <ele>404.9</ele>
        <time>2015-04-26T12:54:35Z</time>
      </trkpt>
      <trkpt lat="47.81719" lon="7.14214">
        <ele>406</ele>
        <time>2015-04-26T12:54:47Z</time>
      </trkpt>
      <trkpt lat="47.81714" lon="7.14194">
        <ele>408</ele>
        <time>2015-04-26T12:55:05Z</time>
      </trkpt>
      <trkpt lat="47.8171" lon="7.14189">
        <ele>409</ele>
        <time>2015-04-26T12:55:10Z</time>
      </trkpt>
      <trkpt lat="47.81709" lon="7.14175">
        <ele>410.7</ele>
        <time>2015-04-26T12:55:34Z</time>
      </trkpt>
      <trkpt lat="47.81704" lon="7.14162">
        <ele>411</ele>
        <time>2015-04-26T12:55:42Z</time>
      </trkpt>
      <trkpt lat="47.81702" lon="7.14156">
        <ele>411.9</ele>
        <time>2015-04-26T12:55:45Z</time>
      </trkpt>
      <trkpt lat="47.817" lon="7.14148">
        <ele>412</ele>
        <time>2015-04-26T12:55:51Z</time>
      </trkpt>
      <trkpt lat="47.81696" lon="7.14142">
        <ele>412</ele>
        <time>2015-04-26T12:55:56Z</time>
      </trkpt>
      <trkpt lat="47.81693" lon="7.14129">
        <ele>413</ele>
        <time>2015-04-26T12:56:03Z</time>
      </trkpt>
      <trkpt lat="47.81689" lon="7.14122">
        <ele>413</ele>
        <time>2015-04-26T12:56:08Z</time>
      </trkpt>
      <trkpt lat="47.81688" lon="7.14115">
        <ele>413</ele>
        <time>2015-04-26T12:56:14Z</time>
      </trkpt>
      <trkpt lat="47.81683" lon="7.14102">
        <ele>415</ele>
        <time>2015-04-26T12:56:26Z</time>
      </trkpt>
      <trkpt lat="47.81681" lon="7.14095">
        <ele>416.4</ele>
        <time>2015-04-26T12:56:29Z</time>
      </trkpt>
      <trkpt lat="47.81681" lon="7.14088">
        <ele>419.1</ele>
        <time>2015-04-26T12:56:35Z</time>
      </trkpt>
      <trkpt lat="47.81681" lon="7.1408">
        <ele>425.6</ele>
        <time>2015-04-26T12:56:40Z</time>
      </trkpt>
      <trkpt lat="47.81681" lon="7.14073">
        <ele>427</ele>
        <time>2015-04-26T12:56:48Z</time>
      </trkpt>
      <trkpt lat="47.81681" lon="7.14059">
        <ele>428</ele>
        <time>2015-04-26T12:57:00Z</time>
      </trkpt>
      <trkpt lat="47.8168" lon="7.14039">
        <ele>429</ele>
        <time>2015-04-26T12:57:15Z</time>
      </trkpt>
      <trkpt lat="47.81678" lon="7.14031">
        <ele>429.1</ele>
        <time>2015-04-26T12:57:24Z</time>
      </trkpt>
      <trkpt lat="47.81677" lon="7.14024">
        <ele>429.1</ele>
        <time>2015-04-26T12:57:29Z</time>
      </trkpt>
      <trkpt lat="47.81678" lon="7.14011">
        <ele>429</ele>
        <time>2015-04-26T12:57:41Z</time>
      </trkpt>
      <trkpt lat="47.81677" lon="7.14004">
        <ele>429</ele>
        <time>2015-04-26T12:57:48Z</time>
      </trkpt>
      <trkpt lat="47.81678" lon="7.13995">
        <ele>428</ele>
        <time>2015-04-26T12:57:58Z</time>
      </trkpt>
      <trkpt lat="47.81682" lon="7.1399">
        <ele>428</ele>
        <time>2015-04-26T12:58:02Z</time>
      </trkpt>
      <trkpt lat="47.81678" lon="7.13987">
        <ele>429</ele>
        <time>2015-04-26T12:58:14Z</time>
      </trkpt>
      <trkpt lat="47.81675" lon="7.13979">
        <ele>429</ele>
        <time>2015-04-26T12:58:18Z</time>
      </trkpt>
      <trkpt lat="47.81674" lon="7.13973">
        <ele>429</ele>
        <time>2015-04-26T12:58:21Z</time>
      </trkpt>
      <trkpt lat="47.81675" lon="7.13965">
        <ele>432.4</ele>
        <time>2015-04-26T12:58:27Z</time>
      </trkpt>
      <trkpt lat="47.81676" lon="7.13958">
        <ele>434.7</ele>
        <time>2015-04-26T12:58:41Z</time>
      </trkpt>
      <trkpt lat="47.81673" lon="7.13944">
        <ele>435</ele>
        <time>2015-04-26T12:58:48Z</time>
      </trkpt>
      <trkpt lat="47.81674" lon="7.13937">
        <ele>435.7</ele>
        <time>2015-04-26T12:58:53Z</time>
      </trkpt>
      <trkpt lat="47.81672" lon="7.13929">
        <ele>436</ele>
        <time>2015-04-26T12:59:01Z</time>
      </trkpt>
      <trkpt lat="47.81667" lon="7.13916">
        <ele>436.9</ele>
        <time>2015-04-26T12:59:11Z</time>
      </trkpt>
      <trkpt lat="47.81663" lon="7.139">
        <ele>438</ele>
        <time>2015-04-26T12:59:23Z</time>
      </trkpt>
      <trkpt lat="47.81658" lon="7.13894">
        <ele>438.1</ele>
        <time>2015-04-26T12:59:30Z</time>
      </trkpt>
      <trkpt lat="47.81655" lon="7.13881">
        <ele>438.4</ele>
        <time>2015-04-26T12:59:41Z</time>
      </trkpt>
      <trkpt lat="47.81651" lon="7.13876">
        <ele>438</ele>
        <time>2015-04-26T12:59:51Z</time>
      </trkpt>
      <trkpt lat="47.81647" lon="7.13872">
        <ele>436</ele>
        <time>2015-04-26T12:59:58Z</time>
      </trkpt>
      <trkpt lat="47.81643" lon="7.13868">
        <ele>436</ele>
        <time>2015-04-26T13:00:06Z</time>
      </trkpt>
      <trkpt lat="47.81641" lon="7.13862">
        <ele>436</ele>
        <time>2015-04-26T13:00:12Z</time>
      </trkpt>
      <trkpt lat="47.81635" lon="7.1385">
        <ele>436</ele>
        <time>2015-04-26T13:00:23Z</time>
      </trkpt>
      <trkpt lat="47.81625" lon="7.13846">
        <ele>436</ele>
        <time>2015-04-26T13:00:29Z</time>
      </trkpt>
      <trkpt lat="47.81616" lon="7.13844">
        <ele>451.7</ele>
        <time>2015-04-26T13:00:53Z</time>
      </trkpt>
      <trkpt lat="47.81618" lon="7.1385">
        <ele>451.7</ele>
        <time>2015-04-26T13:00:54Z</time>
      </trkpt>
      <trkpt lat="47.81614" lon="7.13844">
        <ele>453</ele>
        <time>2015-04-26T13:01:08Z</time>
      </trkpt>
      <trkpt lat="47.8161" lon="7.13836">
        <ele>453</ele>
        <time>2015-04-26T13:01:12Z</time>
      </trkpt>
      <trkpt lat="47.81608" lon="7.13829">
        <ele>453.7</ele>
        <time>2015-04-26T13:01:16Z</time>
      </trkpt>
      <trkpt lat="47.81603" lon="7.13825">
        <ele>453.7</ele>
        <time>2015-04-26T13:01:19Z</time>
      </trkpt>
      <trkpt lat="47.81599" lon="7.1382">
        <ele>454.7</ele>
        <time>2015-04-26T13:01:22Z</time>
      </trkpt>
      <trkpt lat="47.81595" lon="7.13814">
        <ele>455</ele>
        <time>2015-04-26T13:01:27Z</time>
      </trkpt>
      <trkpt lat="47.81588" lon="7.13805">
        <ele>455</ele>
        <time>2015-04-26T13:01:37Z</time>
      </trkpt>
      <trkpt lat="47.81584" lon="7.13793">
        <ele>455</ele>
        <time>2015-04-26T13:01:52Z</time>
      </trkpt>
      <trkpt lat="47.81578" lon="7.13786">
        <ele>451.5</ele>
        <time>2015-04-26T13:02:04Z</time>
      </trkpt>
      <trkpt lat="47.81574" lon="7.13782">
        <ele>451.1</ele>
        <time>2015-04-26T13:02:09Z</time>
      </trkpt>
      <trkpt lat="47.81572" lon="7.13776">
        <ele>451</ele>
        <time>2015-04-26T13:02:15Z</time>
      </trkpt>
      <trkpt lat="47.81565" lon="7.13769">
        <ele>451</ele>
        <time>2015-04-26T13:02:23Z</time>
      </trkpt>
      <trkpt lat="47.81557" lon="7.13765">
        <ele>451.9</ele>
        <time>2015-04-26T13:02:38Z</time>
      </trkpt>
      <trkpt lat="47.81553" lon="7.13761">
        <ele>451.9</ele>
        <time>2015-04-26T13:02:39Z</time>
      </trkpt>
      <trkpt lat="47.81548" lon="7.13759">
        <ele>460.7</ele>
        <time>2015-04-26T13:03:04Z</time>
      </trkpt>
      <trkpt lat="47.81543" lon="7.13761">
        <ele>460.9</ele>
        <time>2015-04-26T13:03:09Z</time>
      </trkpt>
      <trkpt lat="47.81541" lon="7.13755">
        <ele>461</ele>
        <time>2015-04-26T13:03:16Z</time>
      </trkpt>
      <trkpt lat="47.81542" lon="7.13748">
        <ele>461</ele>
        <time>2015-04-26T13:03:33Z</time>
      </trkpt>
      <trkpt lat="47.81544" lon="7.13755">
        <ele>461</ele>
        <time>2015-04-26T13:03:34Z</time>
      </trkpt>
      <trkpt lat="47.8154" lon="7.13759">
        <ele>461</ele>
        <time>2015-04-26T13:03:39Z</time>
      </trkpt>
      <trkpt lat="47.81535" lon="7.13757">
        <ele>460.5</ele>
        <time>2015-04-26T13:03:43Z</time>
      </trkpt>
      <trkpt lat="47.81531" lon="7.13744">
        <ele>457.2</ele>
        <time>2015-04-26T13:03:53Z</time>
      </trkpt>
      <trkpt lat="47.81527" lon="7.13739">
        <ele>455.6</ele>
        <time>2015-04-26T13:03:57Z</time>
      </trkpt>
      <trkpt lat="47.81519" lon="7.13727">
        <ele>454.1</ele>
        <time>2015-04-26T13:04:06Z</time>
      </trkpt>
      <trkpt lat="47.81516" lon="7.13722">
        <ele>453.5</ele>
        <time>2015-04-26T13:04:11Z</time>
      </trkpt>
      <trkpt lat="47.81513" lon="7.13716">
        <ele>452.5</ele>
        <time>2015-04-26T13:04:21Z</time>
      </trkpt>
      <trkpt lat="47.81509" lon="7.13712">
        <ele>451.5</ele>
        <time>2015-04-26T13:04:26Z</time>
      </trkpt>
      <trkpt lat="47.81504" lon="7.13708">
        <ele>451</ele>
        <time>2015-04-26T13:04:31Z</time>
      </trkpt>
      <trkpt lat="47.81497" lon="7.137">
        <ele>450.5</ele>
        <time>2015-04-26T13:04:39Z</time>
      </trkpt>
      <trkpt lat="47.81493" lon="7.13696">
        <ele>450</ele>
        <time>2015-04-26T13:04:44Z</time>
      </trkpt>
      <trkpt lat="47.81487" lon="7.13685">
        <ele>450</ele>
        <time>2015-04-26T13:04:51Z</time>
      </trkpt>
      <trkpt lat="47.81484" lon="7.13678">
        <ele>450</ele>
        <time>2015-04-26T13:04:56Z</time>
      </trkpt>
      <trkpt lat="47.81476" lon="7.1367">
        <ele>449.2</ele>
        <time>2015-04-26T13:05:07Z</time>
      </trkpt>
      <trkpt lat="47.81469" lon="7.1366">
        <ele>449</ele>
        <time>2015-04-26T13:05:15Z</time>
      </trkpt>
      <trkpt lat="47.81464" lon="7.13655">
        <ele>448.1</ele>
        <time>2015-04-26T13:05:19Z</time>
      </trkpt>
      <trkpt lat="47.81461" lon="7.1365">
        <ele>448.1</ele>
        <time>2015-04-26T13:05:24Z</time>
      </trkpt>
      <trkpt lat="47.81458" lon="7.13644">
        <ele>447.5</ele>
        <time>2015-04-26T13:05:29Z</time>
      </trkpt>
      <trkpt lat="47.81452" lon="7.1364">
        <ele>447</ele>
        <time>2015-04-26T13:05:35Z</time>
      </trkpt>
      <trkpt lat="47.81449" lon="7.13634">
        <ele>447</ele>
        <time>2015-04-26T13:05:39Z</time>
      </trkpt>
      <trkpt lat="47.81446" lon="7.13628">
        <ele>447</ele>
        <time>2015-04-26T13:05:43Z</time>
      </trkpt>
      <trkpt lat="47.81443" lon="7.13622">
        <ele>446.1</ele>
        <time>2015-04-26T13:05:49Z</time>
      </trkpt>
      <trkpt lat="47.81438" lon="7.13617">
        <ele>443.5</ele>
        <time>2015-04-26T13:05:55Z</time>
      </trkpt>
      <trkpt lat="47.81435" lon="7.13611">
        <ele>442</ele>
        <time>2015-04-26T13:06:01Z</time>
      </trkpt>
      <trkpt lat="47.81429" lon="7.13601">
        <ele>441.5</ele>
        <time>2015-04-26T13:06:09Z</time>
      </trkpt>
      <trkpt lat="47.81425" lon="7.13598">
        <ele>439.6</ele>
        <time>2015-04-26T13:06:14Z</time>
      </trkpt>
      <trkpt lat="47.8142" lon="7.13597">
        <ele>439.6</ele>
        <time>2015-04-26T13:06:18Z</time>
      </trkpt>
      <trkpt lat="47.81414" lon="7.13595">
        <ele>439</ele>
        <time>2015-04-26T13:06:25Z</time>
      </trkpt>
      <trkpt lat="47.81409" lon="7.13596">
        <ele>439</ele>
        <time>2015-04-26T13:06:33Z</time>
      </trkpt>
      <trkpt lat="47.81404" lon="7.13598">
        <ele>440.2</ele>
        <time>2015-04-26T13:06:39Z</time>
      </trkpt>
      <trkpt lat="47.81399" lon="7.13595">
        <ele>441</ele>
        <time>2015-04-26T13:06:46Z</time>
      </trkpt>
      <trkpt lat="47.8139" lon="7.136">
        <ele>440.5</ele>
        <time>2015-04-26T13:06:57Z</time>
      </trkpt>
      <trkpt lat="47.81385" lon="7.13597">
        <ele>439.6</ele>
        <time>2015-04-26T13:07:02Z</time>
      </trkpt>
      <trkpt lat="47.81381" lon="7.13594">
        <ele>438.3</ele>
        <time>2015-04-26T13:07:08Z</time>
      </trkpt>
      <trkpt lat="47.81376" lon="7.13596">
        <ele>437</ele>
        <time>2015-04-26T13:07:12Z</time>
      </trkpt>
      <trkpt lat="47.81371" lon="7.13599">
        <ele>437</ele>
        <time>2015-04-26T13:07:19Z</time>
      </trkpt>
      <trkpt lat="47.81366" lon="7.136">
        <ele>436.5</ele>
        <time>2015-04-26T13:07:24Z</time>
      </trkpt>
      <trkpt lat="47.81361" lon="7.13599">
        <ele>435.5</ele>
        <time>2015-04-26T13:07:30Z</time>
      </trkpt>
      <trkpt lat="47.81353" lon="7.13597">
        <ele>434</ele>
        <time>2015-04-26T13:07:40Z</time>
      </trkpt>
      <trkpt lat="47.81346" lon="7.13592">
        <ele>433</ele>
        <time>2015-04-26T13:07:48Z</time>
      </trkpt>
      <trkpt lat="47.81342" lon="7.13594">
        <ele>430.3</ele>
        <time>2015-04-26T13:07:57Z</time>
      </trkpt>
      <trkpt lat="47.81337" lon="7.13593">
        <ele>430</ele>
        <time>2015-04-26T13:08:04Z</time>
      </trkpt>
      <trkpt lat="47.81327" lon="7.13597">
        <ele>427.3</ele>
        <time>2015-04-26T13:08:17Z</time>
      </trkpt>
      <trkpt lat="47.81323" lon="7.136">
        <ele>427</ele>
        <time>2015-04-26T13:08:27Z</time>
      </trkpt>
      <trkpt lat="47.81318" lon="7.13604">
        <ele>426</ele>
        <time>2015-04-26T13:08:36Z</time>
      </trkpt>
      <trkpt lat="47.81314" lon="7.13605">
        <ele>423.6</ele>
        <time>2015-04-26T13:08:42Z</time>
      </trkpt>
      <trkpt lat="47.81309" lon="7.13607">
        <ele>420.1</ele>
        <time>2015-04-26T13:08:47Z</time>
      </trkpt>
      <trkpt lat="47.81305" lon="7.1361">
        <ele>417.5</ele>
        <time>2015-04-26T13:08:52Z</time>
      </trkpt>
      <trkpt lat="47.813" lon="7.13613">
        <ele>416.3</ele>
        <time>2015-04-26T13:08:59Z</time>
      </trkpt>
      <trkpt lat="47.81296" lon="7.13614">
        <ele>411.7</ele>
        <time>2015-04-26T13:09:05Z</time>
      </trkpt>
      <trkpt lat="47.81291" lon="7.13617">
        <ele>405.6</ele>
        <time>2015-04-26T13:09:14Z</time>
      </trkpt>
      <trkpt lat="47.81285" lon="7.13621">
        <ele>403.1</ele>
        <time>2015-04-26T13:09:17Z</time>
      </trkpt>
      <trkpt lat="47.81281" lon="7.13627">
        <ele>403.1</ele>
        <time>2015-04-26T13:09:19Z</time>
      </trkpt>
      <trkpt lat="47.81278" lon="7.13632">
        <ele>397.6</ele>
        <time>2015-04-26T13:09:27Z</time>
      </trkpt>
      <trkpt lat="47.81275" lon="7.13639">
        <ele>393.1</ele>
        <time>2015-04-26T13:09:36Z</time>
      </trkpt>
      <trkpt lat="47.8127" lon="7.13643">
        <ele>392</ele>
        <time>2015-04-26T13:09:45Z</time>
      </trkpt>
      <trkpt lat="47.81266" lon="7.13652">
        <ele>388.4</ele>
        <time>2015-04-26T13:09:51Z</time>
      </trkpt>
      <trkpt lat="47.81266" lon="7.13661">
        <ele>387</ele>
        <time>2015-04-26T13:09:59Z</time>
      </trkpt>
      <trkpt lat="47.81265" lon="7.13672">
        <ele>387</ele>
        <time>2015-04-26T13:10:07Z</time>
      </trkpt>
      <trkpt lat="47.81263" lon="7.13678">
        <ele>386.5</ele>
        <time>2015-04-26T13:10:11Z</time>
      </trkpt>
      <trkpt lat="47.81259" lon="7.13691">
        <ele>386.9</ele>
        <time>2015-04-26T13:10:18Z</time>
      </trkpt>
      <trkpt lat="47.81255" lon="7.13704">
        <ele>387</ele>
        <time>2015-04-26T13:10:27Z</time>
      </trkpt>
      <trkpt lat="47.81252" lon="7.1371">
        <ele>388</ele>
        <time>2015-04-26T13:10:30Z</time>
      </trkpt>
      <trkpt lat="47.81251" lon="7.13717">
        <ele>388</ele>
        <time>2015-04-26T13:10:33Z</time>
      </trkpt>
      <trkpt lat="47.81249" lon="7.13732">
        <ele>388</ele>
        <time>2015-04-26T13:10:41Z</time>
      </trkpt>
      <trkpt lat="47.81246" lon="7.13745">
        <ele>387.8</ele>
        <time>2015-04-26T13:10:49Z</time>
      </trkpt>
      <trkpt lat="47.81246" lon="7.13752">
        <ele>388</ele>
        <time>2015-04-26T13:10:53Z</time>
      </trkpt>
      <trkpt lat="47.81244" lon="7.13759">
        <ele>388</ele>
        <time>2015-04-26T13:10:59Z</time>
      </trkpt>
      <trkpt lat="47.81242" lon="7.13765">
        <ele>388</ele>
        <time>2015-04-26T13:11:03Z</time>
      </trkpt>
      <trkpt lat="47.81242" lon="7.13773">
        <ele>388</ele>
        <time>2015-04-26T13:11:09Z</time>
      </trkpt>
      <trkpt lat="47.81241" lon="7.13781">
        <ele>387</ele>
        <time>2015-04-26T13:11:16Z</time>
      </trkpt>
      <trkpt lat="47.8124" lon="7.13788">
        <ele>386.1</ele>
        <time>2015-04-26T13:11:21Z</time>
      </trkpt>
      <trkpt lat="47.81233" lon="7.13807">
        <ele>385</ele>
        <time>2015-04-26T13:11:31Z</time>
      </trkpt>
      <trkpt lat="47.8123" lon="7.13814">
        <ele>385.9</ele>
        <time>2015-04-26T13:11:34Z</time>
      </trkpt>
      <trkpt lat="47.81232" lon="7.13821">
        <ele>386</ele>
        <time>2015-04-26T13:11:41Z</time>
      </trkpt>
      <trkpt lat="47.81229" lon="7.13827">
        <ele>386</ele>
        <time>2015-04-26T13:11:46Z</time>
      </trkpt>
      <trkpt lat="47.81224" lon="7.13846">
        <ele>385.1</ele>
        <time>2015-04-26T13:11:57Z</time>
      </trkpt>
      <trkpt lat="47.81221" lon="7.1386">
        <ele>385</ele>
        <time>2015-04-26T13:12:07Z</time>
      </trkpt>
      <trkpt lat="47.81215" lon="7.13878">
        <ele>385</ele>
        <time>2015-04-26T13:12:16Z</time>
      </trkpt>
      <trkpt lat="47.8121" lon="7.13892">
        <ele>385.9</ele>
        <time>2015-04-26T13:12:21Z</time>
      </trkpt>
      <trkpt lat="47.81207" lon="7.13899">
        <ele>386</ele>
        <time>2015-04-26T13:12:24Z</time>
      </trkpt>
      <trkpt lat="47.81202" lon="7.13904">
        <ele>386</ele>
        <time>2015-04-26T13:12:28Z</time>
      </trkpt>
      <trkpt lat="47.812" lon="7.13912">
        <ele>386</ele>
        <time>2015-04-26T13:12:36Z</time>
      </trkpt>
      <trkpt lat="47.812" lon="7.13919">
        <ele>388.3</ele>
        <time>2015-04-26T13:12:41Z</time>
      </trkpt>
      <trkpt lat="47.81198" lon="7.13927">
        <ele>394.5</ele>
        <time>2015-04-26T13:12:45Z</time>
      </trkpt>
      <trkpt lat="47.81197" lon="7.13935">
        <ele>394.9</ele>
        <time>2015-04-26T13:12:50Z</time>
      </trkpt>
      <trkpt lat="47.81196" lon="7.13942">
        <ele>395.9</ele>
        <time>2015-04-26T13:12:54Z</time>
      </trkpt>
      <trkpt lat="47.81196" lon="7.1395">
        <ele>396</ele>
        <time>2015-04-26T13:13:00Z</time>
      </trkpt>
      <trkpt lat="47.81195" lon="7.13956">
        <ele>396</ele>
        <time>2015-04-26T13:13:05Z</time>
      </trkpt>
      <trkpt lat="47.81192" lon="7.13964">
        <ele>396</ele>
        <time>2015-04-26T13:13:11Z</time>
      </trkpt>
      <trkpt lat="47.8119" lon="7.13978">
        <ele>395.1</ele>
        <time>2015-04-26T13:13:19Z</time>
      </trkpt>
      <trkpt lat="47.8119" lon="7.13986">
        <ele>395.1</ele>
        <time>2015-04-26T13:13:23Z</time>
      </trkpt>
      <trkpt lat="47.81186" lon="7.14001">
        <ele>392.3</ele>
        <time>2015-04-26T13:13:30Z</time>
      </trkpt>
      <trkpt lat="47.81183" lon="7.14019">
        <ele>391.5</ele>
        <time>2015-04-26T13:13:37Z</time>
      </trkpt>
      <trkpt lat="47.81183" lon="7.14012">
        <ele>390.3</ele>
        <time>2015-04-26T13:13:42Z</time>
      </trkpt>
      <trkpt lat="47.81183" lon="7.1402">
        <ele>390</ele>
        <time>2015-04-26T13:13:50Z</time>
      </trkpt>
      <trkpt lat="47.81184" lon="7.14029">
        <ele>389</ele>
        <time>2015-04-26T13:13:55Z</time>
      </trkpt>
      <trkpt lat="47.81183" lon="7.14037">
        <ele>389</ele>
        <time>2015-04-26T13:14:03Z</time>
      </trkpt>
      <trkpt lat="47.81183" lon="7.14047">
        <ele>389</ele>
        <time>2015-04-26T13:14:06Z</time>
      </trkpt>
      <trkpt lat="47.81182" lon="7.14055">
        <ele>389</ele>
        <time>2015-04-26T13:14:09Z</time>
      </trkpt>
      <trkpt lat="47.81182" lon="7.14064">
        <ele>390</ele>
        <time>2015-04-26T13:14:17Z</time>
      </trkpt>
      <trkpt lat="47.81185" lon="7.14069">
        <ele>390</ele>
        <time>2015-04-26T13:14:25Z</time>
      </trkpt>
      <trkpt lat="47.81187" lon="7.1409">
        <ele>390</ele>
        <time>2015-04-26T13:14:30Z</time>
      </trkpt>
      <trkpt lat="47.81189" lon="7.14106">
        <ele>389.1</ele>
        <time>2015-04-26T13:14:35Z</time>
      </trkpt>
      <trkpt lat="47.81185" lon="7.14111">
        <ele>389</ele>
        <time>2015-04-26T13:14:39Z</time>
      </trkpt>
      <trkpt lat="47.81181" lon="7.14114">
        <ele>390.7</ele>
        <time>2015-04-26T13:14:45Z</time>
      </trkpt>
      <trkpt lat="47.81181" lon="7.14122">
        <ele>391</ele>
        <time>2015-04-26T13:14:52Z</time>
      </trkpt>
      <trkpt lat="47.81183" lon="7.1413">
        <ele>391</ele>
        <time>2015-04-26T13:14:56Z</time>
      </trkpt>
      <trkpt lat="47.81185" lon="7.1415">
        <ele>390.2</ele>
        <time>2015-04-26T13:15:08Z</time>
      </trkpt>
      <trkpt lat="47.81184" lon="7.14164">
        <ele>390</ele>
        <time>2015-04-26T13:15:14Z</time>
      </trkpt>
      <trkpt lat="47.81185" lon="7.14171">
        <ele>390</ele>
        <time>2015-04-26T13:15:21Z</time>
      </trkpt>
      <trkpt lat="47.81188" lon="7.14178">
        <ele>390</ele>
        <time>2015-04-26T13:15:26Z</time>
      </trkpt>
      <trkpt lat="47.81188" lon="7.14185">
        <ele>390</ele>
        <time>2015-04-26T13:15:30Z</time>
      </trkpt>
      <trkpt lat="47.81191" lon="7.14191">
        <ele>391</ele>
        <time>2015-04-26T13:15:49Z</time>
      </trkpt>
      <trkpt lat="47.81192" lon="7.14198">
        <ele>391</ele>
        <time>2015-04-26T13:15:51Z</time>
      </trkpt>
      <trkpt lat="47.81199" lon="7.14208">
        <ele>389.1</ele>
        <time>2015-04-26T13:16:00Z</time>
      </trkpt>
      <trkpt lat="47.812" lon="7.14217">
        <ele>389</ele>
        <time>2015-04-26T13:16:05Z</time>
      </trkpt>
      <trkpt lat="47.81198" lon="7.14229">
        <ele>389</ele>
        <time>2015-04-26T13:16:11Z</time>
      </trkpt>
      <trkpt lat="47.81199" lon="7.14236">
        <ele>389</ele>
        <time>2015-04-26T13:16:15Z</time>
      </trkpt>
      <trkpt lat="47.812" lon="7.14244">
        <ele>389</ele>
        <time>2015-04-26T13:16:20Z</time>
      </trkpt>
      <trkpt lat="47.81203" lon="7.14257">
        <ele>389.1</ele>
        <time>2015-04-26T13:16:27Z</time>
      </trkpt>
      <trkpt lat="47.81203" lon="7.14264">
        <ele>389</ele>
        <time>2015-04-26T13:16:31Z</time>
      </trkpt>
      <trkpt lat="47.81205" lon="7.14273">
        <ele>388</ele>
        <time>2015-04-26T13:16:38Z</time>
      </trkpt>
      <trkpt lat="47.81205" lon="7.1428">
        <ele>388</ele>
        <time>2015-04-26T13:16:41Z</time>
      </trkpt>
      <trkpt lat="47.81209" lon="7.14292">
        <ele>387</ele>
        <time>2015-04-26T13:16:50Z</time>
      </trkpt>
      <trkpt lat="47.81212" lon="7.14297">
        <ele>387</ele>
        <time>2015-04-26T13:16:54Z</time>
      </trkpt>
      <trkpt lat="47.81216" lon="7.14303">
        <ele>386</ele>
        <time>2015-04-26T13:16:58Z</time>
      </trkpt>
      <trkpt lat="47.81222" lon="7.14313">
        <ele>383.1</ele>
        <time>2015-04-26T13:17:07Z</time>
      </trkpt>
      <trkpt lat="47.81228" lon="7.14322">
        <ele>383</ele>
        <time>2015-04-26T13:17:13Z</time>
      </trkpt>
      <trkpt lat="47.81231" lon="7.14327">
        <ele>383</ele>
        <time>2015-04-26T13:17:16Z</time>
      </trkpt>
      <trkpt lat="47.81232" lon="7.14337">
        <ele>383</ele>
        <time>2015-04-26T13:17:19Z</time>
      </trkpt>
      <trkpt lat="47.81234" lon="7.14345">
        <ele>383</ele>
        <time>2015-04-26T13:17:24Z</time>
      </trkpt>
      <trkpt lat="47.81243" lon="7.14358">
        <ele>383</ele>
        <time>2015-04-26T13:17:33Z</time>
      </trkpt>
      <trkpt lat="47.81245" lon="7.14371">
        <ele>383</ele>
        <time>2015-04-26T13:17:42Z</time>
      </trkpt>
      <trkpt lat="47.81242" lon="7.14377">
        <ele>383</ele>
        <time>2015-04-26T13:17:46Z</time>
      </trkpt>
      <trkpt lat="47.81234" lon="7.1438">
        <ele>383</ele>
        <time>2015-04-26T13:17:51Z</time>
      </trkpt>
      <trkpt lat="47.8123" lon="7.14385">
        <ele>383</ele>
        <time>2015-04-26T13:17:54Z</time>
      </trkpt>
      <trkpt lat="47.81225" lon="7.14396">
        <ele>384</ele>
        <time>2015-04-26T13:18:02Z</time>
      </trkpt>
      <trkpt lat="47.81212" lon="7.14405">
        <ele>385</ele>
        <time>2015-04-26T13:18:12Z</time>
      </trkpt>
      <trkpt lat="47.81207" lon="7.14408">
        <ele>385</ele>
        <time>2015-04-26T13:18:15Z</time>
      </trkpt>
      <trkpt lat="47.81202" lon="7.14409">
        <ele>385</ele>
        <time>2015-04-26T13:18:20Z</time>
      </trkpt>
      <trkpt lat="47.81197" lon="7.14412">
        <ele>385</ele>
        <time>2015-04-26T13:18:24Z</time>
      </trkpt>
      <trkpt lat="47.81193" lon="7.14415">
        <ele>385</ele>
        <time>2015-04-26T13:18:29Z</time>
      </trkpt>
      <trkpt lat="47.81188" lon="7.14422">
        <ele>385</ele>
        <time>2015-04-26T13:18:32Z</time>
      </trkpt>
      <trkpt lat="47.81184" lon="7.1443">
        <ele>385</ele>
        <time>2015-04-26T13:18:34Z</time>
      </trkpt>
      <trkpt lat="47.8118" lon="7.14438">
        <ele>385</ele>
        <time>2015-04-26T13:18:39Z</time>
      </trkpt>
      <trkpt lat="47.81175" lon="7.14452">
        <ele>386</ele>
        <time>2015-04-26T13:18:49Z</time>
      </trkpt>
      <trkpt lat="47.81175" lon="7.1446">
        <ele>385.2</ele>
        <time>2015-04-26T13:18:54Z</time>
      </trkpt>
      <trkpt lat="47.81174" lon="7.14468">
        <ele>385</ele>
        <time>2015-04-26T13:18:57Z</time>
      </trkpt>
      <trkpt lat="47.81174" lon="7.14484">
        <ele>384.3</ele>
        <time>2015-04-26T13:19:06Z</time>
      </trkpt>
      <trkpt lat="47.81175" lon="7.14493">
        <ele>384</ele>
        <time>2015-04-26T13:19:10Z</time>
      </trkpt>
      <trkpt lat="47.81176" lon="7.14502">
        <ele>383.5</ele>
        <time>2015-04-26T13:19:14Z</time>
      </trkpt>
      <trkpt lat="47.81177" lon="7.14515">
        <ele>382.3</ele>
        <time>2015-04-26T13:19:19Z</time>
      </trkpt>
      <trkpt lat="47.81178" lon="7.14523">
        <ele>381</ele>
        <time>2015-04-26T13:19:25Z</time>
      </trkpt>
      <trkpt lat="47.81185" lon="7.14535">
        <ele>381</ele>
        <time>2015-04-26T13:19:30Z</time>
      </trkpt>
      <trkpt lat="47.81186" lon="7.14544">
        <ele>381</ele>
        <time>2015-04-26T13:19:35Z</time>
      </trkpt>
      <trkpt lat="47.81189" lon="7.14557">
        <ele>379.1</ele>
        <time>2015-04-26T13:19:43Z</time>
      </trkpt>
      <trkpt lat="47.81188" lon="7.14566">
        <ele>379</ele>
        <time>2015-04-26T13:19:48Z</time>
      </trkpt>
      <trkpt lat="47.81188" lon="7.14573">
        <ele>379</ele>
        <time>2015-04-26T13:19:51Z</time>
      </trkpt>
      <trkpt lat="47.81195" lon="7.1459">
        <ele>379</ele>
        <time>2015-04-26T13:20:02Z</time>
      </trkpt>
      <trkpt lat="47.81197" lon="7.14604">
        <ele>378</ele>
        <time>2015-04-26T13:20:08Z</time>
      </trkpt>
      <trkpt lat="47.81203" lon="7.14614">
        <ele>378</ele>
        <time>2015-04-26T13:20:14Z</time>
      </trkpt>
      <trkpt lat="47.81205" lon="7.14621">
        <ele>378</ele>
        <time>2015-04-26T13:20:18Z</time>
      </trkpt>
      <trkpt lat="47.81206" lon="7.1463">
        <ele>378</ele>
        <time>2015-04-26T13:20:22Z</time>
      </trkpt>
      <trkpt lat="47.81209" lon="7.14637">
        <ele>378</ele>
        <time>2015-04-26T13:20:27Z</time>
      </trkpt>
      <trkpt lat="47.81213" lon="7.1464">
        <ele>377.1</ele>
        <time>2015-04-26T13:20:31Z</time>
      </trkpt>
      <trkpt lat="47.81215" lon="7.14649">
        <ele>377.1</ele>
        <time>2015-04-26T13:20:35Z</time>
      </trkpt>
      <trkpt lat="47.8122" lon="7.14661">
        <ele>377</ele>
        <time>2015-04-26T13:20:42Z</time>
      </trkpt>
      <trkpt lat="47.81221" lon="7.14669">
        <ele>377</ele>
        <time>2015-04-26T13:20:45Z</time>
      </trkpt>
      <trkpt lat="47.81223" lon="7.14676">
        <ele>376.2</ele>
        <time>2015-04-26T13:20:50Z</time>
      </trkpt>
      <trkpt lat="47.81229" lon="7.14687">
        <ele>374.1</ele>
        <time>2015-04-26T13:20:57Z</time>
      </trkpt>
      <trkpt lat="47.81233" lon="7.1469">
        <ele>374</ele>
        <time>2015-04-26T13:21:00Z</time>
      </trkpt>
      <trkpt lat="47.81237" lon="7.14695">
        <ele>373.5</ele>
        <time>2015-04-26T13:21:03Z</time>
      </trkpt>
      <trkpt lat="47.81238" lon="7.14704">
        <ele>373</ele>
        <time>2015-04-26T13:21:08Z</time>
      </trkpt>
      <trkpt lat="47.8124" lon="7.14711">
        <ele>373</ele>
        <time>2015-04-26T13:21:11Z</time>
      </trkpt>
      <trkpt lat="47.8124" lon="7.14726">
        <ele>372.3</ele>
        <time>2015-04-26T13:21:15Z</time>
      </trkpt>
      <trkpt lat="47.81242" lon="7.14733">
        <ele>372</ele>
        <time>2015-04-26T13:21:19Z</time>
      </trkpt>
      <trkpt lat="47.81251" lon="7.14742">
        <ele>371.5</ele>
        <time>2015-04-26T13:21:26Z</time>
      </trkpt>
      <trkpt lat="47.81254" lon="7.14749">
        <ele>369.2</ele>
        <time>2015-04-26T13:21:29Z</time>
      </trkpt>
      <trkpt lat="47.81256" lon="7.14756">
        <ele>368</ele>
        <time>2015-04-26T13:21:33Z</time>
      </trkpt>
      <trkpt lat="47.81261" lon="7.14769">
        <ele>368</ele>
        <time>2015-04-26T13:21:40Z</time>
      </trkpt>
      <trkpt lat="47.81261" lon="7.14784">
        <ele>368</ele>
        <time>2015-04-26T13:21:46Z</time>
      </trkpt>
      <trkpt lat="47.81263" lon="7.14791">
        <ele>368</ele>
        <time>2015-04-26T13:21:51Z</time>
      </trkpt>
      <trkpt lat="47.81267" lon="7.14797">
        <ele>368</ele>
        <time>2015-04-26T13:21:55Z</time>
      </trkpt>
      <trkpt lat="47.81273" lon="7.14806">
        <ele>368</ele>
        <time>2015-04-26T13:22:02Z</time>
      </trkpt>
      <trkpt lat="47.81278" lon="7.14818">
        <ele>368</ele>
        <time>2015-04-26T13:22:07Z</time>
      </trkpt>
      <trkpt lat="47.8128" lon="7.14825">
        <ele>367</ele>
        <time>2015-04-26T13:22:11Z</time>
      </trkpt>
      <trkpt lat="47.81285" lon="7.1483">
        <ele>367</ele>
        <time>2015-04-26T13:22:16Z</time>
      </trkpt>
      <trkpt lat="47.81291" lon="7.14842">
        <ele>367</ele>
        <time>2015-04-26T13:22:22Z</time>
      </trkpt>
      <trkpt lat="47.81292" lon="7.14863">
        <ele>367</ele>
        <time>2015-04-26T13:22:30Z</time>
      </trkpt>
      <trkpt lat="47.81292" lon="7.14871">
        <ele>367</ele>
        <time>2015-04-26T13:22:35Z</time>
      </trkpt>
      <trkpt lat="47.81293" lon="7.14884">
        <ele>366.1</ele>
        <time>2015-04-26T13:22:42Z</time>
      </trkpt>
      <trkpt lat="47.81295" lon="7.14891">
        <ele>366.1</ele>
        <time>2015-04-26T13:22:46Z</time>
      </trkpt>
      <trkpt lat="47.81297" lon="7.14897">
        <ele>366</ele>
        <time>2015-04-26T13:22:49Z</time>
      </trkpt>
      <trkpt lat="47.81301" lon="7.14901">
        <ele>366</ele>
        <time>2015-04-26T13:22:51Z</time>
      </trkpt>
      <trkpt lat="47.81306" lon="7.14906">
        <ele>365.5</ele>
        <time>2015-04-26T13:22:54Z</time>
      </trkpt>
      <trkpt lat="47.81309" lon="7.14911">
        <ele>365.5</ele>
        <time>2015-04-26T13:22:59Z</time>
      </trkpt>
      <trkpt lat="47.81316" lon="7.14919">
        <ele>364.5</ele>
        <time>2015-04-26T13:23:05Z</time>
      </trkpt>
      <trkpt lat="47.81318" lon="7.14926">
        <ele>364.5</ele>
        <time>2015-04-26T13:23:09Z</time>
      </trkpt>
      <trkpt lat="47.8132" lon="7.14946">
        <ele>364.8</ele>
        <time>2015-04-26T13:23:17Z</time>
      </trkpt>
      <trkpt lat="47.81325" lon="7.14958">
        <ele>364.1</ele>
        <time>2015-04-26T13:23:23Z</time>
      </trkpt>
      <trkpt lat="47.81326" lon="7.14966">
        <ele>364</ele>
        <time>2015-04-26T13:23:28Z</time>
      </trkpt>
      <trkpt lat="47.81338" lon="7.14978">
        <ele>364.9</ele>
        <time>2015-04-26T13:23:38Z</time>
      </trkpt>
      <trkpt lat="47.81343" lon="7.14995">
        <ele>365</ele>
        <time>2015-04-26T13:23:45Z</time>
      </trkpt>
      <trkpt lat="47.81346" lon="7.15002">
        <ele>365</ele>
        <time>2015-04-26T13:23:50Z</time>
      </trkpt>
      <trkpt lat="47.81352" lon="7.15015">
        <ele>365</ele>
        <time>2015-04-26T13:23:57Z</time>
      </trkpt>
      <trkpt lat="47.81356" lon="7.15018">
        <ele>365</ele>
        <time>2015-04-26T13:24:01Z</time>
      </trkpt>
      <trkpt lat="47.81358" lon="7.15026">
        <ele>365</ele>
        <time>2015-04-26T13:24:04Z</time>
      </trkpt>
      <trkpt lat="47.81358" lon="7.15042">
        <ele>365</ele>
        <time>2015-04-26T13:24:10Z</time>
      </trkpt>
      <trkpt lat="47.8136" lon="7.1505">
        <ele>365</ele>
        <time>2015-04-26T13:24:18Z</time>
      </trkpt>
      <trkpt lat="47.81351" lon="7.15066">
        <ele>364.1</ele>
        <time>2015-04-26T13:24:32Z</time>
      </trkpt>
      <trkpt lat="47.81348" lon="7.15081">
        <ele>363.1</ele>
        <time>2015-04-26T13:24:39Z</time>
      </trkpt>
      <trkpt lat="47.81347" lon="7.15088">
        <ele>361.1</ele>
        <time>2015-04-26T13:24:41Z</time>
      </trkpt>
      <trkpt lat="47.81345" lon="7.15095">
        <ele>361.1</ele>
        <time>2015-04-26T13:24:44Z</time>
      </trkpt>
      <trkpt lat="47.81343" lon="7.15109">
        <ele>361</ele>
        <time>2015-04-26T13:24:49Z</time>
      </trkpt>
      <trkpt lat="47.81342" lon="7.15123">
        <ele>361</ele>
        <time>2015-04-26T13:24:56Z</time>
      </trkpt>
      <trkpt lat="47.81341" lon="7.15131">
        <ele>361</ele>
        <time>2015-04-26T13:25:01Z</time>
      </trkpt>
      <trkpt lat="47.8134" lon="7.15138">
        <ele>361</ele>
        <time>2015-04-26T13:25:05Z</time>
      </trkpt>
      <trkpt lat="47.8134" lon="7.15158">
        <ele>361</ele>
        <time>2015-04-26T13:25:14Z</time>
      </trkpt>
      <trkpt lat="47.81341" lon="7.15165">
        <ele>361</ele>
        <time>2015-04-26T13:25:16Z</time>
      </trkpt>
      <trkpt lat="47.81341" lon="7.15173">
        <ele>361</ele>
        <time>2015-04-26T13:25:20Z</time>
      </trkpt>
      <trkpt lat="47.81339" lon="7.15193">
        <ele>361</ele>
        <time>2015-04-26T13:25:30Z</time>
      </trkpt>
      <trkpt lat="47.81337" lon="7.152">
        <ele>361.9</ele>
        <time>2015-04-26T13:25:34Z</time>
      </trkpt>
      <trkpt lat="47.81337" lon="7.15206">
        <ele>362.5</ele>
        <time>2015-04-26T13:25:39Z</time>
      </trkpt>
      <trkpt lat="47.81336" lon="7.15213">
        <ele>362.5</ele>
        <time>2015-04-26T13:25:42Z</time>
      </trkpt>
      <trkpt lat="47.81335" lon="7.15221">
        <ele>363</ele>
        <time>2015-04-26T13:25:46Z</time>
      </trkpt>
      <trkpt lat="47.81336" lon="7.15229">
        <ele>363</ele>
        <time>2015-04-26T13:25:50Z</time>
      </trkpt>
      <trkpt lat="47.81336" lon="7.15236">
        <ele>363</ele>
        <time>2015-04-26T13:25:53Z</time>
      </trkpt>
      <trkpt lat="47.81339" lon="7.15249">
        <ele>363</ele>
        <time>2015-04-26T13:26:00Z</time>
      </trkpt>
      <trkpt lat="47.81338" lon="7.1527">
        <ele>363</ele>
        <time>2015-04-26T13:26:08Z</time>
      </trkpt>
      <trkpt lat="47.81338" lon="7.15277">
        <ele>362.2</ele>
        <time>2015-04-26T13:26:15Z</time>
      </trkpt>
      <trkpt lat="47.81338" lon="7.15292">
        <ele>362</ele>
        <time>2015-04-26T13:26:24Z</time>
      </trkpt>
      <trkpt lat="47.81339" lon="7.15299">
        <ele>362</ele>
        <time>2015-04-26T13:26:28Z</time>
      </trkpt>
      <trkpt lat="47.81341" lon="7.15308">
        <ele>361</ele>
        <time>2015-04-26T13:26:33Z</time>
      </trkpt>
      <trkpt lat="47.81342" lon="7.15315">
        <ele>361</ele>
        <time>2015-04-26T13:26:37Z</time>
      </trkpt>
      <trkpt lat="47.81342" lon="7.15329">
        <ele>359.3</ele>
        <time>2015-04-26T13:26:45Z</time>
      </trkpt>
      <trkpt lat="47.81339" lon="7.15337">
        <ele>359</ele>
        <time>2015-04-26T13:26:48Z</time>
      </trkpt>
      <trkpt lat="47.81337" lon="7.15344">
        <ele>359</ele>
        <time>2015-04-26T13:26:51Z</time>
      </trkpt>
      <trkpt lat="47.81332" lon="7.15355">
        <ele>357.5</ele>
        <time>2015-04-26T13:26:57Z</time>
      </trkpt>
      <trkpt lat="47.81331" lon="7.15362">
        <ele>356.5</ele>
        <time>2015-04-26T13:27:03Z</time>
      </trkpt>
      <trkpt lat="47.81329" lon="7.15377">
        <ele>356</ele>
        <time>2015-04-26T13:27:10Z</time>
      </trkpt>
      <trkpt lat="47.81328" lon="7.15384">
        <ele>356</ele>
        <time>2015-04-26T13:27:13Z</time>
      </trkpt>
      <trkpt lat="47.81331" lon="7.15391">
        <ele>356</ele>
        <time>2015-04-26T13:27:18Z</time>
      </trkpt>
      <trkpt lat="47.81332" lon="7.15406">
        <ele>355.1</ele>
        <time>2015-04-26T13:27:26Z</time>
      </trkpt>
      <trkpt lat="47.81333" lon="7.15414">
        <ele>355</ele>
        <time>2015-04-26T13:27:31Z</time>
      </trkpt>
      <trkpt lat="47.81334" lon="7.1543">
        <ele>348.8</ele>
        <time>2015-04-26T13:27:39Z</time>
      </trkpt>
      <trkpt lat="47.81335" lon="7.15445">
        <ele>346.2</ele>
        <time>2015-04-26T13:27:45Z</time>
      </trkpt>
      <trkpt lat="47.81336" lon="7.15458">
        <ele>346</ele>
        <time>2015-04-26T13:27:50Z</time>
      </trkpt>
      <trkpt lat="47.81338" lon="7.15473">
        <ele>345.1</ele>
        <time>2015-04-26T13:27:56Z</time>
      </trkpt>
      <trkpt lat="47.81341" lon="7.15493">
        <ele>345</ele>
        <time>2015-04-26T13:28:08Z</time>
      </trkpt>
      <trkpt lat="47.81347" lon="7.15504">
        <ele>345</ele>
        <time>2015-04-26T13:28:15Z</time>
      </trkpt>
      <trkpt lat="47.81349" lon="7.15511">
        <ele>345</ele>
        <time>2015-04-26T13:28:19Z</time>
      </trkpt>
      <trkpt lat="47.81352" lon="7.15527">
        <ele>345</ele>
        <time>2015-04-26T13:28:27Z</time>
      </trkpt>
      <trkpt lat="47.81353" lon="7.15536">
        <ele>345</ele>
        <time>2015-04-26T13:28:31Z</time>
      </trkpt>
      <trkpt lat="47.81357" lon="7.15549">
        <ele>345</ele>
        <time>2015-04-26T13:28:36Z</time>
      </trkpt>
      <trkpt lat="47.81357" lon="7.15556">
        <ele>344.2</ele>
        <time>2015-04-26T13:28:42Z</time>
      </trkpt>
      <trkpt lat="47.8136" lon="7.1557">
        <ele>343.1</ele>
        <time>2015-04-26T13:28:50Z</time>
      </trkpt>
      <trkpt lat="47.81361" lon="7.15578">
        <ele>343</ele>
        <time>2015-04-26T13:28:54Z</time>
      </trkpt>
      <trkpt lat="47.81364" lon="7.15584">
        <ele>343</ele>
        <time>2015-04-26T13:28:58Z</time>
      </trkpt>
      <trkpt lat="47.81365" lon="7.15601">
        <ele>338.8</ele>
        <time>2015-04-26T13:29:07Z</time>
      </trkpt>
      <trkpt lat="47.81362" lon="7.15615">
        <ele>337</ele>
        <time>2015-04-26T13:29:13Z</time>
      </trkpt>
      <trkpt lat="47.81361" lon="7.15622">
        <ele>336.5</ele>
        <time>2015-04-26T13:29:15Z</time>
      </trkpt>
      <trkpt lat="47.81361" lon="7.1563">
        <ele>336.1</ele>
        <time>2015-04-26T13:29:21Z</time>
      </trkpt>
      <trkpt lat="47.81366" lon="7.15641">
        <ele>336</ele>
        <time>2015-04-26T13:29:27Z</time>
      </trkpt>
      <trkpt lat="47.81367" lon="7.15655">
        <ele>336</ele>
        <time>2015-04-26T13:29:34Z</time>
      </trkpt>
      <trkpt lat="47.8137" lon="7.15676">
        <ele>336</ele>
        <time>2015-04-26T13:29:43Z</time>
      </trkpt>
      <trkpt lat="47.81372" lon="7.15684">
        <ele>336.8</ele>
        <time>2015-04-26T13:29:47Z</time>
      </trkpt>
      <trkpt lat="47.81379" lon="7.15694">
        <ele>338.7</ele>
        <time>2015-04-26T13:29:55Z</time>
      </trkpt>
      <trkpt lat="47.81383" lon="7.15708">
        <ele>339.9</ele>
        <time>2015-04-26T13:30:04Z</time>
      </trkpt>
      <trkpt lat="47.81383" lon="7.15721">
        <ele>340.7</ele>
        <time>2015-04-26T13:30:11Z</time>
      </trkpt>
      <trkpt lat="47.8138" lon="7.15734">
        <ele>341</ele>
        <time>2015-04-26T13:30:18Z</time>
      </trkpt>
      <trkpt lat="47.8138" lon="7.15748">
        <ele>341</ele>
        <time>2015-04-26T13:30:24Z</time>
      </trkpt>
      <trkpt lat="47.81386" lon="7.1576">
        <ele>341</ele>
        <time>2015-04-26T13:30:30Z</time>
      </trkpt>
      <trkpt lat="47.8139" lon="7.15763">
        <ele>341</ele>
        <time>2015-04-26T13:30:32Z</time>
      </trkpt>
      <trkpt lat="47.81392" lon="7.15771">
        <ele>341</ele>
        <time>2015-04-26T13:30:35Z</time>
      </trkpt>
      <trkpt lat="47.81393" lon="7.15779">
        <ele>341</ele>
        <time>2015-04-26T13:30:38Z</time>
      </trkpt>
      <trkpt lat="47.81398" lon="7.15786">
        <ele>341</ele>
        <time>2015-04-26T13:30:41Z</time>
      </trkpt>
      <trkpt lat="47.81409" lon="7.15793">
        <ele>340</ele>
        <time>2015-04-26T13:30:47Z</time>
      </trkpt>
      <trkpt lat="47.81414" lon="7.15797">
        <ele>337.2</ele>
        <time>2015-04-26T13:30:52Z</time>
      </trkpt>
      <trkpt lat="47.81416" lon="7.15818">
        <ele>336</ele>
        <time>2015-04-26T13:31:08Z</time>
      </trkpt>
      <trkpt lat="47.81418" lon="7.15826">
        <ele>336</ele>
        <time>2015-04-26T13:31:14Z</time>
      </trkpt>
      <trkpt lat="47.81418" lon="7.15832">
        <ele>336</ele>
        <time>2015-04-26T13:31:18Z</time>
      </trkpt>
      <trkpt lat="47.81419" lon="7.1584">
        <ele>336</ele>
        <time>2015-04-26T13:31:23Z</time>
      </trkpt>
      <trkpt lat="47.81418" lon="7.15847">
        <ele>336</ele>
        <time>2015-04-26T13:31:27Z</time>
      </trkpt>
      <trkpt lat="47.81418" lon="7.15869">
        <ele>337</ele>
        <time>2015-04-26T13:31:36Z</time>
      </trkpt>
      <trkpt lat="47.81419" lon="7.15883">
        <ele>337</ele>
        <time>2015-04-26T13:31:41Z</time>
      </trkpt>
      <trkpt lat="47.81422" lon="7.15889">
        <ele>337</ele>
        <time>2015-04-26T13:31:44Z</time>
      </trkpt>
      <trkpt lat="47.81423" lon="7.15896">
        <ele>337</ele>
        <time>2015-04-26T13:31:49Z</time>
      </trkpt>
      <trkpt lat="47.81424" lon="7.15903">
        <ele>337</ele>
        <time>2015-04-26T13:31:53Z</time>
      </trkpt>
      <trkpt lat="47.81436" lon="7.15915">
        <ele>337</ele>
        <time>2015-04-26T13:32:05Z</time>
      </trkpt>
      <trkpt lat="47.8144" lon="7.15918">
        <ele>337</ele>
        <time>2015-04-26T13:32:08Z</time>
      </trkpt>
      <trkpt lat="47.81443" lon="7.15924">
        <ele>337</ele>
        <time>2015-04-26T13:32:12Z</time>
      </trkpt>
      <trkpt lat="47.81448" lon="7.15936">
        <ele>337</ele>
        <time>2015-04-26T13:32:21Z</time>
      </trkpt>
      <trkpt lat="47.81452" lon="7.15949">
        <ele>334.1</ele>
        <time>2015-04-26T13:32:30Z</time>
      </trkpt>
      <trkpt lat="47.81463" lon="7.15957">
        <ele>334</ele>
        <time>2015-04-26T13:32:38Z</time>
      </trkpt>
      <trkpt lat="47.81467" lon="7.15964">
        <ele>334</ele>
        <time>2015-04-26T13:32:42Z</time>
      </trkpt>
      <trkpt lat="47.81472" lon="7.15975">
        <ele>333</ele>
        <time>2015-04-26T13:32:48Z</time>
      </trkpt>
      <trkpt lat="47.81476" lon="7.1598">
        <ele>333</ele>
        <time>2015-04-26T13:32:51Z</time>
      </trkpt>
      <trkpt lat="47.8148" lon="7.15985">
        <ele>333</ele>
        <time>2015-04-26T13:32:55Z</time>
      </trkpt>
      <trkpt lat="47.81483" lon="7.15999">
        <ele>333</ele>
        <time>2015-04-26T13:33:02Z</time>
      </trkpt>
      <trkpt lat="47.81486" lon="7.16012">
        <ele>333</ele>
        <time>2015-04-26T13:33:09Z</time>
      </trkpt>
      <trkpt lat="47.81494" lon="7.1603">
        <ele>333</ele>
        <time>2015-04-26T13:33:21Z</time>
      </trkpt>
      <trkpt lat="47.81496" lon="7.16038">
        <ele>333</ele>
        <time>2015-04-26T13:33:25Z</time>
      </trkpt>
      <trkpt lat="47.81499" lon="7.16044">
        <ele>333</ele>
        <time>2015-04-26T13:33:29Z</time>
      </trkpt>
      <trkpt lat="47.81505" lon="7.16054">
        <ele>333</ele>
        <time>2015-04-26T13:33:36Z</time>
      </trkpt>
      <trkpt lat="47.81503" lon="7.16068">
        <ele>334</ele>
        <time>2015-04-26T13:33:44Z</time>
      </trkpt>
      <trkpt lat="47.81496" lon="7.16086">
        <ele>334.2</ele>
        <time>2015-04-26T13:33:50Z</time>
      </trkpt>
      <trkpt lat="47.81504" lon="7.16097">
        <ele>334.9</ele>
        <time>2015-04-26T13:33:57Z</time>
      </trkpt>
      <trkpt lat="47.81513" lon="7.16101">
        <ele>334.1</ele>
        <time>2015-04-26T13:34:01Z</time>
      </trkpt>
      <trkpt lat="47.81518" lon="7.16102">
        <ele>334.4</ele>
        <time>2015-04-26T13:34:06Z</time>
      </trkpt>
      <trkpt lat="47.81529" lon="7.16117">
        <ele>333</ele>
        <time>2015-04-26T13:34:15Z</time>
      </trkpt>
      <trkpt lat="47.81535" lon="7.16128">
        <ele>333</ele>
        <time>2015-04-26T13:34:22Z</time>
      </trkpt>
      <trkpt lat="47.81542" lon="7.16137">
        <ele>333</ele>
        <time>2015-04-26T13:34:29Z</time>
      </trkpt>
      <trkpt lat="47.81546" lon="7.16143">
        <ele>333</ele>
        <time>2015-04-26T13:34:32Z</time>
      </trkpt>
      <trkpt lat="47.81542" lon="7.16147">
        <ele>333</ele>
        <time>2015-04-26T13:34:38Z</time>
      </trkpt>
      <trkpt lat="47.81539" lon="7.16155">
        <ele>337.9</ele>
        <time>2015-04-26T13:35:13Z</time>
      </trkpt>
      <trkpt lat="47.81535" lon="7.16152">
        <ele>338.7</ele>
        <time>2015-04-26T13:35:19Z</time>
      </trkpt>
      <trkpt lat="47.8154" lon="7.16151">
        <ele>338.7</ele>
        <time>2015-04-26T13:35:23Z</time>
      </trkpt>
      <trkpt lat="47.81543" lon="7.16158">
        <ele>338.9</ele>
        <time>2015-04-26T13:35:27Z</time>
      </trkpt>
      <trkpt lat="47.81537" lon="7.16168">
        <ele>338.6</ele>
        <time>2015-04-26T13:35:35Z</time>
      </trkpt>
      <trkpt lat="47.81533" lon="7.16173">
        <ele>338</ele>
        <time>2015-04-26T13:35:41Z</time>
      </trkpt>
      <trkpt lat="47.81525" lon="7.16189">
        <ele>337.2</ele>
        <time>2015-04-26T13:35:51Z</time>
      </trkpt>
      <trkpt lat="47.81518" lon="7.16198">
        <ele>335.1</ele>
        <time>2015-04-26T13:35:59Z</time>
      </trkpt>
      <trkpt lat="47.81516" lon="7.16205">
        <ele>335</ele>
        <time>2015-04-26T13:36:02Z</time>
      </trkpt>
      <trkpt lat="47.81513" lon="7.16211">
        <ele>335</ele>
        <time>2015-04-26T13:36:05Z</time>
      </trkpt>
      <trkpt lat="47.81511" lon="7.16217">
        <ele>335.5</ele>
        <time>2015-04-26T13:36:10Z</time>
      </trkpt>
      <trkpt lat="47.81499" lon="7.16229">
        <ele>335.5</ele>
        <time>2015-04-26T13:36:21Z</time>
      </trkpt>
      <trkpt lat="47.81493" lon="7.16244">
        <ele>339.7</ele>
        <time>2015-04-26T13:36:31Z</time>
      </trkpt>
      <trkpt lat="47.81485" lon="7.16255">
        <ele>341</ele>
        <time>2015-04-26T13:36:41Z</time>
      </trkpt>
      <trkpt lat="47.81478" lon="7.16264">
        <ele>341</ele>
        <time>2015-04-26T13:36:49Z</time>
      </trkpt>
      <trkpt lat="47.81468" lon="7.16274">
        <ele>341</ele>
        <time>2015-04-26T13:36:58Z</time>
      </trkpt>
      <trkpt lat="47.81463" lon="7.16286">
        <ele>341</ele>
        <time>2015-04-26T13:37:02Z</time>
      </trkpt>
      <trkpt lat="47.8146" lon="7.16291">
        <ele>340.2</ele>
        <time>2015-04-26T13:37:05Z</time>
      </trkpt>
      <trkpt lat="47.81454" lon="7.16302">
        <ele>340</ele>
        <time>2015-04-26T13:37:12Z</time>
      </trkpt>
      <trkpt lat="47.8145" lon="7.16309">
        <ele>340</ele>
        <time>2015-04-26T13:37:16Z</time>
      </trkpt>
      <trkpt lat="47.81446" lon="7.16314">
        <ele>340</ele>
        <time>2015-04-26T13:37:19Z</time>
      </trkpt>
      <trkpt lat="47.81442" lon="7.16317">
        <ele>340</ele>
        <time>2015-04-26T13:37:23Z</time>
      </trkpt>
      <trkpt lat="47.81438" lon="7.16324">
        <ele>339.5</ele>
        <time>2015-04-26T13:37:29Z</time>
      </trkpt>
      <trkpt lat="47.81426" lon="7.16333">
        <ele>339</ele>
        <time>2015-04-26T13:37:45Z</time>
      </trkpt>
      <trkpt lat="47.81417" lon="7.16342">
        <ele>339</ele>
        <time>2015-04-26T13:37:50Z</time>
      </trkpt>
      <trkpt lat="47.81411" lon="7.1635">
        <ele>339</ele>
        <time>2015-04-26T13:37:55Z</time>
      </trkpt>
      <trkpt lat="47.81401" lon="7.16367">
        <ele>336.3</ele>
        <time>2015-04-26T13:38:08Z</time>
      </trkpt>
      <trkpt lat="47.81396" lon="7.16367">
        <ele>335.3</ele>
        <time>2015-04-26T13:38:16Z</time>
      </trkpt>
      <trkpt lat="47.81388" lon="7.16375">
        <ele>334.1</ele>
        <time>2015-04-26T13:38:26Z</time>
      </trkpt>
      <trkpt lat="47.81382" lon="7.16386">
        <ele>333.1</ele>
        <time>2015-04-26T13:38:31Z</time>
      </trkpt>
      <trkpt lat="47.81376" lon="7.16397">
        <ele>333</ele>
        <time>2015-04-26T13:38:37Z</time>
      </trkpt>
      <trkpt lat="47.81371" lon="7.16401">
        <ele>332.8</ele>
        <time>2015-04-26T13:38:41Z</time>
      </trkpt>
      <trkpt lat="47.81365" lon="7.16411">
        <ele>329.8</ele>
        <time>2015-04-26T13:38:47Z</time>
      </trkpt>
      <trkpt lat="47.81359" lon="7.16423">
        <ele>328</ele>
        <time>2015-04-26T13:38:53Z</time>
      </trkpt>
      <trkpt lat="47.81351" lon="7.16432">
        <ele>327.1</ele>
        <time>2015-04-26T13:39:02Z</time>
      </trkpt>
      <trkpt lat="47.81347" lon="7.16436">
        <ele>327</ele>
        <time>2015-04-26T13:39:05Z</time>
      </trkpt>
      <trkpt lat="47.81343" lon="7.16439">
        <ele>327</ele>
        <time>2015-04-26T13:39:10Z</time>
      </trkpt>
      <trkpt lat="47.81334" lon="7.16444">
        <ele>327</ele>
        <time>2015-04-26T13:39:16Z</time>
      </trkpt>
      <trkpt lat="47.81327" lon="7.16453">
        <ele>327.9</ele>
        <time>2015-04-26T13:39:24Z</time>
      </trkpt>
      <trkpt lat="47.81323" lon="7.16457">
        <ele>328</ele>
        <time>2015-04-26T13:39:27Z</time>
      </trkpt>
      <trkpt lat="47.81322" lon="7.16466">
        <ele>328</ele>
        <time>2015-04-26T13:39:30Z</time>
      </trkpt>
      <trkpt lat="47.81319" lon="7.16473">
        <ele>329</ele>
        <time>2015-04-26T13:39:34Z</time>
      </trkpt>
      <trkpt lat="47.81311" lon="7.1648">
        <ele>330</ele>
        <time>2015-04-26T13:39:42Z</time>
      </trkpt>
      <trkpt lat="47.81303" lon="7.16489">
        <ele>330.9</ele>
        <time>2015-04-26T13:39:49Z</time>
      </trkpt>
      <trkpt lat="47.81292" lon="7.16504">
        <ele>332</ele>
        <time>2015-04-26T13:39:59Z</time>
      </trkpt>
      <trkpt lat="47.81286" lon="7.16508">
        <ele>333</ele>
        <time>2015-04-26T13:40:03Z</time>
      </trkpt>
      <trkpt lat="47.81281" lon="7.16507">
        <ele>333.7</ele>
        <time>2015-04-26T13:40:11Z</time>
      </trkpt>
      <trkpt lat="47.81278" lon="7.16514">
        <ele>333.7</ele>
        <time>2015-04-26T13:40:15Z</time>
      </trkpt>
      <trkpt lat="47.81271" lon="7.16527">
        <ele>334</ele>
        <time>2015-04-26T13:40:19Z</time>
      </trkpt>
      <trkpt lat="47.81263" lon="7.16539">
        <ele>334</ele>
        <time>2015-04-26T13:40:25Z</time>
      </trkpt>
      <trkpt lat="47.81258" lon="7.1654">
        <ele>334</ele>
        <time>2015-04-26T13:40:30Z</time>
      </trkpt>
      <trkpt lat="47.81256" lon="7.16546">
        <ele>334</ele>
        <time>2015-04-26T13:40:36Z</time>
      </trkpt>
      <trkpt lat="47.81251" lon="7.16548">
        <ele>333.2</ele>
        <time>2015-04-26T13:40:42Z</time>
      </trkpt>
      <trkpt lat="47.81242" lon="7.16554">
        <ele>332.3</ele>
        <time>2015-04-26T13:40:49Z</time>
      </trkpt>
      <trkpt lat="47.81236" lon="7.16565">
        <ele>331.5</ele>
        <time>2015-04-26T13:40:56Z</time>
      </trkpt>
      <trkpt lat="47.81228" lon="7.16574">
        <ele>328.5</ele>
        <time>2015-04-26T13:41:04Z</time>
      </trkpt>
      <trkpt lat="47.81226" lon="7.1658">
        <ele>324.6</ele>
        <time>2015-04-26T13:41:09Z</time>
      </trkpt>
      <trkpt lat="47.81219" lon="7.16583">
        <ele>324</ele>
        <time>2015-04-26T13:41:13Z</time>
      </trkpt>
      <trkpt lat="47.81216" lon="7.16589">
        <ele>324</ele>
        <time>2015-04-26T13:41:17Z</time>
      </trkpt>
      <trkpt lat="47.81213" lon="7.16595">
        <ele>323.1</ele>
        <time>2015-04-26T13:41:21Z</time>
      </trkpt>
      <trkpt lat="47.81209" lon="7.166">
        <ele>322.5</ele>
        <time>2015-04-26T13:41:27Z</time>
      </trkpt>
      <trkpt lat="47.81204" lon="7.16596">
        <ele>322.5</ele>
        <time>2015-04-26T13:41:31Z</time>
      </trkpt>
      <trkpt lat="47.812" lon="7.16601">
        <ele>322</ele>
        <time>2015-04-26T13:41:36Z</time>
      </trkpt>
      <trkpt lat="47.8119" lon="7.16617">
        <ele>321</ele>
        <time>2015-04-26T13:41:44Z</time>
      </trkpt>
      <trkpt lat="47.81182" lon="7.16627">
        <ele>320.3</ele>
        <time>2015-04-26T13:41:51Z</time>
      </trkpt>
      <trkpt lat="47.8118" lon="7.16634">
        <ele>320</ele>
        <time>2015-04-26T13:41:54Z</time>
      </trkpt>
      <trkpt lat="47.81176" lon="7.16638">
        <ele>320</ele>
        <time>2015-04-26T13:41:58Z</time>
      </trkpt>
      <trkpt lat="47.81171" lon="7.16643">
        <ele>318.2</ele>
        <time>2015-04-26T13:42:02Z</time>
      </trkpt>
      <trkpt lat="47.81168" lon="7.16648">
        <ele>317.1</ele>
        <time>2015-04-26T13:42:08Z</time>
      </trkpt>
      <trkpt lat="47.81164" lon="7.16656">
        <ele>312.1</ele>
        <time>2015-04-26T13:42:14Z</time>
      </trkpt>
      <trkpt lat="47.8116" lon="7.16661">
        <ele>312.1</ele>
        <time>2015-04-26T13:42:17Z</time>
      </trkpt>
      <trkpt lat="47.81156" lon="7.16665">
        <ele>309.7</ele>
        <time>2015-04-26T13:42:21Z</time>
      </trkpt>
      <trkpt lat="47.8115" lon="7.16676">
        <ele>309</ele>
        <time>2015-04-26T13:42:28Z</time>
      </trkpt>
      <trkpt lat="47.8114" lon="7.16691">
        <ele>308</ele>
        <time>2015-04-26T13:42:37Z</time>
      </trkpt>
      <trkpt lat="47.81136" lon="7.16696">
        <ele>308</ele>
        <time>2015-04-26T13:42:41Z</time>
      </trkpt>
      <trkpt lat="47.81133" lon="7.16709">
        <ele>308</ele>
        <time>2015-04-26T13:42:47Z</time>
      </trkpt>
      <trkpt lat="47.81129" lon="7.16723">
        <ele>307</ele>
        <time>2015-04-26T13:42:54Z</time>
      </trkpt>
      <trkpt lat="47.81127" lon="7.16729">
        <ele>307</ele>
        <time>2015-04-26T13:42:57Z</time>
      </trkpt>
      <trkpt lat="47.81122" lon="7.16732">
        <ele>306.3</ele>
        <time>2015-04-26T13:43:02Z</time>
      </trkpt>
      <trkpt lat="47.81113" lon="7.16749">
        <ele>306</ele>
        <time>2015-04-26T13:43:12Z</time>
      </trkpt>
      <trkpt lat="47.81111" lon="7.16755">
        <ele>306</ele>
        <time>2015-04-26T13:43:16Z</time>
      </trkpt>
      <trkpt lat="47.81108" lon="7.16761">
        <ele>306</ele>
        <time>2015-04-26T13:43:20Z</time>
      </trkpt>
      <trkpt lat="47.81097" lon="7.16774">
        <ele>306</ele>
        <time>2015-04-26T13:43:29Z</time>
      </trkpt>
      <trkpt lat="47.81092" lon="7.16778">
        <ele>306</ele>
        <time>2015-04-26T13:43:33Z</time>
      </trkpt>
      <trkpt lat="47.81086" lon="7.16796">
        <ele>306</ele>
        <time>2015-04-26T13:43:44Z</time>
      </trkpt>
      <trkpt lat="47.81082" lon="7.16804">
        <ele>306.9</ele>
        <time>2015-04-26T13:43:49Z</time>
      </trkpt>
      <trkpt lat="47.81079" lon="7.1681">
        <ele>307.5</ele>
        <time>2015-04-26T13:43:53Z</time>
      </trkpt>
      <trkpt lat="47.81076" lon="7.16818">
        <ele>309.8</ele>
        <time>2015-04-26T13:43:57Z</time>
      </trkpt>
      <trkpt lat="47.81073" lon="7.16831">
        <ele>310.7</ele>
        <time>2015-04-26T13:44:05Z</time>
      </trkpt>
      <trkpt lat="47.81069" lon="7.16831">
        <ele>311</ele>
        <time>2015-04-26T13:44:09Z</time>
      </trkpt>
      <trkpt lat="47.81061" lon="7.16843">
        <ele>311.8</ele>
        <time>2015-04-26T13:44:18Z</time>
      </trkpt>
      <trkpt lat="47.81053" lon="7.16848">
        <ele>312</ele>
        <time>2015-04-26T13:44:26Z</time>
      </trkpt>
      <trkpt lat="47.81048" lon="7.16848">
        <ele>312</ele>
        <time>2015-04-26T13:44:30Z</time>
      </trkpt>
      <trkpt lat="47.81037" lon="7.1686">
        <ele>312</ele>
        <time>2015-04-26T13:44:40Z</time>
      </trkpt>
      <trkpt lat="47.81035" lon="7.16867">
        <ele>312</ele>
        <time>2015-04-26T13:44:44Z</time>
      </trkpt>
      <trkpt lat="47.81029" lon="7.16877">
        <ele>312</ele>
        <time>2015-04-26T13:44:50Z</time>
      </trkpt>
      <trkpt lat="47.81021" lon="7.16886">
        <ele>312</ele>
        <time>2015-04-26T13:44:58Z</time>
      </trkpt>
      <trkpt lat="47.81017" lon="7.16891">
        <ele>311.5</ele>
        <time>2015-04-26T13:45:04Z</time>
      </trkpt>
      <trkpt lat="47.81007" lon="7.16906">
        <ele>309</ele>
        <time>2015-04-26T13:45:14Z</time>
      </trkpt>
      <trkpt lat="47.81005" lon="7.16912">
        <ele>308</ele>
        <time>2015-04-26T13:45:18Z</time>
      </trkpt>
      <trkpt lat="47.81" lon="7.16915">
        <ele>308</ele>
        <time>2015-04-26T13:45:22Z</time>
      </trkpt>
      <trkpt lat="47.80987" lon="7.16924">
        <ele>307</ele>
        <time>2015-04-26T13:45:30Z</time>
      </trkpt>
      <trkpt lat="47.80979" lon="7.16937">
        <ele>307</ele>
        <time>2015-04-26T13:45:37Z</time>
      </trkpt>
      <trkpt lat="47.80967" lon="7.16945">
        <ele>307</ele>
        <time>2015-04-26T13:45:48Z</time>
      </trkpt>
      <trkpt lat="47.80959" lon="7.16954">
        <ele>307</ele>
        <time>2015-04-26T13:45:54Z</time>
      </trkpt>
      <trkpt lat="47.80955" lon="7.16967">
        <ele>307</ele>
        <time>2015-04-26T13:45:57Z</time>
      </trkpt>
      <trkpt lat="47.80952" lon="7.16972">
        <ele>307.8</ele>
        <time>2015-04-26T13:46:01Z</time>
      </trkpt>
      <trkpt lat="47.80948" lon="7.16977">
        <ele>308.7</ele>
        <time>2015-04-26T13:46:04Z</time>
      </trkpt>
      <trkpt lat="47.80938" lon="7.16989">
        <ele>309.5</ele>
        <time>2015-04-26T13:46:16Z</time>
      </trkpt>
      <trkpt lat="47.8093" lon="7.17006">
        <ele>310.9</ele>
        <time>2015-04-26T13:46:25Z</time>
      </trkpt>
      <trkpt lat="47.80927" lon="7.17013">
        <ele>311</ele>
        <time>2015-04-26T13:46:30Z</time>
      </trkpt>
      <trkpt lat="47.80924" lon="7.17019">
        <ele>311</ele>
        <time>2015-04-26T13:46:33Z</time>
      </trkpt>
      <trkpt lat="47.80916" lon="7.17027">
        <ele>310</ele>
        <time>2015-04-26T13:46:41Z</time>
      </trkpt>
      <trkpt lat="47.80914" lon="7.17039">
        <ele>310.5</ele>
        <time>2015-04-26T13:46:48Z</time>
      </trkpt>
      <trkpt lat="47.80911" lon="7.17046">
        <ele>310.5</ele>
        <time>2015-04-26T13:46:51Z</time>
      </trkpt>
      <trkpt lat="47.80908" lon="7.17052">
        <ele>310.9</ele>
        <time>2015-04-26T13:46:54Z</time>
      </trkpt>
      <trkpt lat="47.80899" lon="7.17058">
        <ele>310.1</ele>
        <time>2015-04-26T13:47:02Z</time>
      </trkpt>
      <trkpt lat="47.80895" lon="7.17065">
        <ele>309.1</ele>
        <time>2015-04-26T13:47:07Z</time>
      </trkpt>
      <trkpt lat="47.80896" lon="7.17072">
        <ele>309</ele>
        <time>2015-04-26T13:47:12Z</time>
      </trkpt>
      <trkpt lat="47.80892" lon="7.17079">
        <ele>309</ele>
        <time>2015-04-26T13:47:16Z</time>
      </trkpt>
      <trkpt lat="47.80884" lon="7.17083">
        <ele>309</ele>
        <time>2015-04-26T13:47:21Z</time>
      </trkpt>
      <trkpt lat="47.80879" lon="7.17093">
        <ele>309</ele>
        <time>2015-04-26T13:47:31Z</time>
      </trkpt>
      <trkpt lat="47.80879" lon="7.17115">
        <ele>308</ele>
        <time>2015-04-26T13:47:39Z</time>
      </trkpt>
      <trkpt lat="47.80879" lon="7.17129">
        <ele>305.2</ele>
        <time>2015-04-26T13:47:48Z</time>
      </trkpt>
      <trkpt lat="47.80878" lon="7.1715">
        <ele>302.3</ele>
        <time>2015-04-26T13:47:57Z</time>
      </trkpt>
      <trkpt lat="47.80876" lon="7.17171">
        <ele>302.5</ele>
        <time>2015-04-26T13:48:08Z</time>
      </trkpt>
      <trkpt lat="47.80874" lon="7.17179">
        <ele>302.2</ele>
        <time>2015-04-26T13:48:12Z</time>
      </trkpt>
      <trkpt lat="47.80872" lon="7.17186">
        <ele>302.3</ele>
        <time>2015-04-26T13:48:15Z</time>
      </trkpt>
      <trkpt lat="47.80872" lon="7.17194">
        <ele>302.3</ele>
        <time>2015-04-26T13:48:19Z</time>
      </trkpt>
      <trkpt lat="47.80862" lon="7.17198">
        <ele>302</ele>
        <time>2015-04-26T13:48:30Z</time>
      </trkpt>
      <trkpt lat="47.80851" lon="7.17206">
        <ele>302</ele>
        <time>2015-04-26T13:48:33Z</time>
      </trkpt>
      <trkpt lat="47.80843" lon="7.17206">
        <ele>302.8</ele>
        <time>2015-04-26T13:48:38Z</time>
      </trkpt>
      <trkpt lat="47.80838" lon="7.17208">
        <ele>302.8</ele>
        <time>2015-04-26T13:48:42Z</time>
      </trkpt>
      <trkpt lat="47.80829" lon="7.17213">
        <ele>304.4</ele>
        <time>2015-04-26T13:48:48Z</time>
      </trkpt>
      <trkpt lat="47.8082" lon="7.17208">
        <ele>305</ele>
        <time>2015-04-26T13:48:57Z</time>
      </trkpt>
      <trkpt lat="47.80811" lon="7.17208">
        <ele>305</ele>
        <time>2015-04-26T13:49:03Z</time>
      </trkpt>
      <trkpt lat="47.80804" lon="7.17208">
        <ele>305</ele>
        <time>2015-04-26T13:49:08Z</time>
      </trkpt>
      <trkpt lat="47.80799" lon="7.1721">
        <ele>305</ele>
        <time>2015-04-26T13:49:12Z</time>
      </trkpt>
      <trkpt lat="47.80786" lon="7.17218">
        <ele>306.7</ele>
        <time>2015-04-26T13:49:23Z</time>
      </trkpt>
      <trkpt lat="47.80781" lon="7.17216">
        <ele>310.5</ele>
        <time>2015-04-26T13:49:29Z</time>
      </trkpt>
      <trkpt lat="47.80776" lon="7.17217">
        <ele>311.4</ele>
        <time>2015-04-26T13:49:33Z</time>
      </trkpt>
      <trkpt lat="47.80771" lon="7.17213">
        <ele>311.5</ele>
        <time>2015-04-26T13:49:38Z</time>
      </trkpt>
      <trkpt lat="47.80767" lon="7.17211">
        <ele>311.5</ele>
        <time>2015-04-26T13:49:42Z</time>
      </trkpt>
      <trkpt lat="47.80762" lon="7.17211">
        <ele>311.9</ele>
        <time>2015-04-26T13:49:45Z</time>
      </trkpt>
      <trkpt lat="47.80751" lon="7.17215">
        <ele>311.2</ele>
        <time>2015-04-26T13:49:53Z</time>
      </trkpt>
      <trkpt lat="47.80746" lon="7.17216">
        <ele>311.9</ele>
        <time>2015-04-26T13:49:56Z</time>
      </trkpt>
      <trkpt lat="47.80741" lon="7.17216">
        <ele>311.9</ele>
        <time>2015-04-26T13:49:59Z</time>
      </trkpt>
      <trkpt lat="47.80736" lon="7.17216">
        <ele>311.3</ele>
        <time>2015-04-26T13:50:02Z</time>
      </trkpt>
      <trkpt lat="47.80731" lon="7.17219">
        <ele>310.1</ele>
        <time>2015-04-26T13:50:07Z</time>
      </trkpt>
      <trkpt lat="47.80726" lon="7.17224">
        <ele>309.3</ele>
        <time>2015-04-26T13:50:10Z</time>
      </trkpt>
      <trkpt lat="47.80717" lon="7.17228">
        <ele>309</ele>
        <time>2015-04-26T13:50:15Z</time>
      </trkpt>
      <trkpt lat="47.80708" lon="7.17229">
        <ele>309</ele>
        <time>2015-04-26T13:50:21Z</time>
      </trkpt>
      <trkpt lat="47.80699" lon="7.17234">
        <ele>309</ele>
        <time>2015-04-26T13:50:26Z</time>
      </trkpt>
      <trkpt lat="47.8069" lon="7.17237">
        <ele>309</ele>
        <time>2015-04-26T13:50:33Z</time>
      </trkpt>
      <trkpt lat="47.80685" lon="7.17236">
        <ele>309.5</ele>
        <time>2015-04-26T13:50:39Z</time>
      </trkpt>
      <trkpt lat="47.80676" lon="7.17233">
        <ele>310</ele>
        <time>2015-04-26T13:50:47Z</time>
      </trkpt>
      <trkpt lat="47.80665" lon="7.17241">
        <ele>310</ele>
        <time>2015-04-26T13:50:54Z</time>
      </trkpt>
      <trkpt lat="47.80654" lon="7.17259">
        <ele>310.5</ele>
        <time>2015-04-26T13:50:58Z</time>
      </trkpt>
      <trkpt lat="47.80648" lon="7.17265">
        <ele>311.7</ele>
        <time>2015-04-26T13:51:00Z</time>
      </trkpt>
      <trkpt lat="47.80643" lon="7.17268">
        <ele>311.7</ele>
        <time>2015-04-26T13:51:02Z</time>
      </trkpt>
      <trkpt lat="47.80634" lon="7.17267">
        <ele>312</ele>
        <time>2015-04-26T13:51:08Z</time>
      </trkpt>
      <trkpt lat="47.80626" lon="7.17261">
        <ele>313.9</ele>
        <time>2015-04-26T13:51:14Z</time>
      </trkpt>
      <trkpt lat="47.80621" lon="7.17265">
        <ele>314.5</ele>
        <time>2015-04-26T13:51:24Z</time>
      </trkpt>
      <trkpt lat="47.80617" lon="7.17262">
        <ele>315</ele>
        <time>2015-04-26T13:51:32Z</time>
      </trkpt>
      <trkpt lat="47.80612" lon="7.17263">
        <ele>315</ele>
        <time>2015-04-26T13:51:37Z</time>
      </trkpt>
      <trkpt lat="47.80601" lon="7.17265">
        <ele>315</ele>
        <time>2015-04-26T13:51:43Z</time>
      </trkpt>
      <trkpt lat="47.80596" lon="7.17264">
        <ele>315</ele>
        <time>2015-04-26T13:51:46Z</time>
      </trkpt>
      <trkpt lat="47.80589" lon="7.1726">
        <ele>315</ele>
        <time>2015-04-26T13:51:51Z</time>
      </trkpt>
      <trkpt lat="47.80583" lon="7.17261">
        <ele>315</ele>
        <time>2015-04-26T13:51:54Z</time>
      </trkpt>
      <trkpt lat="47.80576" lon="7.17269">
        <ele>314.1</ele>
        <time>2015-04-26T13:52:00Z</time>
      </trkpt>
      <trkpt lat="47.80573" lon="7.17274">
        <ele>314</ele>
        <time>2015-04-26T13:52:04Z</time>
      </trkpt>
      <trkpt lat="47.80566" lon="7.17272">
        <ele>310.3</ele>
        <time>2015-04-26T13:52:14Z</time>
      </trkpt>
      <trkpt lat="47.80557" lon="7.17265">
        <ele>309</ele>
        <time>2015-04-26T13:52:23Z</time>
      </trkpt>
      <trkpt lat="47.80551" lon="7.1726">
        <ele>308</ele>
        <time>2015-04-26T13:52:27Z</time>
      </trkpt>
      <trkpt lat="47.80546" lon="7.17258">
        <ele>308</ele>
        <time>2015-04-26T13:52:30Z</time>
      </trkpt>
      <trkpt lat="47.80541" lon="7.17257">
        <ele>307</ele>
        <time>2015-04-26T13:52:34Z</time>
      </trkpt>
      <trkpt lat="47.80531" lon="7.1726">
        <ele>305.5</ele>
        <time>2015-04-26T13:52:43Z</time>
      </trkpt>
      <trkpt lat="47.80527" lon="7.1726">
        <ele>304.5</ele>
        <time>2015-04-26T13:52:46Z</time>
      </trkpt>
      <trkpt lat="47.80522" lon="7.17264">
        <ele>304</ele>
        <time>2015-04-26T13:52:50Z</time>
      </trkpt>
      <trkpt lat="47.80515" lon="7.17277">
        <ele>304</ele>
        <time>2015-04-26T13:52:57Z</time>
      </trkpt>
      <trkpt lat="47.80512" lon="7.17283">
        <ele>303</ele>
        <time>2015-04-26T13:53:00Z</time>
      </trkpt>
      <trkpt lat="47.80507" lon="7.17285">
        <ele>302.3</ele>
        <time>2015-04-26T13:53:03Z</time>
      </trkpt>
      <trkpt lat="47.80494" lon="7.17287">
        <ele>300.1</ele>
        <time>2015-04-26T13:53:15Z</time>
      </trkpt>
      <trkpt lat="47.80489" lon="7.17286">
        <ele>300</ele>
        <time>2015-04-26T13:53:19Z</time>
      </trkpt>
      <trkpt lat="47.80484" lon="7.17284">
        <ele>300</ele>
        <time>2015-04-26T13:53:23Z</time>
      </trkpt>
      <trkpt lat="47.80475" lon="7.17289">
        <ele>300</ele>
        <time>2015-04-26T13:53:30Z</time>
      </trkpt>
      <trkpt lat="47.80469" lon="7.17291">
        <ele>300</ele>
        <time>2015-04-26T13:53:34Z</time>
      </trkpt>
      <trkpt lat="47.80465" lon="7.1729">
        <ele>300</ele>
        <time>2015-04-26T13:53:38Z</time>
      </trkpt>
      <trkpt lat="47.8046" lon="7.17287">
        <ele>300.8</ele>
        <time>2015-04-26T13:53:44Z</time>
      </trkpt>
      <trkpt lat="47.80454" lon="7.1729">
        <ele>300.8</ele>
        <time>2015-04-26T13:53:47Z</time>
      </trkpt>
      <trkpt lat="47.80449" lon="7.17294">
        <ele>301</ele>
        <time>2015-04-26T13:53:50Z</time>
      </trkpt>
      <trkpt lat="47.80436" lon="7.17299">
        <ele>302</ele>
        <time>2015-04-26T13:54:02Z</time>
      </trkpt>
      <trkpt lat="47.80431" lon="7.17296">
        <ele>302</ele>
        <time>2015-04-26T13:54:07Z</time>
      </trkpt>
      <trkpt lat="47.80423" lon="7.1729">
        <ele>302</ele>
        <time>2015-04-26T13:54:15Z</time>
      </trkpt>
      <trkpt lat="47.80423" lon="7.17281">
        <ele>302.9</ele>
        <time>2015-04-26T13:54:18Z</time>
      </trkpt>
      <trkpt lat="47.80425" lon="7.17267">
        <ele>303</ele>
        <time>2015-04-26T13:54:24Z</time>
      </trkpt>
      <trkpt lat="47.80426" lon="7.17246">
        <ele>303</ele>
        <time>2015-04-26T13:54:33Z</time>
      </trkpt>
      <trkpt lat="47.80426" lon="7.17238">
        <ele>303</ele>
        <time>2015-04-26T13:54:36Z</time>
      </trkpt>
      <trkpt lat="47.80429" lon="7.17224">
        <ele>303</ele>
        <time>2015-04-26T13:54:44Z</time>
      </trkpt>
      <trkpt lat="47.80433" lon="7.17205">
        <ele>304</ele>
        <time>2015-04-26T13:54:55Z</time>
      </trkpt>
      <trkpt lat="47.80432" lon="7.17197">
        <ele>304</ele>
        <time>2015-04-26T13:54:59Z</time>
      </trkpt>
      <trkpt lat="47.80432" lon="7.17188">
        <ele>304</ele>
        <time>2015-04-26T13:55:04Z</time>
      </trkpt>
      <trkpt lat="47.80432" lon="7.17177">
        <ele>305</ele>
        <time>2015-04-26T13:55:09Z</time>
      </trkpt>
      <trkpt lat="47.80434" lon="7.17169">
        <ele>305</ele>
        <time>2015-04-26T13:55:14Z</time>
      </trkpt>
      <trkpt lat="47.80434" lon="7.17155">
        <ele>306</ele>
        <time>2015-04-26T13:55:21Z</time>
      </trkpt>
      <trkpt lat="47.80439" lon="7.17153">
        <ele>306</ele>
        <time>2015-04-26T13:55:27Z</time>
      </trkpt>
      <trkpt lat="47.80441" lon="7.17145">
        <ele>306</ele>
        <time>2015-04-26T13:55:31Z</time>
      </trkpt>
      <trkpt lat="47.80442" lon="7.17131">
        <ele>306</ele>
        <time>2015-04-26T13:55:38Z</time>
      </trkpt>
      <trkpt lat="47.80441" lon="7.17123">
        <ele>306</ele>
        <time>2015-04-26T13:55:41Z</time>
      </trkpt>
      <trkpt lat="47.80441" lon="7.17112">
        <ele>306</ele>
        <time>2015-04-26T13:55:46Z</time>
      </trkpt>
      <trkpt lat="47.8044" lon="7.17103">
        <ele>306</ele>
        <time>2015-04-26T13:55:50Z</time>
      </trkpt>
      <trkpt lat="47.8044" lon="7.17092">
        <ele>306</ele>
        <time>2015-04-26T13:55:55Z</time>
      </trkpt>
      <trkpt lat="47.80441" lon="7.17084">
        <ele>306</ele>
        <time>2015-04-26T13:55:59Z</time>
      </trkpt>
      <trkpt lat="47.80444" lon="7.17077">
        <ele>306</ele>
        <time>2015-04-26T13:56:04Z</time>
      </trkpt>
      <trkpt lat="47.80443" lon="7.17056">
        <ele>306</ele>
        <time>2015-04-26T13:56:15Z</time>
      </trkpt>
      <trkpt lat="47.80438" lon="7.17042">
        <ele>306</ele>
        <time>2015-04-26T13:56:23Z</time>
      </trkpt>
      <trkpt lat="47.80436" lon="7.17036">
        <ele>306</ele>
        <time>2015-04-26T13:56:26Z</time>
      </trkpt>
      <trkpt lat="47.80435" lon="7.17028">
        <ele>306</ele>
        <time>2015-04-26T13:56:30Z</time>
      </trkpt>
      <trkpt lat="47.80436" lon="7.1702">
        <ele>306.5</ele>
        <time>2015-04-26T13:56:34Z</time>
      </trkpt>
      <trkpt lat="47.80435" lon="7.17012">
        <ele>307</ele>
        <time>2015-04-26T13:56:39Z</time>
      </trkpt>
      <trkpt lat="47.8043" lon="7.17011">
        <ele>309</ele>
        <time>2015-04-26T13:56:45Z</time>
      </trkpt>
      <trkpt lat="47.80425" lon="7.1701">
        <ele>309</ele>
        <time>2015-04-26T13:56:48Z</time>
      </trkpt>
      <trkpt lat="47.80417" lon="7.17006">
        <ele>309</ele>
        <time>2015-04-26T13:56:56Z</time>
      </trkpt>
      <trkpt lat="47.80415" lon="7.17007">
        <ele>302</ele>
        <time>2015-04-26T13:57:02Z</time>
      </trkpt>
      <trkpt lat="47.80415" lon="7.17007">
        <ele>299.3</ele>
        <time>2015-04-26T13:57:02Z</time>
      </trkpt>
      <trkpt lat="47.80415" lon="7.17007">
        <ele>299.3</ele>
        <time>2015-04-26T13:57:05Z</time>
      </trkpt>
    </trkseg>
  </trk>
</gpx>